<?xml version="1.0" encoding="ISO-8859-1" standalone="yes"?>
<gpx
  xmlns="http://www.topografix.com/GPX/1/1"
  version="1.1" creator="LoadMyTracks/073 http://www.cluetrust.com/LoadMyTracks.html"
  xmlns:xsi="http://www.w3.org/2001/XMLSchema-instance"
  xmlns:gpxdata="http://www.cluetrust.com/XML/GPXDATA/1/0"
  xmlns:geocache="http://www.groundspeak.com/cache/1/0"
  xsi:schemaLocation="http://www.topografix.com/GPX/1/1 http://www.topografix.com/GPX/1/1/gpx.xsd
http://www.cluetrust.com/XML/GPXDATA/1/0 http://www.cluetrust.com/Schemas/gpxdata10.xsd">
<trk>
<name>2010/8/4 8:51:24 GMT</name>
<trkseg>
	<trkpt lat="52.03873" lon="-2.005678333"><ele>66.000000</ele><time>2010-08-04T08:51:24Z</time></trkpt>
	<trkpt lat="52.03874" lon="-2.005678333"><ele>67.000000</ele><time>2010-08-04T08:51:29Z</time></trkpt>
	<trkpt lat="52.03874667" lon="-2.005683333"><ele>67.000000</ele><time>2010-08-04T08:51:34Z</time></trkpt>
	<trkpt lat="52.03875333" lon="-2.005685"><ele>67.000000</ele><time>2010-08-04T08:51:39Z</time></trkpt>
	<trkpt lat="52.03875667" lon="-2.005685"><ele>67.000000</ele><time>2010-08-04T08:51:44Z</time></trkpt>
	<trkpt lat="52.038755" lon="-2.005683333"><ele>66.000000</ele><time>2010-08-04T08:51:49Z</time></trkpt>
	<trkpt lat="52.03875333" lon="-2.005685"><ele>65.000000</ele><time>2010-08-04T08:51:54Z</time></trkpt>
	<trkpt lat="52.03875167" lon="-2.005685"><ele>65.000000</ele><time>2010-08-04T08:51:59Z</time></trkpt>
	<trkpt lat="52.03875333" lon="-2.005685"><ele>65.000000</ele><time>2010-08-04T08:52:04Z</time></trkpt>
	<trkpt lat="52.03875333" lon="-2.005685"><ele>65.000000</ele><time>2010-08-04T08:52:09Z</time></trkpt>
	<trkpt lat="52.03875333" lon="-2.005683333"><ele>65.000000</ele><time>2010-08-04T08:52:14Z</time></trkpt>
	<trkpt lat="52.03875333" lon="-2.005683333"><ele>65.000000</ele><time>2010-08-04T08:52:19Z</time></trkpt>
	<trkpt lat="52.03875333" lon="-2.005681667"><ele>65.000000</ele><time>2010-08-04T08:52:24Z</time></trkpt>
	<trkpt lat="52.03875333" lon="-2.00568"><ele>65.000000</ele><time>2010-08-04T08:52:29Z</time></trkpt>
	<trkpt lat="52.03875333" lon="-2.005678333"><ele>65.000000</ele><time>2010-08-04T08:52:34Z</time></trkpt>
	<trkpt lat="52.03875333" lon="-2.005678333"><ele>65.000000</ele><time>2010-08-04T08:52:39Z</time></trkpt>
	<trkpt lat="52.03875333" lon="-2.005678333"><ele>64.000000</ele><time>2010-08-04T08:52:44Z</time></trkpt>
	<trkpt lat="52.03875333" lon="-2.005676667"><ele>64.000000</ele><time>2010-08-04T08:52:49Z</time></trkpt>
	<trkpt lat="52.03875167" lon="-2.005675"><ele>65.000000</ele><time>2010-08-04T08:52:54Z</time></trkpt>
	<trkpt lat="52.03875" lon="-2.005671667"><ele>65.000000</ele><time>2010-08-04T08:52:59Z</time></trkpt>
	<trkpt lat="52.03874667" lon="-2.005671667"><ele>65.000000</ele><time>2010-08-04T08:53:04Z</time></trkpt>
	<trkpt lat="52.03874667" lon="-2.00567"><ele>65.000000</ele><time>2010-08-04T08:53:09Z</time></trkpt>
	<trkpt lat="52.038745" lon="-2.005668333"><ele>65.000000</ele><time>2010-08-04T08:53:14Z</time></trkpt>
	<trkpt lat="52.03874333" lon="-2.005666667"><ele>65.000000</ele><time>2010-08-04T08:53:19Z</time></trkpt>
	<trkpt lat="52.03874167" lon="-2.005665"><ele>66.000000</ele><time>2010-08-04T08:53:24Z</time></trkpt>
	<trkpt lat="52.03874" lon="-2.005665"><ele>66.000000</ele><time>2010-08-04T08:53:29Z</time></trkpt>
	<trkpt lat="52.03874" lon="-2.005663333"><ele>66.000000</ele><time>2010-08-04T08:53:34Z</time></trkpt>
	<trkpt lat="52.03874" lon="-2.005661667"><ele>66.000000</ele><time>2010-08-04T08:53:39Z</time></trkpt>
	<trkpt lat="52.03874" lon="-2.00566"><ele>66.000000</ele><time>2010-08-04T08:53:44Z</time></trkpt>
	<trkpt lat="52.03874" lon="-2.005661667"><ele>66.000000</ele><time>2010-08-04T08:53:49Z</time></trkpt>
	<trkpt lat="52.038755" lon="-2.005665"><ele>64.000000</ele><time>2010-08-04T08:53:54Z</time></trkpt>
	<trkpt lat="52.03876167" lon="-2.005663333"><ele>65.000000</ele><time>2010-08-04T08:53:59Z</time></trkpt>
	<trkpt lat="52.03877" lon="-2.005691667"><ele>66.000000</ele><time>2010-08-04T08:54:04Z</time></trkpt>
	<trkpt lat="52.03879833" lon="-2.005741667"><ele>67.000000</ele><time>2010-08-04T08:54:09Z</time></trkpt>
	<trkpt lat="52.03882667" lon="-2.005735"><ele>68.000000</ele><time>2010-08-04T08:54:14Z</time></trkpt>
	<trkpt lat="52.03882833" lon="-2.005736667"><ele>69.000000</ele><time>2010-08-04T08:54:19Z</time></trkpt>
	<trkpt lat="52.03882667" lon="-2.005736667"><ele>69.000000</ele><time>2010-08-04T08:54:24Z</time></trkpt>
	<trkpt lat="52.03880667" lon="-2.005743333"><ele>69.000000</ele><time>2010-08-04T08:54:29Z</time></trkpt>
	<trkpt lat="52.038785" lon="-2.005716667"><ele>66.000000</ele><time>2010-08-04T08:54:34Z</time></trkpt>
	<trkpt lat="52.03878167" lon="-2.005708333"><ele>67.000000</ele><time>2010-08-04T08:54:39Z</time></trkpt>
	<trkpt lat="52.038765" lon="-2.005698333"><ele>68.000000</ele><time>2010-08-04T08:54:44Z</time></trkpt>
	<trkpt lat="52.03877" lon="-2.005698333"><ele>68.000000</ele><time>2010-08-04T08:54:49Z</time></trkpt>
	<trkpt lat="52.038775" lon="-2.005695"><ele>67.000000</ele><time>2010-08-04T08:54:54Z</time></trkpt>
	<trkpt lat="52.03878167" lon="-2.005696667"><ele>66.000000</ele><time>2010-08-04T08:54:59Z</time></trkpt>
	<trkpt lat="52.03878167" lon="-2.005706667"><ele>66.000000</ele><time>2010-08-04T08:55:04Z</time></trkpt>
	<trkpt lat="52.03878333" lon="-2.005706667"><ele>65.000000</ele><time>2010-08-04T08:55:09Z</time></trkpt>
	<trkpt lat="52.03878333" lon="-2.005706667"><ele>65.000000</ele><time>2010-08-04T08:55:14Z</time></trkpt>
	<trkpt lat="52.03878333" lon="-2.005706667"><ele>64.000000</ele><time>2010-08-04T08:55:19Z</time></trkpt>
	<trkpt lat="52.03878" lon="-2.0057"><ele>64.000000</ele><time>2010-08-04T08:55:24Z</time></trkpt>
	<trkpt lat="52.03878167" lon="-2.0057"><ele>65.000000</ele><time>2010-08-04T08:55:29Z</time></trkpt>
	<trkpt lat="52.03878167" lon="-2.005703333"><ele>65.000000</ele><time>2010-08-04T08:55:34Z</time></trkpt>
	<trkpt lat="52.038775" lon="-2.005705"><ele>64.000000</ele><time>2010-08-04T08:55:39Z</time></trkpt>
	<trkpt lat="52.03877333" lon="-2.005705"><ele>64.000000</ele><time>2010-08-04T08:55:44Z</time></trkpt>
	<trkpt lat="52.03877" lon="-2.005705"><ele>64.000000</ele><time>2010-08-04T08:55:49Z</time></trkpt>
	<trkpt lat="52.038765" lon="-2.005706667"><ele>63.000000</ele><time>2010-08-04T08:55:54Z</time></trkpt>
	<trkpt lat="52.03876167" lon="-2.005706667"><ele>63.000000</ele><time>2010-08-04T08:55:59Z</time></trkpt>
	<trkpt lat="52.03876167" lon="-2.005706667"><ele>63.000000</ele><time>2010-08-04T08:56:04Z</time></trkpt>
	<trkpt lat="52.03876167" lon="-2.0057"><ele>63.000000</ele><time>2010-08-04T08:56:09Z</time></trkpt>
	<trkpt lat="52.03877" lon="-2.00567"><ele>63.000000</ele><time>2010-08-04T08:56:14Z</time></trkpt>
	<trkpt lat="52.038765" lon="-2.005688333"><ele>64.000000</ele><time>2010-08-04T08:56:19Z</time></trkpt>
	<trkpt lat="52.038745" lon="-2.005685"><ele>64.000000</ele><time>2010-08-04T08:56:24Z</time></trkpt>
	<trkpt lat="52.03874" lon="-2.00568"><ele>65.000000</ele><time>2010-08-04T08:56:29Z</time></trkpt>
	<trkpt lat="52.03874" lon="-2.005678333"><ele>66.000000</ele><time>2010-08-04T08:56:34Z</time></trkpt>
	<trkpt lat="52.03873167" lon="-2.005666667"><ele>68.000000</ele><time>2010-08-04T08:56:39Z</time></trkpt>
	<trkpt lat="52.03873" lon="-2.00567"><ele>67.000000</ele><time>2010-08-04T08:56:44Z</time></trkpt>
	<trkpt lat="52.03872667" lon="-2.005675"><ele>67.000000</ele><time>2010-08-04T08:56:49Z</time></trkpt>
	<trkpt lat="52.03871667" lon="-2.005675"><ele>66.000000</ele><time>2010-08-04T08:56:54Z</time></trkpt>
	<trkpt lat="52.038705" lon="-2.005665"><ele>67.000000</ele><time>2010-08-04T08:56:59Z</time></trkpt>
	<trkpt lat="52.03871333" lon="-2.005651667"><ele>68.000000</ele><time>2010-08-04T08:57:04Z</time></trkpt>
	<trkpt lat="52.03875" lon="-2.005656667"><ele>73.000000</ele><time>2010-08-04T08:57:09Z</time></trkpt>
	<trkpt lat="52.03875" lon="-2.005656667"><ele>73.000000</ele><time>2010-08-04T08:57:14Z</time></trkpt>
	<trkpt lat="52.038755" lon="-2.005651667"><ele>73.000000</ele><time>2010-08-04T08:57:19Z</time></trkpt>
	<trkpt lat="52.03876833" lon="-2.005651667"><ele>75.000000</ele><time>2010-08-04T08:57:24Z</time></trkpt>
	<trkpt lat="52.03875167" lon="-2.005628333"><ele>75.000000</ele><time>2010-08-04T08:57:29Z</time></trkpt>
	<trkpt lat="52.03874" lon="-2.005603333"><ele>76.000000</ele><time>2010-08-04T08:57:34Z</time></trkpt>
	<trkpt lat="52.03870833" lon="-2.005588333"><ele>76.000000</ele><time>2010-08-04T08:57:39Z</time></trkpt>
	<trkpt lat="52.03867167" lon="-2.005568333"><ele>75.000000</ele><time>2010-08-04T08:57:44Z</time></trkpt>
	<trkpt lat="52.03864167" lon="-2.005543333"><ele>73.000000</ele><time>2010-08-04T08:57:49Z</time></trkpt>
	<trkpt lat="52.03860333" lon="-2.005503333"><ele>73.000000</ele><time>2010-08-04T08:57:54Z</time></trkpt>
	<trkpt lat="52.03855833" lon="-2.005448333"><ele>70.000000</ele><time>2010-08-04T08:57:59Z</time></trkpt>
	<trkpt lat="52.038535" lon="-2.005381667"><ele>69.000000</ele><time>2010-08-04T08:58:04Z</time></trkpt>
	<trkpt lat="52.03853" lon="-2.005315"><ele>67.000000</ele><time>2010-08-04T08:58:09Z</time></trkpt>
	<trkpt lat="52.038525" lon="-2.005261667"><ele>66.000000</ele><time>2010-08-04T08:58:14Z</time></trkpt>
	<trkpt lat="52.03852667" lon="-2.005211667"><ele>65.000000</ele><time>2010-08-04T08:58:19Z</time></trkpt>
	<trkpt lat="52.03852167" lon="-2.005178333"><ele>64.000000</ele><time>2010-08-04T08:58:24Z</time></trkpt>
	<trkpt lat="52.038525" lon="-2.00515"><ele>63.000000</ele><time>2010-08-04T08:58:29Z</time></trkpt>
	<trkpt lat="52.03852" lon="-2.005108333"><ele>63.000000</ele><time>2010-08-04T08:58:34Z</time></trkpt>
	<trkpt lat="52.03849667" lon="-2.005078333"><ele>63.000000</ele><time>2010-08-04T08:58:39Z</time></trkpt>
	<trkpt lat="52.03848" lon="-2.00505"><ele>63.000000</ele><time>2010-08-04T08:58:42Z</time></trkpt>
	<trkpt lat="52.03847" lon="-2.005051667"><ele>63.000000</ele><time>2010-08-04T08:58:47Z</time></trkpt>
	<trkpt lat="52.038415" lon="-2.005036667"><ele>62.000000</ele><time>2010-08-04T08:58:52Z</time></trkpt>
	<trkpt lat="52.038355" lon="-2.00502"><ele>61.000000</ele><time>2010-08-04T08:58:57Z</time></trkpt>
	<trkpt lat="52.03829667" lon="-2.00501"><ele>60.000000</ele><time>2010-08-04T08:59:02Z</time></trkpt>
	<trkpt lat="52.03824833" lon="-2.004993333"><ele>59.000000</ele><time>2010-08-04T08:59:07Z</time></trkpt>
	<trkpt lat="52.03819833" lon="-2.004978333"><ele>58.000000</ele><time>2010-08-04T08:59:12Z</time></trkpt>
	<trkpt lat="52.03815333" lon="-2.004961667"><ele>58.000000</ele><time>2010-08-04T08:59:17Z</time></trkpt>
	<trkpt lat="52.03812" lon="-2.004946667"><ele>58.000000</ele><time>2010-08-04T08:59:22Z</time></trkpt>
	<trkpt lat="52.03807167" lon="-2.004936667"><ele>57.000000</ele><time>2010-08-04T08:59:27Z</time></trkpt>
	<trkpt lat="52.03802667" lon="-2.004933333"><ele>57.000000</ele><time>2010-08-04T08:59:32Z</time></trkpt>
	<trkpt lat="52.037975" lon="-2.004925"><ele>57.000000</ele><time>2010-08-04T08:59:37Z</time></trkpt>
	<trkpt lat="52.037925" lon="-2.004931667"><ele>57.000000</ele><time>2010-08-04T08:59:42Z</time></trkpt>
	<trkpt lat="52.03789167" lon="-2.004951667"><ele>57.000000</ele><time>2010-08-04T08:59:47Z</time></trkpt>
	<trkpt lat="52.03787" lon="-2.004985"><ele>57.000000</ele><time>2010-08-04T08:59:52Z</time></trkpt>
	<trkpt lat="52.03781667" lon="-2.005006667"><ele>57.000000</ele><time>2010-08-04T08:59:57Z</time></trkpt>
	<trkpt lat="52.037765" lon="-2.005031667"><ele>57.000000</ele><time>2010-08-04T09:00:02Z</time></trkpt>
	<trkpt lat="52.03771833" lon="-2.005071667"><ele>57.000000</ele><time>2010-08-04T09:00:07Z</time></trkpt>
	<trkpt lat="52.03769" lon="-2.005123333"><ele>57.000000</ele><time>2010-08-04T09:00:12Z</time></trkpt>
	<trkpt lat="52.037675" lon="-2.00516"><ele>57.000000</ele><time>2010-08-04T09:00:17Z</time></trkpt>
	<trkpt lat="52.03767833" lon="-2.005181667"><ele>57.000000</ele><time>2010-08-04T09:00:22Z</time></trkpt>
	<trkpt lat="52.03768833" lon="-2.005205"><ele>57.000000</ele><time>2010-08-04T09:00:27Z</time></trkpt>
	<trkpt lat="52.03771" lon="-2.00531"><ele>56.000000</ele><time>2010-08-04T09:00:32Z</time></trkpt>
	<trkpt lat="52.03772" lon="-2.005406667"><ele>57.000000</ele><time>2010-08-04T09:00:37Z</time></trkpt>
	<trkpt lat="52.03773167" lon="-2.005493333"><ele>58.000000</ele><time>2010-08-04T09:00:42Z</time></trkpt>
	<trkpt lat="52.03774167" lon="-2.00556"><ele>59.000000</ele><time>2010-08-04T09:00:47Z</time></trkpt>
	<trkpt lat="52.03774667" lon="-2.0056"><ele>61.000000</ele><time>2010-08-04T09:00:52Z</time></trkpt>
	<trkpt lat="52.03777" lon="-2.00569"><ele>60.000000</ele><time>2010-08-04T09:00:57Z</time></trkpt>
	<trkpt lat="52.03777167" lon="-2.005761667"><ele>60.000000</ele><time>2010-08-04T09:01:02Z</time></trkpt>
	<trkpt lat="52.03775" lon="-2.005861667"><ele>59.000000</ele><time>2010-08-04T09:01:07Z</time></trkpt>
	<trkpt lat="52.03772833" lon="-2.00596"><ele>59.000000</ele><time>2010-08-04T09:01:12Z</time></trkpt>
	<trkpt lat="52.037715" lon="-2.00605"><ele>59.000000</ele><time>2010-08-04T09:01:17Z</time></trkpt>
	<trkpt lat="52.037705" lon="-2.006138333"><ele>60.000000</ele><time>2010-08-04T09:01:22Z</time></trkpt>
	<trkpt lat="52.037705" lon="-2.006216667"><ele>60.000000</ele><time>2010-08-04T09:01:27Z</time></trkpt>
	<trkpt lat="52.037705" lon="-2.006285"><ele>61.000000</ele><time>2010-08-04T09:01:32Z</time></trkpt>
	<trkpt lat="52.03773" lon="-2.00637"><ele>61.000000</ele><time>2010-08-04T09:01:37Z</time></trkpt>
	<trkpt lat="52.03774167" lon="-2.00643"><ele>62.000000</ele><time>2010-08-04T09:01:42Z</time></trkpt>
	<trkpt lat="52.03773833" lon="-2.006468333"><ele>61.000000</ele><time>2010-08-04T09:01:47Z</time></trkpt>
	<trkpt lat="52.03771833" lon="-2.00647"><ele>61.000000</ele><time>2010-08-04T09:01:52Z</time></trkpt>
	<trkpt lat="52.03772667" lon="-2.006503333"><ele>62.000000</ele><time>2010-08-04T09:01:57Z</time></trkpt>
	<trkpt lat="52.037735" lon="-2.006553333"><ele>63.000000</ele><time>2010-08-04T09:02:02Z</time></trkpt>
	<trkpt lat="52.03774" lon="-2.006606667"><ele>63.000000</ele><time>2010-08-04T09:02:07Z</time></trkpt>
	<trkpt lat="52.03774333" lon="-2.006636667"><ele>63.000000</ele><time>2010-08-04T09:02:12Z</time></trkpt>
	<trkpt lat="52.03775333" lon="-2.006655"><ele>63.000000</ele><time>2010-08-04T09:02:17Z</time></trkpt>
	<trkpt lat="52.03776" lon="-2.006675"><ele>63.000000</ele><time>2010-08-04T09:02:22Z</time></trkpt>
	<trkpt lat="52.03776" lon="-2.006705"><ele>63.000000</ele><time>2010-08-04T09:02:27Z</time></trkpt>
	<trkpt lat="52.03776333" lon="-2.00678"><ele>64.000000</ele><time>2010-08-04T09:02:32Z</time></trkpt>
	<trkpt lat="52.037765" lon="-2.006796667"><ele>65.000000</ele><time>2010-08-04T09:02:37Z</time></trkpt>
	<trkpt lat="52.0378" lon="-2.006781667"><ele>65.000000</ele><time>2010-08-04T09:02:42Z</time></trkpt>
	<trkpt lat="52.03780667" lon="-2.00678"><ele>65.000000</ele><time>2010-08-04T09:02:47Z</time></trkpt>
	<trkpt lat="52.0378" lon="-2.00678"><ele>66.000000</ele><time>2010-08-04T09:02:52Z</time></trkpt>
	<trkpt lat="52.03780333" lon="-2.00679"><ele>65.000000</ele><time>2010-08-04T09:02:57Z</time></trkpt>
	<trkpt lat="52.037795" lon="-2.006793333"><ele>66.000000</ele><time>2010-08-04T09:03:02Z</time></trkpt>
	<trkpt lat="52.03779167" lon="-2.006785"><ele>66.000000</ele><time>2010-08-04T09:03:07Z</time></trkpt>
	<trkpt lat="52.03779167" lon="-2.006776667"><ele>65.000000</ele><time>2010-08-04T09:03:12Z</time></trkpt>
	<trkpt lat="52.03779167" lon="-2.00677"><ele>65.000000</ele><time>2010-08-04T09:03:17Z</time></trkpt>
	<trkpt lat="52.03778333" lon="-2.006803333"><ele>65.000000</ele><time>2010-08-04T09:03:22Z</time></trkpt>
	<trkpt lat="52.03774667" lon="-2.006915"><ele>65.000000</ele><time>2010-08-04T09:03:27Z</time></trkpt>
	<trkpt lat="52.037705" lon="-2.00703"><ele>64.000000</ele><time>2010-08-04T09:03:32Z</time></trkpt>
	<trkpt lat="52.03766667" lon="-2.007145"><ele>64.000000</ele><time>2010-08-04T09:03:37Z</time></trkpt>
	<trkpt lat="52.03762667" lon="-2.007251667"><ele>64.000000</ele><time>2010-08-04T09:03:42Z</time></trkpt>
	<trkpt lat="52.03758167" lon="-2.007355"><ele>63.000000</ele><time>2010-08-04T09:03:47Z</time></trkpt>
	<trkpt lat="52.03753833" lon="-2.00745"><ele>64.000000</ele><time>2010-08-04T09:03:52Z</time></trkpt>
	<trkpt lat="52.03750667" lon="-2.007555"><ele>64.000000</ele><time>2010-08-04T09:03:57Z</time></trkpt>
	<trkpt lat="52.03747167" lon="-2.007661667"><ele>64.000000</ele><time>2010-08-04T09:04:02Z</time></trkpt>
	<trkpt lat="52.03743" lon="-2.007766667"><ele>63.000000</ele><time>2010-08-04T09:04:07Z</time></trkpt>
	<trkpt lat="52.03739" lon="-2.007868333"><ele>63.000000</ele><time>2010-08-04T09:04:12Z</time></trkpt>
	<trkpt lat="52.03735667" lon="-2.007975"><ele>63.000000</ele><time>2010-08-04T09:04:17Z</time></trkpt>
	<trkpt lat="52.03732167" lon="-2.00808"><ele>63.000000</ele><time>2010-08-04T09:04:22Z</time></trkpt>
	<trkpt lat="52.03728167" lon="-2.008173333"><ele>63.000000</ele><time>2010-08-04T09:04:27Z</time></trkpt>
	<trkpt lat="52.03724833" lon="-2.008275"><ele>63.000000</ele><time>2010-08-04T09:04:32Z</time></trkpt>
	<trkpt lat="52.037215" lon="-2.008375"><ele>63.000000</ele><time>2010-08-04T09:04:37Z</time></trkpt>
	<trkpt lat="52.03718" lon="-2.008471667"><ele>62.000000</ele><time>2010-08-04T09:04:42Z</time></trkpt>
	<trkpt lat="52.037135" lon="-2.008551667"><ele>62.000000</ele><time>2010-08-04T09:04:47Z</time></trkpt>
	<trkpt lat="52.03709333" lon="-2.008625"><ele>62.000000</ele><time>2010-08-04T09:04:52Z</time></trkpt>
	<trkpt lat="52.03704" lon="-2.008686667"><ele>62.000000</ele><time>2010-08-04T09:04:57Z</time></trkpt>
	<trkpt lat="52.03699333" lon="-2.008761667"><ele>62.000000</ele><time>2010-08-04T09:05:02Z</time></trkpt>
	<trkpt lat="52.03694667" lon="-2.008838333"><ele>62.000000</ele><time>2010-08-04T09:05:07Z</time></trkpt>
	<trkpt lat="52.03690333" lon="-2.008916667"><ele>62.000000</ele><time>2010-08-04T09:05:12Z</time></trkpt>
	<trkpt lat="52.03685667" lon="-2.008993333"><ele>62.000000</ele><time>2010-08-04T09:05:17Z</time></trkpt>
	<trkpt lat="52.03681167" lon="-2.009066667"><ele>62.000000</ele><time>2010-08-04T09:05:22Z</time></trkpt>
	<trkpt lat="52.03677167" lon="-2.009143333"><ele>62.000000</ele><time>2010-08-04T09:05:27Z</time></trkpt>
	<trkpt lat="52.03674833" lon="-2.009233333"><ele>63.000000</ele><time>2010-08-04T09:05:32Z</time></trkpt>
	<trkpt lat="52.03673333" lon="-2.009326667"><ele>63.000000</ele><time>2010-08-04T09:05:37Z</time></trkpt>
	<trkpt lat="52.03671333" lon="-2.00942"><ele>63.000000</ele><time>2010-08-04T09:05:42Z</time></trkpt>
	<trkpt lat="52.03670167" lon="-2.009495"><ele>64.000000</ele><time>2010-08-04T09:05:47Z</time></trkpt>
	<trkpt lat="52.03669333" lon="-2.009556667"><ele>64.000000</ele><time>2010-08-04T09:05:52Z</time></trkpt>
	<trkpt lat="52.03669833" lon="-2.009566667"><ele>65.000000</ele><time>2010-08-04T09:05:57Z</time></trkpt>
	<trkpt lat="52.03668667" lon="-2.009636667"><ele>65.000000</ele><time>2010-08-04T09:06:02Z</time></trkpt>
	<trkpt lat="52.03667833" lon="-2.009718333"><ele>65.000000</ele><time>2010-08-04T09:06:07Z</time></trkpt>
	<trkpt lat="52.03667" lon="-2.009803333"><ele>66.000000</ele><time>2010-08-04T09:06:12Z</time></trkpt>
	<trkpt lat="52.03665667" lon="-2.009895"><ele>66.000000</ele><time>2010-08-04T09:06:17Z</time></trkpt>
	<trkpt lat="52.03664833" lon="-2.009985"><ele>67.000000</ele><time>2010-08-04T09:06:22Z</time></trkpt>
	<trkpt lat="52.03664" lon="-2.010065"><ele>67.000000</ele><time>2010-08-04T09:06:27Z</time></trkpt>
	<trkpt lat="52.03663333" lon="-2.010146667"><ele>67.000000</ele><time>2010-08-04T09:06:32Z</time></trkpt>
	<trkpt lat="52.036625" lon="-2.010226667"><ele>67.000000</ele><time>2010-08-04T09:06:37Z</time></trkpt>
	<trkpt lat="52.03661167" lon="-2.010288333"><ele>67.000000</ele><time>2010-08-04T09:06:42Z</time></trkpt>
	<trkpt lat="52.03660833" lon="-2.010335"><ele>68.000000</ele><time>2010-08-04T09:06:47Z</time></trkpt>
	<trkpt lat="52.03659833" lon="-2.010416667"><ele>68.000000</ele><time>2010-08-04T09:06:52Z</time></trkpt>
	<trkpt lat="52.03658" lon="-2.010498333"><ele>68.000000</ele><time>2010-08-04T09:06:57Z</time></trkpt>
	<trkpt lat="52.03655833" lon="-2.010578333"><ele>68.000000</ele><time>2010-08-04T09:07:02Z</time></trkpt>
	<trkpt lat="52.03654333" lon="-2.01066"><ele>68.000000</ele><time>2010-08-04T09:07:07Z</time></trkpt>
	<trkpt lat="52.03652833" lon="-2.01074"><ele>68.000000</ele><time>2010-08-04T09:07:12Z</time></trkpt>
	<trkpt lat="52.03652833" lon="-2.010793333"><ele>68.000000</ele><time>2010-08-04T09:07:17Z</time></trkpt>
	<trkpt lat="52.03651167" lon="-2.010813333"><ele>68.000000</ele><time>2010-08-04T09:07:22Z</time></trkpt>
	<trkpt lat="52.03648333" lon="-2.010821667"><ele>69.000000</ele><time>2010-08-04T09:07:27Z</time></trkpt>
	<trkpt lat="52.03646667" lon="-2.010808333"><ele>69.000000</ele><time>2010-08-04T09:07:32Z</time></trkpt>
	<trkpt lat="52.03646833" lon="-2.010808333"><ele>69.000000</ele><time>2010-08-04T09:07:37Z</time></trkpt>
	<trkpt lat="52.03646833" lon="-2.010806667"><ele>70.000000</ele><time>2010-08-04T09:07:42Z</time></trkpt>
	<trkpt lat="52.03647333" lon="-2.010786667"><ele>72.000000</ele><time>2010-08-04T09:07:47Z</time></trkpt>
	<trkpt lat="52.036475" lon="-2.0108"><ele>73.000000</ele><time>2010-08-04T09:07:52Z</time></trkpt>
	<trkpt lat="52.03648167" lon="-2.010778333"><ele>72.000000</ele><time>2010-08-04T09:07:57Z</time></trkpt>
	<trkpt lat="52.03648833" lon="-2.0108"><ele>71.000000</ele><time>2010-08-04T09:08:02Z</time></trkpt>
	<trkpt lat="52.03646833" lon="-2.010865"><ele>72.000000</ele><time>2010-08-04T09:08:07Z</time></trkpt>
	<trkpt lat="52.03645" lon="-2.010968333"><ele>72.000000</ele><time>2010-08-04T09:08:12Z</time></trkpt>
	<trkpt lat="52.036435" lon="-2.011058333"><ele>74.000000</ele><time>2010-08-04T09:08:17Z</time></trkpt>
	<trkpt lat="52.03641667" lon="-2.011108333"><ele>75.000000</ele><time>2010-08-04T09:08:22Z</time></trkpt>
	<trkpt lat="52.03639167" lon="-2.01118"><ele>73.000000</ele><time>2010-08-04T09:08:27Z</time></trkpt>
	<trkpt lat="52.03638667" lon="-2.011186667"><ele>73.000000</ele><time>2010-08-04T09:08:32Z</time></trkpt>
	<trkpt lat="52.036385" lon="-2.011215"><ele>73.000000</ele><time>2010-08-04T09:08:37Z</time></trkpt>
	<trkpt lat="52.03635167" lon="-2.01131"><ele>72.000000</ele><time>2010-08-04T09:08:42Z</time></trkpt>
	<trkpt lat="52.03632333" lon="-2.01141"><ele>72.000000</ele><time>2010-08-04T09:08:47Z</time></trkpt>
	<trkpt lat="52.036295" lon="-2.011511667"><ele>72.000000</ele><time>2010-08-04T09:08:52Z</time></trkpt>
	<trkpt lat="52.03626333" lon="-2.01161"><ele>72.000000</ele><time>2010-08-04T09:08:57Z</time></trkpt>
	<trkpt lat="52.03622833" lon="-2.01171"><ele>71.000000</ele><time>2010-08-04T09:09:02Z</time></trkpt>
	<trkpt lat="52.03619667" lon="-2.01181"><ele>71.000000</ele><time>2010-08-04T09:09:07Z</time></trkpt>
	<trkpt lat="52.03616333" lon="-2.011903333"><ele>71.000000</ele><time>2010-08-04T09:09:12Z</time></trkpt>
	<trkpt lat="52.03613667" lon="-2.011968333"><ele>71.000000</ele><time>2010-08-04T09:09:17Z</time></trkpt>
	<trkpt lat="52.03613" lon="-2.011963333"><ele>70.000000</ele><time>2010-08-04T09:09:22Z</time></trkpt>
	<trkpt lat="52.03612167" lon="-2.011963333"><ele>69.000000</ele><time>2010-08-04T09:09:27Z</time></trkpt>
	<trkpt lat="52.03611833" lon="-2.011963333"><ele>69.000000</ele><time>2010-08-04T09:09:32Z</time></trkpt>
	<trkpt lat="52.03610833" lon="-2.011975"><ele>69.000000</ele><time>2010-08-04T09:09:37Z</time></trkpt>
	<trkpt lat="52.03610167" lon="-2.011993333"><ele>69.000000</ele><time>2010-08-04T09:09:42Z</time></trkpt>
	<trkpt lat="52.03607" lon="-2.012033333"><ele>69.000000</ele><time>2010-08-04T09:09:47Z</time></trkpt>
	<trkpt lat="52.03603667" lon="-2.01207"><ele>69.000000</ele><time>2010-08-04T09:09:52Z</time></trkpt>
	<trkpt lat="52.03599333" lon="-2.012106667"><ele>69.000000</ele><time>2010-08-04T09:09:57Z</time></trkpt>
	<trkpt lat="52.03595" lon="-2.012158333"><ele>70.000000</ele><time>2010-08-04T09:10:02Z</time></trkpt>
	<trkpt lat="52.03592" lon="-2.012206667"><ele>71.000000</ele><time>2010-08-04T09:10:07Z</time></trkpt>
	<trkpt lat="52.03587667" lon="-2.012256667"><ele>71.000000</ele><time>2010-08-04T09:10:12Z</time></trkpt>
	<trkpt lat="52.03584" lon="-2.012306667"><ele>71.000000</ele><time>2010-08-04T09:10:17Z</time></trkpt>
	<trkpt lat="52.03580167" lon="-2.012363333"><ele>71.000000</ele><time>2010-08-04T09:10:22Z</time></trkpt>
	<trkpt lat="52.03576833" lon="-2.012425"><ele>72.000000</ele><time>2010-08-04T09:10:27Z</time></trkpt>
	<trkpt lat="52.03573667" lon="-2.012485"><ele>72.000000</ele><time>2010-08-04T09:10:32Z</time></trkpt>
	<trkpt lat="52.0357" lon="-2.012548333"><ele>72.000000</ele><time>2010-08-04T09:10:37Z</time></trkpt>
	<trkpt lat="52.03566667" lon="-2.012615"><ele>72.000000</ele><time>2010-08-04T09:10:42Z</time></trkpt>
	<trkpt lat="52.035635" lon="-2.012681667"><ele>72.000000</ele><time>2010-08-04T09:10:47Z</time></trkpt>
	<trkpt lat="52.03560167" lon="-2.012748333"><ele>71.000000</ele><time>2010-08-04T09:10:52Z</time></trkpt>
	<trkpt lat="52.03556833" lon="-2.012816667"><ele>71.000000</ele><time>2010-08-04T09:10:57Z</time></trkpt>
	<trkpt lat="52.03553833" lon="-2.012881667"><ele>72.000000</ele><time>2010-08-04T09:11:02Z</time></trkpt>
	<trkpt lat="52.03551" lon="-2.01294"><ele>72.000000</ele><time>2010-08-04T09:11:07Z</time></trkpt>
	<trkpt lat="52.03548167" lon="-2.012998333"><ele>73.000000</ele><time>2010-08-04T09:11:12Z</time></trkpt>
	<trkpt lat="52.03545" lon="-2.013058333"><ele>74.000000</ele><time>2010-08-04T09:11:17Z</time></trkpt>
	<trkpt lat="52.03542333" lon="-2.013126667"><ele>74.000000</ele><time>2010-08-04T09:11:22Z</time></trkpt>
	<trkpt lat="52.03539333" lon="-2.013198333"><ele>74.000000</ele><time>2010-08-04T09:11:27Z</time></trkpt>
	<trkpt lat="52.03536667" lon="-2.013266667"><ele>74.000000</ele><time>2010-08-04T09:11:32Z</time></trkpt>
	<trkpt lat="52.03534" lon="-2.013333333"><ele>73.000000</ele><time>2010-08-04T09:11:37Z</time></trkpt>
	<trkpt lat="52.035315" lon="-2.01338"><ele>73.000000</ele><time>2010-08-04T09:11:42Z</time></trkpt>
	<trkpt lat="52.03531333" lon="-2.013385"><ele>72.000000</ele><time>2010-08-04T09:11:47Z</time></trkpt>
	<trkpt lat="52.03530667" lon="-2.013401667"><ele>72.000000</ele><time>2010-08-04T09:11:52Z</time></trkpt>
	<trkpt lat="52.03528667" lon="-2.013455"><ele>72.000000</ele><time>2010-08-04T09:11:57Z</time></trkpt>
	<trkpt lat="52.03525833" lon="-2.013528333"><ele>72.000000</ele><time>2010-08-04T09:12:02Z</time></trkpt>
	<trkpt lat="52.03522333" lon="-2.013605"><ele>71.000000</ele><time>2010-08-04T09:12:07Z</time></trkpt>
	<trkpt lat="52.03519167" lon="-2.013683333"><ele>71.000000</ele><time>2010-08-04T09:12:12Z</time></trkpt>
	<trkpt lat="52.03515667" lon="-2.013758333"><ele>71.000000</ele><time>2010-08-04T09:12:17Z</time></trkpt>
	<trkpt lat="52.03512167" lon="-2.013836667"><ele>70.000000</ele><time>2010-08-04T09:12:22Z</time></trkpt>
	<trkpt lat="52.03508667" lon="-2.01391"><ele>70.000000</ele><time>2010-08-04T09:12:27Z</time></trkpt>
	<trkpt lat="52.03505167" lon="-2.013983333"><ele>70.000000</ele><time>2010-08-04T09:12:32Z</time></trkpt>
	<trkpt lat="52.03502" lon="-2.014053333"><ele>70.000000</ele><time>2010-08-04T09:12:37Z</time></trkpt>
	<trkpt lat="52.03498833" lon="-2.014131667"><ele>71.000000</ele><time>2010-08-04T09:12:42Z</time></trkpt>
	<trkpt lat="52.03495" lon="-2.014206667"><ele>70.000000</ele><time>2010-08-04T09:12:47Z</time></trkpt>
	<trkpt lat="52.03490833" lon="-2.014286667"><ele>70.000000</ele><time>2010-08-04T09:12:52Z</time></trkpt>
	<trkpt lat="52.03487" lon="-2.014365"><ele>70.000000</ele><time>2010-08-04T09:12:57Z</time></trkpt>
	<trkpt lat="52.03484" lon="-2.014443333"><ele>69.000000</ele><time>2010-08-04T09:13:02Z</time></trkpt>
	<trkpt lat="52.03481" lon="-2.014518333"><ele>69.000000</ele><time>2010-08-04T09:13:07Z</time></trkpt>
	<trkpt lat="52.03477833" lon="-2.01459"><ele>70.000000</ele><time>2010-08-04T09:13:12Z</time></trkpt>
	<trkpt lat="52.03474667" lon="-2.014665"><ele>70.000000</ele><time>2010-08-04T09:13:17Z</time></trkpt>
	<trkpt lat="52.03471667" lon="-2.014743333"><ele>69.000000</ele><time>2010-08-04T09:13:22Z</time></trkpt>
	<trkpt lat="52.034685" lon="-2.014821667"><ele>69.000000</ele><time>2010-08-04T09:13:27Z</time></trkpt>
	<trkpt lat="52.034655" lon="-2.014903333"><ele>68.000000</ele><time>2010-08-04T09:13:32Z</time></trkpt>
	<trkpt lat="52.03462333" lon="-2.014983333"><ele>68.000000</ele><time>2010-08-04T09:13:37Z</time></trkpt>
	<trkpt lat="52.034595" lon="-2.015065"><ele>68.000000</ele><time>2010-08-04T09:13:42Z</time></trkpt>
	<trkpt lat="52.03456333" lon="-2.01514"><ele>68.000000</ele><time>2010-08-04T09:13:47Z</time></trkpt>
	<trkpt lat="52.03453333" lon="-2.015216667"><ele>67.000000</ele><time>2010-08-04T09:13:52Z</time></trkpt>
	<trkpt lat="52.034505" lon="-2.015288333"><ele>67.000000</ele><time>2010-08-04T09:13:57Z</time></trkpt>
	<trkpt lat="52.034475" lon="-2.01536"><ele>67.000000</ele><time>2010-08-04T09:14:02Z</time></trkpt>
	<trkpt lat="52.03443833" lon="-2.015416667"><ele>68.000000</ele><time>2010-08-04T09:14:07Z</time></trkpt>
	<trkpt lat="52.03440333" lon="-2.01548"><ele>68.000000</ele><time>2010-08-04T09:14:12Z</time></trkpt>
	<trkpt lat="52.03437667" lon="-2.015531667"><ele>68.000000</ele><time>2010-08-04T09:14:17Z</time></trkpt>
	<trkpt lat="52.03436" lon="-2.015565"><ele>68.000000</ele><time>2010-08-04T09:14:22Z</time></trkpt>
	<trkpt lat="52.034355" lon="-2.01557"><ele>68.000000</ele><time>2010-08-04T09:14:27Z</time></trkpt>
	<trkpt lat="52.03434" lon="-2.015573333"><ele>67.000000</ele><time>2010-08-04T09:14:32Z</time></trkpt>
	<trkpt lat="52.03433333" lon="-2.015575"><ele>66.000000</ele><time>2010-08-04T09:14:37Z</time></trkpt>
	<trkpt lat="52.03431833" lon="-2.015588333"><ele>66.000000</ele><time>2010-08-04T09:14:42Z</time></trkpt>
	<trkpt lat="52.03432" lon="-2.015591667"><ele>65.000000</ele><time>2010-08-04T09:14:47Z</time></trkpt>
	<trkpt lat="52.03432167" lon="-2.015628333"><ele>66.000000</ele><time>2010-08-04T09:14:52Z</time></trkpt>
	<trkpt lat="52.03431" lon="-2.015655"><ele>66.000000</ele><time>2010-08-04T09:14:57Z</time></trkpt>
	<trkpt lat="52.03431" lon="-2.01565"><ele>67.000000</ele><time>2010-08-04T09:15:02Z</time></trkpt>
	<trkpt lat="52.03431" lon="-2.015656667"><ele>68.000000</ele><time>2010-08-04T09:15:07Z</time></trkpt>
	<trkpt lat="52.03431" lon="-2.015676667"><ele>68.000000</ele><time>2010-08-04T09:15:12Z</time></trkpt>
	<trkpt lat="52.034305" lon="-2.015695"><ele>67.000000</ele><time>2010-08-04T09:15:17Z</time></trkpt>
	<trkpt lat="52.03429833" lon="-2.015725"><ele>67.000000</ele><time>2010-08-04T09:15:22Z</time></trkpt>
	<trkpt lat="52.0343" lon="-2.015728333"><ele>67.000000</ele><time>2010-08-04T09:15:27Z</time></trkpt>
	<trkpt lat="52.03429167" lon="-2.015731667"><ele>67.000000</ele><time>2010-08-04T09:15:32Z</time></trkpt>
	<trkpt lat="52.03428333" lon="-2.015743333"><ele>67.000000</ele><time>2010-08-04T09:15:37Z</time></trkpt>
	<trkpt lat="52.03427" lon="-2.015785"><ele>67.000000</ele><time>2010-08-04T09:15:42Z</time></trkpt>
	<trkpt lat="52.03426167" lon="-2.015848333"><ele>67.000000</ele><time>2010-08-04T09:15:47Z</time></trkpt>
	<trkpt lat="52.034245" lon="-2.015905"><ele>67.000000</ele><time>2010-08-04T09:15:52Z</time></trkpt>
	<trkpt lat="52.03422833" lon="-2.015948333"><ele>67.000000</ele><time>2010-08-04T09:15:57Z</time></trkpt>
	<trkpt lat="52.03421167" lon="-2.016008333"><ele>67.000000</ele><time>2010-08-04T09:16:02Z</time></trkpt>
	<trkpt lat="52.03419667" lon="-2.016043333"><ele>67.000000</ele><time>2010-08-04T09:16:07Z</time></trkpt>
	<trkpt lat="52.034185" lon="-2.016081667"><ele>67.000000</ele><time>2010-08-04T09:16:12Z</time></trkpt>
	<trkpt lat="52.03416" lon="-2.016145"><ele>67.000000</ele><time>2010-08-04T09:16:17Z</time></trkpt>
	<trkpt lat="52.03413833" lon="-2.016215"><ele>67.000000</ele><time>2010-08-04T09:16:22Z</time></trkpt>
	<trkpt lat="52.03411167" lon="-2.016285"><ele>67.000000</ele><time>2010-08-04T09:16:27Z</time></trkpt>
	<trkpt lat="52.034085" lon="-2.016356667"><ele>67.000000</ele><time>2010-08-04T09:16:32Z</time></trkpt>
	<trkpt lat="52.03406" lon="-2.01643"><ele>67.000000</ele><time>2010-08-04T09:16:37Z</time></trkpt>
	<trkpt lat="52.03403333" lon="-2.016501667"><ele>67.000000</ele><time>2010-08-04T09:16:42Z</time></trkpt>
	<trkpt lat="52.03401" lon="-2.016571667"><ele>68.000000</ele><time>2010-08-04T09:16:47Z</time></trkpt>
	<trkpt lat="52.033985" lon="-2.016643333"><ele>68.000000</ele><time>2010-08-04T09:16:52Z</time></trkpt>
	<trkpt lat="52.03396" lon="-2.01671"><ele>68.000000</ele><time>2010-08-04T09:16:57Z</time></trkpt>
	<trkpt lat="52.03393333" lon="-2.016781667"><ele>68.000000</ele><time>2010-08-04T09:17:02Z</time></trkpt>
	<trkpt lat="52.03390333" lon="-2.016853333"><ele>68.000000</ele><time>2010-08-04T09:17:07Z</time></trkpt>
	<trkpt lat="52.033875" lon="-2.01693"><ele>69.000000</ele><time>2010-08-04T09:17:12Z</time></trkpt>
	<trkpt lat="52.03384833" lon="-2.017005"><ele>69.000000</ele><time>2010-08-04T09:17:17Z</time></trkpt>
	<trkpt lat="52.03381833" lon="-2.017078333"><ele>69.000000</ele><time>2010-08-04T09:17:22Z</time></trkpt>
	<trkpt lat="52.03379" lon="-2.01715"><ele>69.000000</ele><time>2010-08-04T09:17:27Z</time></trkpt>
	<trkpt lat="52.03376167" lon="-2.017226667"><ele>69.000000</ele><time>2010-08-04T09:17:32Z</time></trkpt>
	<trkpt lat="52.03373333" lon="-2.0173"><ele>69.000000</ele><time>2010-08-04T09:17:37Z</time></trkpt>
	<trkpt lat="52.033705" lon="-2.017381667"><ele>69.000000</ele><time>2010-08-04T09:17:42Z</time></trkpt>
	<trkpt lat="52.03367" lon="-2.01746"><ele>68.000000</ele><time>2010-08-04T09:17:47Z</time></trkpt>
	<trkpt lat="52.03364" lon="-2.017538333"><ele>68.000000</ele><time>2010-08-04T09:17:52Z</time></trkpt>
	<trkpt lat="52.03361" lon="-2.017615"><ele>68.000000</ele><time>2010-08-04T09:17:57Z</time></trkpt>
	<trkpt lat="52.03358167" lon="-2.017693333"><ele>68.000000</ele><time>2010-08-04T09:18:02Z</time></trkpt>
	<trkpt lat="52.03355167" lon="-2.017771667"><ele>68.000000</ele><time>2010-08-04T09:18:07Z</time></trkpt>
	<trkpt lat="52.03352167" lon="-2.017855"><ele>68.000000</ele><time>2010-08-04T09:18:12Z</time></trkpt>
	<trkpt lat="52.03348667" lon="-2.01794"><ele>67.000000</ele><time>2010-08-04T09:18:17Z</time></trkpt>
	<trkpt lat="52.033455" lon="-2.018016667"><ele>67.000000</ele><time>2010-08-04T09:18:22Z</time></trkpt>
	<trkpt lat="52.03342667" lon="-2.018095"><ele>67.000000</ele><time>2010-08-04T09:18:27Z</time></trkpt>
	<trkpt lat="52.03339333" lon="-2.018161667"><ele>67.000000</ele><time>2010-08-04T09:18:32Z</time></trkpt>
	<trkpt lat="52.03336667" lon="-2.018233333"><ele>67.000000</ele><time>2010-08-04T09:18:37Z</time></trkpt>
	<trkpt lat="52.03334333" lon="-2.018285"><ele>67.000000</ele><time>2010-08-04T09:18:42Z</time></trkpt>
	<trkpt lat="52.03332" lon="-2.0183"><ele>68.000000</ele><time>2010-08-04T09:18:47Z</time></trkpt>
	<trkpt lat="52.03332" lon="-2.0183"><ele>68.000000</ele><time>2010-08-04T09:18:52Z</time></trkpt>
	<trkpt lat="52.03331833" lon="-2.0183"><ele>68.000000</ele><time>2010-08-04T09:18:57Z</time></trkpt>
	<trkpt lat="52.03331667" lon="-2.018295"><ele>68.000000</ele><time>2010-08-04T09:19:02Z</time></trkpt>
	<trkpt lat="52.03331667" lon="-2.018305"><ele>68.000000</ele><time>2010-08-04T09:19:07Z</time></trkpt>
	<trkpt lat="52.03329667" lon="-2.01836"><ele>68.000000</ele><time>2010-08-04T09:19:12Z</time></trkpt>
	<trkpt lat="52.03326833" lon="-2.018441667"><ele>67.000000</ele><time>2010-08-04T09:19:17Z</time></trkpt>
	<trkpt lat="52.03325" lon="-2.018536667"><ele>67.000000</ele><time>2010-08-04T09:19:22Z</time></trkpt>
	<trkpt lat="52.03323333" lon="-2.018628333"><ele>67.000000</ele><time>2010-08-04T09:19:27Z</time></trkpt>
	<trkpt lat="52.03321667" lon="-2.018718333"><ele>67.000000</ele><time>2010-08-04T09:19:32Z</time></trkpt>
	<trkpt lat="52.03319333" lon="-2.018805"><ele>67.000000</ele><time>2010-08-04T09:19:37Z</time></trkpt>
	<trkpt lat="52.03317167" lon="-2.018893333"><ele>67.000000</ele><time>2010-08-04T09:19:42Z</time></trkpt>
	<trkpt lat="52.03315333" lon="-2.018983333"><ele>67.000000</ele><time>2010-08-04T09:19:47Z</time></trkpt>
	<trkpt lat="52.03313333" lon="-2.01907"><ele>67.000000</ele><time>2010-08-04T09:19:52Z</time></trkpt>
	<trkpt lat="52.033115" lon="-2.019161667"><ele>67.000000</ele><time>2010-08-04T09:19:57Z</time></trkpt>
	<trkpt lat="52.03309333" lon="-2.01925"><ele>67.000000</ele><time>2010-08-04T09:20:02Z</time></trkpt>
	<trkpt lat="52.03307167" lon="-2.019336667"><ele>67.000000</ele><time>2010-08-04T09:20:07Z</time></trkpt>
	<trkpt lat="52.03304833" lon="-2.019423333"><ele>67.000000</ele><time>2010-08-04T09:20:12Z</time></trkpt>
	<trkpt lat="52.03302833" lon="-2.01951"><ele>67.000000</ele><time>2010-08-04T09:20:17Z</time></trkpt>
	<trkpt lat="52.033005" lon="-2.019595"><ele>67.000000</ele><time>2010-08-04T09:20:22Z</time></trkpt>
	<trkpt lat="52.03298333" lon="-2.019681667"><ele>67.000000</ele><time>2010-08-04T09:20:27Z</time></trkpt>
	<trkpt lat="52.03296333" lon="-2.019771667"><ele>66.000000</ele><time>2010-08-04T09:20:32Z</time></trkpt>
	<trkpt lat="52.032945" lon="-2.019861667"><ele>66.000000</ele><time>2010-08-04T09:20:37Z</time></trkpt>
	<trkpt lat="52.03292667" lon="-2.019955"><ele>66.000000</ele><time>2010-08-04T09:20:42Z</time></trkpt>
	<trkpt lat="52.03291167" lon="-2.02005"><ele>66.000000</ele><time>2010-08-04T09:20:47Z</time></trkpt>
	<trkpt lat="52.03289333" lon="-2.020145"><ele>66.000000</ele><time>2010-08-04T09:20:52Z</time></trkpt>
	<trkpt lat="52.03287833" lon="-2.020238333"><ele>65.000000</ele><time>2010-08-04T09:20:57Z</time></trkpt>
	<trkpt lat="52.03286667" lon="-2.020335"><ele>65.000000</ele><time>2010-08-04T09:21:02Z</time></trkpt>
	<trkpt lat="52.03285333" lon="-2.020433333"><ele>65.000000</ele><time>2010-08-04T09:21:07Z</time></trkpt>
	<trkpt lat="52.032845" lon="-2.020525"><ele>64.000000</ele><time>2010-08-04T09:21:12Z</time></trkpt>
	<trkpt lat="52.03283333" lon="-2.020621667"><ele>64.000000</ele><time>2010-08-04T09:21:17Z</time></trkpt>
	<trkpt lat="52.03281833" lon="-2.020713333"><ele>64.000000</ele><time>2010-08-04T09:21:22Z</time></trkpt>
	<trkpt lat="52.032795" lon="-2.020803333"><ele>64.000000</ele><time>2010-08-04T09:21:27Z</time></trkpt>
	<trkpt lat="52.03276667" lon="-2.020886667"><ele>63.000000</ele><time>2010-08-04T09:21:32Z</time></trkpt>
	<trkpt lat="52.03274" lon="-2.020968333"><ele>63.000000</ele><time>2010-08-04T09:21:37Z</time></trkpt>
	<trkpt lat="52.03271" lon="-2.021053333"><ele>63.000000</ele><time>2010-08-04T09:21:42Z</time></trkpt>
	<trkpt lat="52.03268" lon="-2.02114"><ele>63.000000</ele><time>2010-08-04T09:21:47Z</time></trkpt>
	<trkpt lat="52.03265" lon="-2.021225"><ele>63.000000</ele><time>2010-08-04T09:21:52Z</time></trkpt>
	<trkpt lat="52.03262" lon="-2.021313333"><ele>63.000000</ele><time>2010-08-04T09:21:57Z</time></trkpt>
	<trkpt lat="52.03258667" lon="-2.021401667"><ele>62.000000</ele><time>2010-08-04T09:22:02Z</time></trkpt>
	<trkpt lat="52.03256" lon="-2.021491667"><ele>62.000000</ele><time>2010-08-04T09:22:07Z</time></trkpt>
	<trkpt lat="52.03252667" lon="-2.02158"><ele>62.000000</ele><time>2010-08-04T09:22:12Z</time></trkpt>
	<trkpt lat="52.0325" lon="-2.02167"><ele>61.000000</ele><time>2010-08-04T09:22:17Z</time></trkpt>
	<trkpt lat="52.032475" lon="-2.021758333"><ele>61.000000</ele><time>2010-08-04T09:22:22Z</time></trkpt>
	<trkpt lat="52.03245" lon="-2.021841667"><ele>62.000000</ele><time>2010-08-04T09:22:27Z</time></trkpt>
	<trkpt lat="52.032425" lon="-2.02193"><ele>62.000000</ele><time>2010-08-04T09:22:32Z</time></trkpt>
	<trkpt lat="52.032395" lon="-2.022016667"><ele>62.000000</ele><time>2010-08-04T09:22:37Z</time></trkpt>
	<trkpt lat="52.03236667" lon="-2.022101667"><ele>62.000000</ele><time>2010-08-04T09:22:42Z</time></trkpt>
	<trkpt lat="52.03234333" lon="-2.02219"><ele>62.000000</ele><time>2010-08-04T09:22:47Z</time></trkpt>
	<trkpt lat="52.03230667" lon="-2.022266667"><ele>63.000000</ele><time>2010-08-04T09:22:52Z</time></trkpt>
	<trkpt lat="52.03227667" lon="-2.022343333"><ele>64.000000</ele><time>2010-08-04T09:22:57Z</time></trkpt>
	<trkpt lat="52.03225167" lon="-2.022423333"><ele>64.000000</ele><time>2010-08-04T09:23:02Z</time></trkpt>
	<trkpt lat="52.03221167" lon="-2.022495"><ele>65.000000</ele><time>2010-08-04T09:23:07Z</time></trkpt>
	<trkpt lat="52.03217667" lon="-2.022566667"><ele>65.000000</ele><time>2010-08-04T09:23:12Z</time></trkpt>
	<trkpt lat="52.03215167" lon="-2.022616667"><ele>64.000000</ele><time>2010-08-04T09:23:17Z</time></trkpt>
	<trkpt lat="52.032155" lon="-2.02263"><ele>64.000000</ele><time>2010-08-04T09:23:22Z</time></trkpt>
	<trkpt lat="52.03215167" lon="-2.022633333"><ele>64.000000</ele><time>2010-08-04T09:23:27Z</time></trkpt>
	<trkpt lat="52.03215167" lon="-2.022643333"><ele>64.000000</ele><time>2010-08-04T09:23:32Z</time></trkpt>
	<trkpt lat="52.03215" lon="-2.02264"><ele>65.000000</ele><time>2010-08-04T09:23:37Z</time></trkpt>
	<trkpt lat="52.032155" lon="-2.022645"><ele>65.000000</ele><time>2010-08-04T09:23:42Z</time></trkpt>
	<trkpt lat="52.03215" lon="-2.022643333"><ele>65.000000</ele><time>2010-08-04T09:23:47Z</time></trkpt>
	<trkpt lat="52.03214833" lon="-2.022661667"><ele>65.000000</ele><time>2010-08-04T09:23:52Z</time></trkpt>
	<trkpt lat="52.03211333" lon="-2.022713333"><ele>65.000000</ele><time>2010-08-04T09:23:57Z</time></trkpt>
	<trkpt lat="52.03206667" lon="-2.022763333"><ele>65.000000</ele><time>2010-08-04T09:24:02Z</time></trkpt>
	<trkpt lat="52.03201667" lon="-2.022816667"><ele>64.000000</ele><time>2010-08-04T09:24:07Z</time></trkpt>
	<trkpt lat="52.03196333" lon="-2.022865"><ele>63.000000</ele><time>2010-08-04T09:24:12Z</time></trkpt>
	<trkpt lat="52.03191667" lon="-2.022913333"><ele>62.000000</ele><time>2010-08-04T09:24:17Z</time></trkpt>
	<trkpt lat="52.031865" lon="-2.022943333"><ele>64.000000</ele><time>2010-08-04T09:24:22Z</time></trkpt>
	<trkpt lat="52.03181167" lon="-2.022976667"><ele>65.000000</ele><time>2010-08-04T09:24:27Z</time></trkpt>
	<trkpt lat="52.03176333" lon="-2.023008333"><ele>66.000000</ele><time>2010-08-04T09:24:32Z</time></trkpt>
	<trkpt lat="52.03171333" lon="-2.023056667"><ele>66.000000</ele><time>2010-08-04T09:24:37Z</time></trkpt>
	<trkpt lat="52.03166667" lon="-2.023101667"><ele>65.000000</ele><time>2010-08-04T09:24:42Z</time></trkpt>
	<trkpt lat="52.03161833" lon="-2.023136667"><ele>65.000000</ele><time>2010-08-04T09:24:47Z</time></trkpt>
	<trkpt lat="52.03156667" lon="-2.023183333"><ele>65.000000</ele><time>2010-08-04T09:24:52Z</time></trkpt>
	<trkpt lat="52.031515" lon="-2.023211667"><ele>65.000000</ele><time>2010-08-04T09:24:57Z</time></trkpt>
	<trkpt lat="52.03146333" lon="-2.023245"><ele>64.000000</ele><time>2010-08-04T09:25:02Z</time></trkpt>
	<trkpt lat="52.03140167" lon="-2.02329"><ele>63.000000</ele><time>2010-08-04T09:25:07Z</time></trkpt>
	<trkpt lat="52.03134333" lon="-2.023323333"><ele>62.000000</ele><time>2010-08-04T09:25:12Z</time></trkpt>
	<trkpt lat="52.031285" lon="-2.02336"><ele>62.000000</ele><time>2010-08-04T09:25:17Z</time></trkpt>
	<trkpt lat="52.03122333" lon="-2.023393333"><ele>61.000000</ele><time>2010-08-04T09:25:22Z</time></trkpt>
	<trkpt lat="52.03116667" lon="-2.023426667"><ele>60.000000</ele><time>2010-08-04T09:25:27Z</time></trkpt>
	<trkpt lat="52.03110833" lon="-2.023458333"><ele>60.000000</ele><time>2010-08-04T09:25:32Z</time></trkpt>
	<trkpt lat="52.03104833" lon="-2.023486667"><ele>60.000000</ele><time>2010-08-04T09:25:37Z</time></trkpt>
	<trkpt lat="52.03098833" lon="-2.023515"><ele>59.000000</ele><time>2010-08-04T09:25:42Z</time></trkpt>
	<trkpt lat="52.03092833" lon="-2.023545"><ele>59.000000</ele><time>2010-08-04T09:25:47Z</time></trkpt>
	<trkpt lat="52.03086833" lon="-2.023573333"><ele>58.000000</ele><time>2010-08-04T09:25:52Z</time></trkpt>
	<trkpt lat="52.03080833" lon="-2.023601667"><ele>57.000000</ele><time>2010-08-04T09:25:57Z</time></trkpt>
	<trkpt lat="52.03074833" lon="-2.023635"><ele>57.000000</ele><time>2010-08-04T09:26:02Z</time></trkpt>
	<trkpt lat="52.03069333" lon="-2.02367"><ele>56.000000</ele><time>2010-08-04T09:26:07Z</time></trkpt>
	<trkpt lat="52.03064" lon="-2.023708333"><ele>56.000000</ele><time>2010-08-04T09:26:12Z</time></trkpt>
	<trkpt lat="52.03058833" lon="-2.02375"><ele>56.000000</ele><time>2010-08-04T09:26:17Z</time></trkpt>
	<trkpt lat="52.03054" lon="-2.0238"><ele>56.000000</ele><time>2010-08-04T09:26:22Z</time></trkpt>
	<trkpt lat="52.03048667" lon="-2.02385"><ele>56.000000</ele><time>2010-08-04T09:26:27Z</time></trkpt>
	<trkpt lat="52.03043667" lon="-2.023901667"><ele>55.000000</ele><time>2010-08-04T09:26:32Z</time></trkpt>
	<trkpt lat="52.03037833" lon="-2.02395"><ele>55.000000</ele><time>2010-08-04T09:26:37Z</time></trkpt>
	<trkpt lat="52.03032167" lon="-2.024"><ele>55.000000</ele><time>2010-08-04T09:26:42Z</time></trkpt>
	<trkpt lat="52.03026333" lon="-2.02404"><ele>54.000000</ele><time>2010-08-04T09:26:47Z</time></trkpt>
	<trkpt lat="52.03020667" lon="-2.024063333"><ele>55.000000</ele><time>2010-08-04T09:26:52Z</time></trkpt>
	<trkpt lat="52.03015167" lon="-2.024078333"><ele>55.000000</ele><time>2010-08-04T09:26:57Z</time></trkpt>
	<trkpt lat="52.03009333" lon="-2.02409"><ele>55.000000</ele><time>2010-08-04T09:27:02Z</time></trkpt>
	<trkpt lat="52.030035" lon="-2.024096667"><ele>55.000000</ele><time>2010-08-04T09:27:07Z</time></trkpt>
	<trkpt lat="52.02997833" lon="-2.024101667"><ele>56.000000</ele><time>2010-08-04T09:27:12Z</time></trkpt>
	<trkpt lat="52.02992333" lon="-2.024106667"><ele>57.000000</ele><time>2010-08-04T09:27:17Z</time></trkpt>
	<trkpt lat="52.02987" lon="-2.024106667"><ele>58.000000</ele><time>2010-08-04T09:27:22Z</time></trkpt>
	<trkpt lat="52.02981333" lon="-2.02411"><ele>59.000000</ele><time>2010-08-04T09:27:27Z</time></trkpt>
	<trkpt lat="52.02976333" lon="-2.024113333"><ele>61.000000</ele><time>2010-08-04T09:27:32Z</time></trkpt>
	<trkpt lat="52.02970833" lon="-2.024111667"><ele>62.000000</ele><time>2010-08-04T09:27:37Z</time></trkpt>
	<trkpt lat="52.02965667" lon="-2.024111667"><ele>63.000000</ele><time>2010-08-04T09:27:42Z</time></trkpt>
	<trkpt lat="52.029605" lon="-2.024116667"><ele>65.000000</ele><time>2010-08-04T09:27:47Z</time></trkpt>
	<trkpt lat="52.02955833" lon="-2.024111667"><ele>65.000000</ele><time>2010-08-04T09:27:52Z</time></trkpt>
	<trkpt lat="52.02953333" lon="-2.024118333"><ele>64.000000</ele><time>2010-08-04T09:27:57Z</time></trkpt>
	<trkpt lat="52.02950667" lon="-2.024138333"><ele>63.000000</ele><time>2010-08-04T09:28:02Z</time></trkpt>
	<trkpt lat="52.02947167" lon="-2.024181667"><ele>62.000000</ele><time>2010-08-04T09:28:07Z</time></trkpt>
	<trkpt lat="52.02942333" lon="-2.024211667"><ele>62.000000</ele><time>2010-08-04T09:28:12Z</time></trkpt>
	<trkpt lat="52.029375" lon="-2.024248333"><ele>61.000000</ele><time>2010-08-04T09:28:17Z</time></trkpt>
	<trkpt lat="52.02932667" lon="-2.024283333"><ele>61.000000</ele><time>2010-08-04T09:28:22Z</time></trkpt>
	<trkpt lat="52.029275" lon="-2.024321667"><ele>60.000000</ele><time>2010-08-04T09:28:27Z</time></trkpt>
	<trkpt lat="52.02921667" lon="-2.024355"><ele>58.000000</ele><time>2010-08-04T09:28:32Z</time></trkpt>
	<trkpt lat="52.02916667" lon="-2.024391667"><ele>57.000000</ele><time>2010-08-04T09:28:37Z</time></trkpt>
	<trkpt lat="52.02912833" lon="-2.024415"><ele>55.000000</ele><time>2010-08-04T09:28:42Z</time></trkpt>
	<trkpt lat="52.02908167" lon="-2.024456667"><ele>55.000000</ele><time>2010-08-04T09:28:47Z</time></trkpt>
	<trkpt lat="52.02903167" lon="-2.024491667"><ele>54.000000</ele><time>2010-08-04T09:28:52Z</time></trkpt>
	<trkpt lat="52.02898667" lon="-2.024528333"><ele>54.000000</ele><time>2010-08-04T09:28:57Z</time></trkpt>
	<trkpt lat="52.02894" lon="-2.024568333"><ele>53.000000</ele><time>2010-08-04T09:29:02Z</time></trkpt>
	<trkpt lat="52.02889167" lon="-2.024611667"><ele>53.000000</ele><time>2010-08-04T09:29:07Z</time></trkpt>
	<trkpt lat="52.028845" lon="-2.024655"><ele>53.000000</ele><time>2010-08-04T09:29:12Z</time></trkpt>
	<trkpt lat="52.02879667" lon="-2.0247"><ele>52.000000</ele><time>2010-08-04T09:29:17Z</time></trkpt>
	<trkpt lat="52.02875167" lon="-2.024745"><ele>52.000000</ele><time>2010-08-04T09:29:22Z</time></trkpt>
	<trkpt lat="52.02870167" lon="-2.024788333"><ele>52.000000</ele><time>2010-08-04T09:29:27Z</time></trkpt>
	<trkpt lat="52.02865667" lon="-2.024833333"><ele>52.000000</ele><time>2010-08-04T09:29:32Z</time></trkpt>
	<trkpt lat="52.02860833" lon="-2.024873333"><ele>52.000000</ele><time>2010-08-04T09:29:37Z</time></trkpt>
	<trkpt lat="52.02856333" lon="-2.02492"><ele>52.000000</ele><time>2010-08-04T09:29:42Z</time></trkpt>
	<trkpt lat="52.02852" lon="-2.024963333"><ele>52.000000</ele><time>2010-08-04T09:29:47Z</time></trkpt>
	<trkpt lat="52.02847333" lon="-2.025006667"><ele>51.000000</ele><time>2010-08-04T09:29:52Z</time></trkpt>
	<trkpt lat="52.02842833" lon="-2.025048333"><ele>51.000000</ele><time>2010-08-04T09:29:57Z</time></trkpt>
	<trkpt lat="52.02838167" lon="-2.0251"><ele>51.000000</ele><time>2010-08-04T09:30:02Z</time></trkpt>
	<trkpt lat="52.02833333" lon="-2.025143333"><ele>51.000000</ele><time>2010-08-04T09:30:07Z</time></trkpt>
	<trkpt lat="52.028285" lon="-2.025188333"><ele>51.000000</ele><time>2010-08-04T09:30:12Z</time></trkpt>
	<trkpt lat="52.02824" lon="-2.025235"><ele>52.000000</ele><time>2010-08-04T09:30:17Z</time></trkpt>
	<trkpt lat="52.02819" lon="-2.02528"><ele>52.000000</ele><time>2010-08-04T09:30:22Z</time></trkpt>
	<trkpt lat="52.02814167" lon="-2.025328333"><ele>52.000000</ele><time>2010-08-04T09:30:27Z</time></trkpt>
	<trkpt lat="52.02809667" lon="-2.025371667"><ele>51.000000</ele><time>2010-08-04T09:30:32Z</time></trkpt>
	<trkpt lat="52.02804833" lon="-2.025416667"><ele>51.000000</ele><time>2010-08-04T09:30:37Z</time></trkpt>
	<trkpt lat="52.028" lon="-2.025463333"><ele>51.000000</ele><time>2010-08-04T09:30:42Z</time></trkpt>
	<trkpt lat="52.027955" lon="-2.025505"><ele>52.000000</ele><time>2010-08-04T09:30:47Z</time></trkpt>
	<trkpt lat="52.02790833" lon="-2.025548333"><ele>51.000000</ele><time>2010-08-04T09:30:52Z</time></trkpt>
	<trkpt lat="52.02786333" lon="-2.02559"><ele>51.000000</ele><time>2010-08-04T09:30:57Z</time></trkpt>
	<trkpt lat="52.02781833" lon="-2.025631667"><ele>51.000000</ele><time>2010-08-04T09:31:02Z</time></trkpt>
	<trkpt lat="52.02777167" lon="-2.025675"><ele>51.000000</ele><time>2010-08-04T09:31:07Z</time></trkpt>
	<trkpt lat="52.027725" lon="-2.02572"><ele>51.000000</ele><time>2010-08-04T09:31:12Z</time></trkpt>
	<trkpt lat="52.02768167" lon="-2.02576"><ele>51.000000</ele><time>2010-08-04T09:31:17Z</time></trkpt>
	<trkpt lat="52.02764" lon="-2.025796667"><ele>51.000000</ele><time>2010-08-04T09:31:22Z</time></trkpt>
	<trkpt lat="52.027595" lon="-2.025841667"><ele>51.000000</ele><time>2010-08-04T09:31:27Z</time></trkpt>
	<trkpt lat="52.02754833" lon="-2.025891667"><ele>51.000000</ele><time>2010-08-04T09:31:32Z</time></trkpt>
	<trkpt lat="52.02750167" lon="-2.025928333"><ele>51.000000</ele><time>2010-08-04T09:31:37Z</time></trkpt>
	<trkpt lat="52.02745667" lon="-2.025976667"><ele>51.000000</ele><time>2010-08-04T09:31:42Z</time></trkpt>
	<trkpt lat="52.02740833" lon="-2.026021667"><ele>51.000000</ele><time>2010-08-04T09:31:47Z</time></trkpt>
	<trkpt lat="52.02736167" lon="-2.026068333"><ele>51.000000</ele><time>2010-08-04T09:31:52Z</time></trkpt>
	<trkpt lat="52.02731" lon="-2.026116667"><ele>51.000000</ele><time>2010-08-04T09:31:57Z</time></trkpt>
	<trkpt lat="52.02726167" lon="-2.026161667"><ele>51.000000</ele><time>2010-08-04T09:32:02Z</time></trkpt>
	<trkpt lat="52.02721167" lon="-2.026205"><ele>51.000000</ele><time>2010-08-04T09:32:07Z</time></trkpt>
	<trkpt lat="52.027165" lon="-2.026253333"><ele>51.000000</ele><time>2010-08-04T09:32:12Z</time></trkpt>
	<trkpt lat="52.02711833" lon="-2.026298333"><ele>51.000000</ele><time>2010-08-04T09:32:17Z</time></trkpt>
	<trkpt lat="52.02707" lon="-2.026345"><ele>51.000000</ele><time>2010-08-04T09:32:22Z</time></trkpt>
	<trkpt lat="52.02702333" lon="-2.026398333"><ele>51.000000</ele><time>2010-08-04T09:32:27Z</time></trkpt>
	<trkpt lat="52.02697667" lon="-2.026451667"><ele>50.000000</ele><time>2010-08-04T09:32:32Z</time></trkpt>
	<trkpt lat="52.02693167" lon="-2.026498333"><ele>50.000000</ele><time>2010-08-04T09:32:37Z</time></trkpt>
	<trkpt lat="52.02689167" lon="-2.026516667"><ele>50.000000</ele><time>2010-08-04T09:32:42Z</time></trkpt>
	<trkpt lat="52.02686667" lon="-2.026555"><ele>50.000000</ele><time>2010-08-04T09:32:47Z</time></trkpt>
	<trkpt lat="52.02681667" lon="-2.026598333"><ele>50.000000</ele><time>2010-08-04T09:32:52Z</time></trkpt>
	<trkpt lat="52.02677167" lon="-2.026653333"><ele>50.000000</ele><time>2010-08-04T09:32:57Z</time></trkpt>
	<trkpt lat="52.026725" lon="-2.026708333"><ele>50.000000</ele><time>2010-08-04T09:33:02Z</time></trkpt>
	<trkpt lat="52.02667833" lon="-2.02676"><ele>50.000000</ele><time>2010-08-04T09:33:07Z</time></trkpt>
	<trkpt lat="52.02663333" lon="-2.026815"><ele>49.000000</ele><time>2010-08-04T09:33:12Z</time></trkpt>
	<trkpt lat="52.02658333" lon="-2.02687"><ele>49.000000</ele><time>2010-08-04T09:33:17Z</time></trkpt>
	<trkpt lat="52.02653667" lon="-2.026918333"><ele>49.000000</ele><time>2010-08-04T09:33:22Z</time></trkpt>
	<trkpt lat="52.02649" lon="-2.026973333"><ele>49.000000</ele><time>2010-08-04T09:33:27Z</time></trkpt>
	<trkpt lat="52.026445" lon="-2.027028333"><ele>48.000000</ele><time>2010-08-04T09:33:32Z</time></trkpt>
	<trkpt lat="52.02639833" lon="-2.02708"><ele>48.000000</ele><time>2010-08-04T09:33:37Z</time></trkpt>
	<trkpt lat="52.02635" lon="-2.027128333"><ele>48.000000</ele><time>2010-08-04T09:33:42Z</time></trkpt>
	<trkpt lat="52.02630333" lon="-2.027183333"><ele>48.000000</ele><time>2010-08-04T09:33:47Z</time></trkpt>
	<trkpt lat="52.02625667" lon="-2.027231667"><ele>48.000000</ele><time>2010-08-04T09:33:52Z</time></trkpt>
	<trkpt lat="52.02621" lon="-2.027288333"><ele>48.000000</ele><time>2010-08-04T09:33:57Z</time></trkpt>
	<trkpt lat="52.02616667" lon="-2.027345"><ele>48.000000</ele><time>2010-08-04T09:34:02Z</time></trkpt>
	<trkpt lat="52.02611833" lon="-2.02739"><ele>48.000000</ele><time>2010-08-04T09:34:07Z</time></trkpt>
	<trkpt lat="52.02607333" lon="-2.027438333"><ele>48.000000</ele><time>2010-08-04T09:34:12Z</time></trkpt>
	<trkpt lat="52.02605167" lon="-2.027463333"><ele>48.000000</ele><time>2010-08-04T09:34:17Z</time></trkpt>
	<trkpt lat="52.02600667" lon="-2.027515"><ele>48.000000</ele><time>2010-08-04T09:34:22Z</time></trkpt>
	<trkpt lat="52.02595833" lon="-2.027565"><ele>48.000000</ele><time>2010-08-04T09:34:27Z</time></trkpt>
	<trkpt lat="52.025905" lon="-2.027618333"><ele>48.000000</ele><time>2010-08-04T09:34:32Z</time></trkpt>
	<trkpt lat="52.02585667" lon="-2.027678333"><ele>47.000000</ele><time>2010-08-04T09:34:37Z</time></trkpt>
	<trkpt lat="52.025805" lon="-2.02773"><ele>47.000000</ele><time>2010-08-04T09:34:42Z</time></trkpt>
	<trkpt lat="52.025755" lon="-2.027785"><ele>47.000000</ele><time>2010-08-04T09:34:47Z</time></trkpt>
	<trkpt lat="52.025705" lon="-2.02784"><ele>47.000000</ele><time>2010-08-04T09:34:52Z</time></trkpt>
	<trkpt lat="52.02566" lon="-2.027896667"><ele>48.000000</ele><time>2010-08-04T09:34:57Z</time></trkpt>
	<trkpt lat="52.02565" lon="-2.02792"><ele>48.000000</ele><time>2010-08-04T09:35:02Z</time></trkpt>
	<trkpt lat="52.02564667" lon="-2.027923333"><ele>48.000000</ele><time>2010-08-04T09:35:07Z</time></trkpt>
	<trkpt lat="52.025645" lon="-2.02793"><ele>49.000000</ele><time>2010-08-04T09:35:12Z</time></trkpt>
	<trkpt lat="52.025645" lon="-2.027926667"><ele>49.000000</ele><time>2010-08-04T09:35:17Z</time></trkpt>
	<trkpt lat="52.02563167" lon="-2.027913333"><ele>49.000000</ele><time>2010-08-04T09:35:22Z</time></trkpt>
	<trkpt lat="52.02562833" lon="-2.02791"><ele>49.000000</ele><time>2010-08-04T09:35:27Z</time></trkpt>
	<trkpt lat="52.02561667" lon="-2.027901667"><ele>49.000000</ele><time>2010-08-04T09:35:32Z</time></trkpt>
	<trkpt lat="52.02557833" lon="-2.027875"><ele>48.000000</ele><time>2010-08-04T09:35:37Z</time></trkpt>
	<trkpt lat="52.025545" lon="-2.027845"><ele>48.000000</ele><time>2010-08-04T09:35:42Z</time></trkpt>
	<trkpt lat="52.02550667" lon="-2.027816667"><ele>48.000000</ele><time>2010-08-04T09:35:47Z</time></trkpt>
	<trkpt lat="52.02548" lon="-2.027773333"><ele>49.000000</ele><time>2010-08-04T09:35:52Z</time></trkpt>
	<trkpt lat="52.02543833" lon="-2.027725"><ele>50.000000</ele><time>2010-08-04T09:35:57Z</time></trkpt>
	<trkpt lat="52.02539667" lon="-2.027688333"><ele>51.000000</ele><time>2010-08-04T09:36:02Z</time></trkpt>
	<trkpt lat="52.02536167" lon="-2.027741667"><ele>49.000000</ele><time>2010-08-04T09:36:07Z</time></trkpt>
	<trkpt lat="52.02536" lon="-2.027765"><ele>49.000000</ele><time>2010-08-04T09:36:12Z</time></trkpt>
	<trkpt lat="52.02536" lon="-2.027763333"><ele>48.000000</ele><time>2010-08-04T09:36:17Z</time></trkpt>
	<trkpt lat="52.02535333" lon="-2.02778"><ele>48.000000</ele><time>2010-08-04T09:36:22Z</time></trkpt>
	<trkpt lat="52.025345" lon="-2.027821667"><ele>48.000000</ele><time>2010-08-04T09:36:27Z</time></trkpt>
	<trkpt lat="52.02533" lon="-2.027878333"><ele>47.000000</ele><time>2010-08-04T09:36:32Z</time></trkpt>
	<trkpt lat="52.025325" lon="-2.027945"><ele>47.000000</ele><time>2010-08-04T09:36:37Z</time></trkpt>
	<trkpt lat="52.02531833" lon="-2.028025"><ele>47.000000</ele><time>2010-08-04T09:36:42Z</time></trkpt>
	<trkpt lat="52.025315" lon="-2.028103333"><ele>47.000000</ele><time>2010-08-04T09:36:47Z</time></trkpt>
	<trkpt lat="52.02530333" lon="-2.028185"><ele>47.000000</ele><time>2010-08-04T09:36:52Z</time></trkpt>
	<trkpt lat="52.02529333" lon="-2.028266667"><ele>47.000000</ele><time>2010-08-04T09:36:57Z</time></trkpt>
	<trkpt lat="52.02529" lon="-2.028336667"><ele>47.000000</ele><time>2010-08-04T09:37:02Z</time></trkpt>
	<trkpt lat="52.02528833" lon="-2.028413333"><ele>47.000000</ele><time>2010-08-04T09:37:07Z</time></trkpt>
	<trkpt lat="52.025285" lon="-2.028506667"><ele>47.000000</ele><time>2010-08-04T09:37:12Z</time></trkpt>
	<trkpt lat="52.02528333" lon="-2.0286"><ele>47.000000</ele><time>2010-08-04T09:37:17Z</time></trkpt>
	<trkpt lat="52.02527833" lon="-2.028696667"><ele>47.000000</ele><time>2010-08-04T09:37:22Z</time></trkpt>
	<trkpt lat="52.02527667" lon="-2.028795"><ele>47.000000</ele><time>2010-08-04T09:37:27Z</time></trkpt>
	<trkpt lat="52.025275" lon="-2.028891667"><ele>47.000000</ele><time>2010-08-04T09:37:32Z</time></trkpt>
	<trkpt lat="52.02527167" lon="-2.028971667"><ele>48.000000</ele><time>2010-08-04T09:37:37Z</time></trkpt>
	<trkpt lat="52.02527167" lon="-2.029063333"><ele>48.000000</ele><time>2010-08-04T09:37:42Z</time></trkpt>
	<trkpt lat="52.02526333" lon="-2.029155"><ele>48.000000</ele><time>2010-08-04T09:37:47Z</time></trkpt>
	<trkpt lat="52.02525833" lon="-2.029248333"><ele>48.000000</ele><time>2010-08-04T09:37:52Z</time></trkpt>
	<trkpt lat="52.02525" lon="-2.029343333"><ele>48.000000</ele><time>2010-08-04T09:37:57Z</time></trkpt>
	<trkpt lat="52.02523833" lon="-2.029435"><ele>48.000000</ele><time>2010-08-04T09:38:02Z</time></trkpt>
	<trkpt lat="52.02522833" lon="-2.029525"><ele>48.000000</ele><time>2010-08-04T09:38:07Z</time></trkpt>
	<trkpt lat="52.02521833" lon="-2.029615"><ele>48.000000</ele><time>2010-08-04T09:38:12Z</time></trkpt>
	<trkpt lat="52.025205" lon="-2.029703333"><ele>48.000000</ele><time>2010-08-04T09:38:17Z</time></trkpt>
	<trkpt lat="52.02519" lon="-2.029798333"><ele>48.000000</ele><time>2010-08-04T09:38:22Z</time></trkpt>
	<trkpt lat="52.02517333" lon="-2.02989"><ele>48.000000</ele><time>2010-08-04T09:38:27Z</time></trkpt>
	<trkpt lat="52.02515833" lon="-2.02998"><ele>48.000000</ele><time>2010-08-04T09:38:32Z</time></trkpt>
	<trkpt lat="52.02514" lon="-2.03007"><ele>48.000000</ele><time>2010-08-04T09:38:37Z</time></trkpt>
	<trkpt lat="52.025125" lon="-2.030161667"><ele>48.000000</ele><time>2010-08-04T09:38:42Z</time></trkpt>
	<trkpt lat="52.02510833" lon="-2.030255"><ele>48.000000</ele><time>2010-08-04T09:38:47Z</time></trkpt>
	<trkpt lat="52.02508833" lon="-2.030348333"><ele>48.000000</ele><time>2010-08-04T09:38:52Z</time></trkpt>
	<trkpt lat="52.02507" lon="-2.030436667"><ele>48.000000</ele><time>2010-08-04T09:38:57Z</time></trkpt>
	<trkpt lat="52.02505333" lon="-2.030528333"><ele>48.000000</ele><time>2010-08-04T09:39:02Z</time></trkpt>
	<trkpt lat="52.025035" lon="-2.030616667"><ele>48.000000</ele><time>2010-08-04T09:39:07Z</time></trkpt>
	<trkpt lat="52.025015" lon="-2.030706667"><ele>48.000000</ele><time>2010-08-04T09:39:12Z</time></trkpt>
	<trkpt lat="52.024995" lon="-2.030791667"><ele>48.000000</ele><time>2010-08-04T09:39:17Z</time></trkpt>
	<trkpt lat="52.02497833" lon="-2.030878333"><ele>48.000000</ele><time>2010-08-04T09:39:22Z</time></trkpt>
	<trkpt lat="52.02496" lon="-2.030963333"><ele>48.000000</ele><time>2010-08-04T09:39:27Z</time></trkpt>
	<trkpt lat="52.02494167" lon="-2.031051667"><ele>48.000000</ele><time>2010-08-04T09:39:32Z</time></trkpt>
	<trkpt lat="52.02492" lon="-2.031141667"><ele>48.000000</ele><time>2010-08-04T09:39:37Z</time></trkpt>
	<trkpt lat="52.02490333" lon="-2.03123"><ele>48.000000</ele><time>2010-08-04T09:39:42Z</time></trkpt>
	<trkpt lat="52.02488667" lon="-2.03132"><ele>48.000000</ele><time>2010-08-04T09:39:47Z</time></trkpt>
	<trkpt lat="52.02486833" lon="-2.031405"><ele>48.000000</ele><time>2010-08-04T09:39:52Z</time></trkpt>
	<trkpt lat="52.02485167" lon="-2.031493333"><ele>48.000000</ele><time>2010-08-04T09:39:57Z</time></trkpt>
	<trkpt lat="52.024835" lon="-2.031583333"><ele>49.000000</ele><time>2010-08-04T09:40:02Z</time></trkpt>
	<trkpt lat="52.024815" lon="-2.031668333"><ele>49.000000</ele><time>2010-08-04T09:40:07Z</time></trkpt>
	<trkpt lat="52.02482667" lon="-2.03176"><ele>49.000000</ele><time>2010-08-04T09:40:12Z</time></trkpt>
	<trkpt lat="52.02481" lon="-2.031851667"><ele>50.000000</ele><time>2010-08-04T09:40:17Z</time></trkpt>
	<trkpt lat="52.02479333" lon="-2.03193"><ele>51.000000</ele><time>2010-08-04T09:40:22Z</time></trkpt>
	<trkpt lat="52.02478" lon="-2.031995"><ele>52.000000</ele><time>2010-08-04T09:40:27Z</time></trkpt>
	<trkpt lat="52.02475167" lon="-2.032075"><ele>52.000000</ele><time>2010-08-04T09:40:32Z</time></trkpt>
	<trkpt lat="52.024735" lon="-2.032158333"><ele>52.000000</ele><time>2010-08-04T09:40:37Z</time></trkpt>
	<trkpt lat="52.02471833" lon="-2.032253333"><ele>52.000000</ele><time>2010-08-04T09:40:42Z</time></trkpt>
	<trkpt lat="52.02469167" lon="-2.032355"><ele>51.000000</ele><time>2010-08-04T09:40:47Z</time></trkpt>
	<trkpt lat="52.024675" lon="-2.032436667"><ele>51.000000</ele><time>2010-08-04T09:40:52Z</time></trkpt>
	<trkpt lat="52.024655" lon="-2.032506667"><ele>50.000000</ele><time>2010-08-04T09:40:57Z</time></trkpt>
	<trkpt lat="52.02462" lon="-2.032578333"><ele>50.000000</ele><time>2010-08-04T09:41:02Z</time></trkpt>
	<trkpt lat="52.02459833" lon="-2.032636667"><ele>52.000000</ele><time>2010-08-04T09:41:07Z</time></trkpt>
	<trkpt lat="52.02457" lon="-2.032708333"><ele>53.000000</ele><time>2010-08-04T09:41:12Z</time></trkpt>
	<trkpt lat="52.02453833" lon="-2.032768333"><ele>55.000000</ele><time>2010-08-04T09:41:17Z</time></trkpt>
	<trkpt lat="52.02450333" lon="-2.03284"><ele>56.000000</ele><time>2010-08-04T09:41:22Z</time></trkpt>
	<trkpt lat="52.02447" lon="-2.032908333"><ele>58.000000</ele><time>2010-08-04T09:41:27Z</time></trkpt>
	<trkpt lat="52.02443833" lon="-2.033003333"><ele>56.000000</ele><time>2010-08-04T09:41:32Z</time></trkpt>
	<trkpt lat="52.02439833" lon="-2.033081667"><ele>55.000000</ele><time>2010-08-04T09:41:37Z</time></trkpt>
	<trkpt lat="52.024345" lon="-2.033133333"><ele>54.000000</ele><time>2010-08-04T09:41:42Z</time></trkpt>
	<trkpt lat="52.02428667" lon="-2.033168333"><ele>53.000000</ele><time>2010-08-04T09:41:47Z</time></trkpt>
	<trkpt lat="52.02422333" lon="-2.033196667"><ele>52.000000</ele><time>2010-08-04T09:41:52Z</time></trkpt>
	<trkpt lat="52.02416333" lon="-2.033225"><ele>53.000000</ele><time>2010-08-04T09:41:57Z</time></trkpt>
	<trkpt lat="52.02410833" lon="-2.03325"><ele>52.000000</ele><time>2010-08-04T09:42:02Z</time></trkpt>
	<trkpt lat="52.02404833" lon="-2.033276667"><ele>51.000000</ele><time>2010-08-04T09:42:07Z</time></trkpt>
	<trkpt lat="52.02399" lon="-2.033293333"><ele>50.000000</ele><time>2010-08-04T09:42:12Z</time></trkpt>
	<trkpt lat="52.02393167" lon="-2.033308333"><ele>50.000000</ele><time>2010-08-04T09:42:17Z</time></trkpt>
	<trkpt lat="52.02387167" lon="-2.033331667"><ele>48.000000</ele><time>2010-08-04T09:42:22Z</time></trkpt>
	<trkpt lat="52.023815" lon="-2.033348333"><ele>47.000000</ele><time>2010-08-04T09:42:27Z</time></trkpt>
	<trkpt lat="52.02375667" lon="-2.033366667"><ele>47.000000</ele><time>2010-08-04T09:42:32Z</time></trkpt>
	<trkpt lat="52.02370167" lon="-2.033385"><ele>46.000000</ele><time>2010-08-04T09:42:37Z</time></trkpt>
	<trkpt lat="52.02365667" lon="-2.0334"><ele>46.000000</ele><time>2010-08-04T09:42:42Z</time></trkpt>
	<trkpt lat="52.02365333" lon="-2.033401667"><ele>45.000000</ele><time>2010-08-04T09:42:47Z</time></trkpt>
	<trkpt lat="52.02362" lon="-2.033405"><ele>45.000000</ele><time>2010-08-04T09:42:52Z</time></trkpt>
	<trkpt lat="52.02357" lon="-2.03342"><ele>45.000000</ele><time>2010-08-04T09:42:57Z</time></trkpt>
	<trkpt lat="52.02351167" lon="-2.033435"><ele>45.000000</ele><time>2010-08-04T09:43:02Z</time></trkpt>
	<trkpt lat="52.02345833" lon="-2.033461667"><ele>45.000000</ele><time>2010-08-04T09:43:07Z</time></trkpt>
	<trkpt lat="52.02342" lon="-2.033491667"><ele>44.000000</ele><time>2010-08-04T09:43:12Z</time></trkpt>
	<trkpt lat="52.02339667" lon="-2.033513333"><ele>44.000000</ele><time>2010-08-04T09:43:17Z</time></trkpt>
	<trkpt lat="52.02339" lon="-2.033556667"><ele>43.000000</ele><time>2010-08-04T09:43:22Z</time></trkpt>
	<trkpt lat="52.02339" lon="-2.033596667"><ele>43.000000</ele><time>2010-08-04T09:43:27Z</time></trkpt>
	<trkpt lat="52.02339833" lon="-2.03367"><ele>44.000000</ele><time>2010-08-04T09:43:32Z</time></trkpt>
	<trkpt lat="52.02340667" lon="-2.033746667"><ele>44.000000</ele><time>2010-08-04T09:43:37Z</time></trkpt>
	<trkpt lat="52.02340833" lon="-2.033828333"><ele>45.000000</ele><time>2010-08-04T09:43:42Z</time></trkpt>
	<trkpt lat="52.023405" lon="-2.03391"><ele>45.000000</ele><time>2010-08-04T09:43:47Z</time></trkpt>
	<trkpt lat="52.02341167" lon="-2.033988333"><ele>45.000000</ele><time>2010-08-04T09:43:52Z</time></trkpt>
	<trkpt lat="52.02342" lon="-2.034006667"><ele>45.000000</ele><time>2010-08-04T09:43:57Z</time></trkpt>
	<trkpt lat="52.023415" lon="-2.034085"><ele>46.000000</ele><time>2010-08-04T09:44:02Z</time></trkpt>
	<trkpt lat="52.02340833" lon="-2.03417"><ele>46.000000</ele><time>2010-08-04T09:44:07Z</time></trkpt>
	<trkpt lat="52.02340167" lon="-2.034251667"><ele>47.000000</ele><time>2010-08-04T09:44:12Z</time></trkpt>
	<trkpt lat="52.02340333" lon="-2.034313333"><ele>49.000000</ele><time>2010-08-04T09:44:17Z</time></trkpt>
	<trkpt lat="52.02339833" lon="-2.03438"><ele>50.000000</ele><time>2010-08-04T09:44:22Z</time></trkpt>
	<trkpt lat="52.02337667" lon="-2.034456667"><ele>51.000000</ele><time>2010-08-04T09:44:27Z</time></trkpt>
	<trkpt lat="52.02336667" lon="-2.034531667"><ele>53.000000</ele><time>2010-08-04T09:44:32Z</time></trkpt>
	<trkpt lat="52.02337" lon="-2.034621667"><ele>54.000000</ele><time>2010-08-04T09:44:37Z</time></trkpt>
	<trkpt lat="52.02338833" lon="-2.034711667"><ele>54.000000</ele><time>2010-08-04T09:44:42Z</time></trkpt>
	<trkpt lat="52.02340667" lon="-2.034795"><ele>55.000000</ele><time>2010-08-04T09:44:47Z</time></trkpt>
	<trkpt lat="52.02343" lon="-2.034876667"><ele>56.000000</ele><time>2010-08-04T09:44:52Z</time></trkpt>
	<trkpt lat="52.02346333" lon="-2.034951667"><ele>57.000000</ele><time>2010-08-04T09:44:57Z</time></trkpt>
	<trkpt lat="52.02345" lon="-2.035066667"><ele>54.000000</ele><time>2010-08-04T09:45:02Z</time></trkpt>
	<trkpt lat="52.02342333" lon="-2.035178333"><ele>52.000000</ele><time>2010-08-04T09:45:07Z</time></trkpt>
	<trkpt lat="52.02340833" lon="-2.035275"><ele>50.000000</ele><time>2010-08-04T09:45:12Z</time></trkpt>
	<trkpt lat="52.02340333" lon="-2.035335"><ele>49.000000</ele><time>2010-08-04T09:45:17Z</time></trkpt>
	<trkpt lat="52.02340167" lon="-2.035343333"><ele>48.000000</ele><time>2010-08-04T09:45:22Z</time></trkpt>
	<trkpt lat="52.02341167" lon="-2.035363333"><ele>47.000000</ele><time>2010-08-04T09:45:27Z</time></trkpt>
	<trkpt lat="52.023415" lon="-2.035373333"><ele>47.000000</ele><time>2010-08-04T09:45:32Z</time></trkpt>
	<trkpt lat="52.02341833" lon="-2.03538"><ele>46.000000</ele><time>2010-08-04T09:45:37Z</time></trkpt>
	<trkpt lat="52.02342167" lon="-2.035386667"><ele>46.000000</ele><time>2010-08-04T09:45:42Z</time></trkpt>
	<trkpt lat="52.02342333" lon="-2.035388333"><ele>45.000000</ele><time>2010-08-04T09:45:47Z</time></trkpt>
	<trkpt lat="52.02342333" lon="-2.035395"><ele>45.000000</ele><time>2010-08-04T09:45:52Z</time></trkpt>
	<trkpt lat="52.023425" lon="-2.035391667"><ele>44.000000</ele><time>2010-08-04T09:45:57Z</time></trkpt>
	<trkpt lat="52.02343333" lon="-2.035391667"><ele>43.000000</ele><time>2010-08-04T09:46:02Z</time></trkpt>
	<trkpt lat="52.02343333" lon="-2.03539"><ele>43.000000</ele><time>2010-08-04T09:46:07Z</time></trkpt>
	<trkpt lat="52.02343" lon="-2.035398333"><ele>43.000000</ele><time>2010-08-04T09:46:12Z</time></trkpt>
	<trkpt lat="52.02343" lon="-2.035406667"><ele>42.000000</ele><time>2010-08-04T09:46:17Z</time></trkpt>
	<trkpt lat="52.02344667" lon="-2.035406667"><ele>42.000000</ele><time>2010-08-04T09:46:22Z</time></trkpt>
	<trkpt lat="52.02343833" lon="-2.035415"><ele>41.000000</ele><time>2010-08-04T09:46:27Z</time></trkpt>
	<trkpt lat="52.02344" lon="-2.035411667"><ele>41.000000</ele><time>2010-08-04T09:46:32Z</time></trkpt>
	<trkpt lat="52.02343833" lon="-2.035411667"><ele>41.000000</ele><time>2010-08-04T09:46:37Z</time></trkpt>
	<trkpt lat="52.02343833" lon="-2.035413333"><ele>40.000000</ele><time>2010-08-04T09:46:42Z</time></trkpt>
	<trkpt lat="52.02344167" lon="-2.035408333"><ele>40.000000</ele><time>2010-08-04T09:46:47Z</time></trkpt>
	<trkpt lat="52.02344333" lon="-2.035408333"><ele>40.000000</ele><time>2010-08-04T09:46:52Z</time></trkpt>
	<trkpt lat="52.02344333" lon="-2.035408333"><ele>39.000000</ele><time>2010-08-04T09:46:57Z</time></trkpt>
	<trkpt lat="52.02344667" lon="-2.035408333"><ele>39.000000</ele><time>2010-08-04T09:47:02Z</time></trkpt>
	<trkpt lat="52.02344667" lon="-2.035411667"><ele>39.000000</ele><time>2010-08-04T09:47:07Z</time></trkpt>
	<trkpt lat="52.02340833" lon="-2.035441667"><ele>37.000000</ele><time>2010-08-04T09:47:12Z</time></trkpt>
	<trkpt lat="52.02339333" lon="-2.03546"><ele>37.000000</ele><time>2010-08-04T09:47:17Z</time></trkpt>
	<trkpt lat="52.0234" lon="-2.03546"><ele>38.000000</ele><time>2010-08-04T09:47:22Z</time></trkpt>
	<trkpt lat="52.02340167" lon="-2.03546"><ele>38.000000</ele><time>2010-08-04T09:47:27Z</time></trkpt>
	<trkpt lat="52.02340667" lon="-2.035458333"><ele>37.000000</ele><time>2010-08-04T09:47:32Z</time></trkpt>
	<trkpt lat="52.02341" lon="-2.035458333"><ele>37.000000</ele><time>2010-08-04T09:47:37Z</time></trkpt>
	<trkpt lat="52.023395" lon="-2.035465"><ele>36.000000</ele><time>2010-08-04T09:47:42Z</time></trkpt>
	<trkpt lat="52.023395" lon="-2.03546"><ele>34.000000</ele><time>2010-08-04T09:47:47Z</time></trkpt>
	<trkpt lat="52.02340333" lon="-2.035458333"><ele>34.000000</ele><time>2010-08-04T09:47:52Z</time></trkpt>
	<trkpt lat="52.023405" lon="-2.035455"><ele>34.000000</ele><time>2010-08-04T09:47:57Z</time></trkpt>
	<trkpt lat="52.02340667" lon="-2.03545"><ele>34.000000</ele><time>2010-08-04T09:48:02Z</time></trkpt>
	<trkpt lat="52.023405" lon="-2.035445"><ele>34.000000</ele><time>2010-08-04T09:48:07Z</time></trkpt>
	<trkpt lat="52.02340167" lon="-2.035445"><ele>34.000000</ele><time>2010-08-04T09:48:12Z</time></trkpt>
	<trkpt lat="52.023405" lon="-2.035443333"><ele>35.000000</ele><time>2010-08-04T09:48:17Z</time></trkpt>
	<trkpt lat="52.02340333" lon="-2.035443333"><ele>35.000000</ele><time>2010-08-04T09:48:22Z</time></trkpt>
	<trkpt lat="52.02340667" lon="-2.03544"><ele>35.000000</ele><time>2010-08-04T09:48:27Z</time></trkpt>
	<trkpt lat="52.02340667" lon="-2.035436667"><ele>36.000000</ele><time>2010-08-04T09:48:32Z</time></trkpt>
	<trkpt lat="52.02340833" lon="-2.03544"><ele>37.000000</ele><time>2010-08-04T09:48:37Z</time></trkpt>
	<trkpt lat="52.02341" lon="-2.035436667"><ele>37.000000</ele><time>2010-08-04T09:48:42Z</time></trkpt>
	<trkpt lat="52.02335" lon="-2.03548"><ele>34.000000</ele><time>2010-08-04T09:48:47Z</time></trkpt>
	<trkpt lat="52.02335667" lon="-2.035475"><ele>34.000000</ele><time>2010-08-04T09:48:52Z</time></trkpt>
	<trkpt lat="52.02336333" lon="-2.035471667"><ele>34.000000</ele><time>2010-08-04T09:48:57Z</time></trkpt>
	<trkpt lat="52.02336333" lon="-2.035468333"><ele>35.000000</ele><time>2010-08-04T09:49:02Z</time></trkpt>
	<trkpt lat="52.02337" lon="-2.035463333"><ele>35.000000</ele><time>2010-08-04T09:49:07Z</time></trkpt>
	<trkpt lat="52.02338" lon="-2.035456667"><ele>35.000000</ele><time>2010-08-04T09:49:12Z</time></trkpt>
	<trkpt lat="52.02340333" lon="-2.03544"><ele>36.000000</ele><time>2010-08-04T09:49:17Z</time></trkpt>
	<trkpt lat="52.02343167" lon="-2.035421667"><ele>37.000000</ele><time>2010-08-04T09:49:22Z</time></trkpt>
	<trkpt lat="52.02343167" lon="-2.035421667"><ele>37.000000</ele><time>2010-08-04T09:49:27Z</time></trkpt>
	<trkpt lat="52.02343333" lon="-2.035423333"><ele>38.000000</ele><time>2010-08-04T09:49:32Z</time></trkpt>
	<trkpt lat="52.02343667" lon="-2.035421667"><ele>38.000000</ele><time>2010-08-04T09:49:37Z</time></trkpt>
	<trkpt lat="52.02344167" lon="-2.03542"><ele>39.000000</ele><time>2010-08-04T09:49:42Z</time></trkpt>
	<trkpt lat="52.02344" lon="-2.035423333"><ele>40.000000</ele><time>2010-08-04T09:49:47Z</time></trkpt>
	<trkpt lat="52.02344333" lon="-2.035421667"><ele>41.000000</ele><time>2010-08-04T09:49:52Z</time></trkpt>
	<trkpt lat="52.02342333" lon="-2.035435"><ele>41.000000</ele><time>2010-08-04T09:49:57Z</time></trkpt>
	<trkpt lat="52.023405" lon="-2.035446667"><ele>41.000000</ele><time>2010-08-04T09:50:02Z</time></trkpt>
	<trkpt lat="52.023405" lon="-2.035445"><ele>41.000000</ele><time>2010-08-04T09:50:07Z</time></trkpt>
	<trkpt lat="52.02341" lon="-2.035441667"><ele>41.000000</ele><time>2010-08-04T09:50:12Z</time></trkpt>
	<trkpt lat="52.02341667" lon="-2.035436667"><ele>41.000000</ele><time>2010-08-04T09:50:17Z</time></trkpt>
	<trkpt lat="52.02342167" lon="-2.035436667"><ele>42.000000</ele><time>2010-08-04T09:50:22Z</time></trkpt>
	<trkpt lat="52.023425" lon="-2.035435"><ele>42.000000</ele><time>2010-08-04T09:50:27Z</time></trkpt>
	<trkpt lat="52.023425" lon="-2.035436667"><ele>42.000000</ele><time>2010-08-04T09:50:32Z</time></trkpt>
	<trkpt lat="52.02342333" lon="-2.035436667"><ele>42.000000</ele><time>2010-08-04T09:50:37Z</time></trkpt>
	<trkpt lat="52.023425" lon="-2.035435"><ele>41.000000</ele><time>2010-08-04T09:50:42Z</time></trkpt>
	<trkpt lat="52.02344333" lon="-2.035421667"><ele>41.000000</ele><time>2010-08-04T09:50:47Z</time></trkpt>
	<trkpt lat="52.02344667" lon="-2.03542"><ele>41.000000</ele><time>2010-08-04T09:50:52Z</time></trkpt>
	<trkpt lat="52.02344833" lon="-2.035418333"><ele>40.000000</ele><time>2010-08-04T09:50:57Z</time></trkpt>
	<trkpt lat="52.02345" lon="-2.035415"><ele>40.000000</ele><time>2010-08-04T09:51:02Z</time></trkpt>
	<trkpt lat="52.02344333" lon="-2.03542"><ele>39.000000</ele><time>2010-08-04T09:51:07Z</time></trkpt>
	<trkpt lat="52.02343333" lon="-2.035421667"><ele>38.000000</ele><time>2010-08-04T09:51:12Z</time></trkpt>
	<trkpt lat="52.02342667" lon="-2.035421667"><ele>37.000000</ele><time>2010-08-04T09:51:17Z</time></trkpt>
	<trkpt lat="52.02342167" lon="-2.035423333"><ele>36.000000</ele><time>2010-08-04T09:51:22Z</time></trkpt>
	<trkpt lat="52.02341667" lon="-2.035426667"><ele>36.000000</ele><time>2010-08-04T09:51:27Z</time></trkpt>
	<trkpt lat="52.02342167" lon="-2.035426667"><ele>35.000000</ele><time>2010-08-04T09:51:32Z</time></trkpt>
	<trkpt lat="52.02342833" lon="-2.035428333"><ele>36.000000</ele><time>2010-08-04T09:51:37Z</time></trkpt>
	<trkpt lat="52.02343167" lon="-2.035426667"><ele>36.000000</ele><time>2010-08-04T09:51:42Z</time></trkpt>
	<trkpt lat="52.02343833" lon="-2.035423333"><ele>36.000000</ele><time>2010-08-04T09:51:47Z</time></trkpt>
	<trkpt lat="52.02344333" lon="-2.03542"><ele>37.000000</ele><time>2010-08-04T09:51:52Z</time></trkpt>
	<trkpt lat="52.02345" lon="-2.035418333"><ele>37.000000</ele><time>2010-08-04T09:51:57Z</time></trkpt>
	<trkpt lat="52.02343" lon="-2.03543"><ele>37.000000</ele><time>2010-08-04T09:52:02Z</time></trkpt>
	<trkpt lat="52.02343167" lon="-2.035428333"><ele>36.000000</ele><time>2010-08-04T09:52:07Z</time></trkpt>
	<trkpt lat="52.023435" lon="-2.035423333"><ele>36.000000</ele><time>2010-08-04T09:52:12Z</time></trkpt>
	<trkpt lat="52.02344" lon="-2.035421667"><ele>36.000000</ele><time>2010-08-04T09:52:17Z</time></trkpt>
	<trkpt lat="52.023435" lon="-2.03542"><ele>35.000000</ele><time>2010-08-04T09:52:22Z</time></trkpt>
	<trkpt lat="52.02344" lon="-2.035418333"><ele>35.000000</ele><time>2010-08-04T09:52:27Z</time></trkpt>
	<trkpt lat="52.02344167" lon="-2.035415"><ele>35.000000</ele><time>2010-08-04T09:52:32Z</time></trkpt>
	<trkpt lat="52.02345167" lon="-2.035408333"><ele>36.000000</ele><time>2010-08-04T09:52:37Z</time></trkpt>
	<trkpt lat="52.02343667" lon="-2.035423333"><ele>36.000000</ele><time>2010-08-04T09:52:42Z</time></trkpt>
	<trkpt lat="52.02342" lon="-2.03543"><ele>33.000000</ele><time>2010-08-04T09:52:47Z</time></trkpt>
	<trkpt lat="52.02340167" lon="-2.035436667"><ele>31.000000</ele><time>2010-08-04T09:52:52Z</time></trkpt>
	<trkpt lat="52.0234" lon="-2.035436667"><ele>32.000000</ele><time>2010-08-04T09:52:57Z</time></trkpt>
	<trkpt lat="52.02337" lon="-2.035451667"><ele>31.000000</ele><time>2010-08-04T09:53:02Z</time></trkpt>
	<trkpt lat="52.02335667" lon="-2.03544"><ele>33.000000</ele><time>2010-08-04T09:53:07Z</time></trkpt>
	<trkpt lat="52.02336167" lon="-2.035418333"><ele>38.000000</ele><time>2010-08-04T09:53:12Z</time></trkpt>
	<trkpt lat="52.02337333" lon="-2.035403333"><ele>41.000000</ele><time>2010-08-04T09:53:17Z</time></trkpt>
	<trkpt lat="52.02338667" lon="-2.03539"><ele>43.000000</ele><time>2010-08-04T09:53:22Z</time></trkpt>
	<trkpt lat="52.02338167" lon="-2.035391667"><ele>43.000000</ele><time>2010-08-04T09:53:27Z</time></trkpt>
	<trkpt lat="52.023385" lon="-2.035395"><ele>44.000000</ele><time>2010-08-04T09:53:32Z</time></trkpt>
	<trkpt lat="52.02340167" lon="-2.035393333"><ele>46.000000</ele><time>2010-08-04T09:53:37Z</time></trkpt>
	<trkpt lat="52.02342167" lon="-2.035388333"><ele>47.000000</ele><time>2010-08-04T09:53:42Z</time></trkpt>
	<trkpt lat="52.023415" lon="-2.035398333"><ele>46.000000</ele><time>2010-08-04T09:53:47Z</time></trkpt>
	<trkpt lat="52.023425" lon="-2.035405"><ele>49.000000</ele><time>2010-08-04T09:53:52Z</time></trkpt>
	<trkpt lat="52.02344667" lon="-2.0354"><ele>51.000000</ele><time>2010-08-04T09:53:57Z</time></trkpt>
	<trkpt lat="52.02345833" lon="-2.03538"><ele>51.000000</ele><time>2010-08-04T09:54:02Z</time></trkpt>
	<trkpt lat="52.02345667" lon="-2.035388333"><ele>50.000000</ele><time>2010-08-04T09:54:07Z</time></trkpt>
	<trkpt lat="52.02344" lon="-2.0354"><ele>49.000000</ele><time>2010-08-04T09:54:12Z</time></trkpt>
	<trkpt lat="52.023415" lon="-2.035413333"><ele>46.000000</ele><time>2010-08-04T09:54:17Z</time></trkpt>
	<trkpt lat="52.023415" lon="-2.035436667"><ele>43.000000</ele><time>2010-08-04T09:54:22Z</time></trkpt>
	<trkpt lat="52.02340833" lon="-2.03546"><ele>40.000000</ele><time>2010-08-04T09:54:27Z</time></trkpt>
	<trkpt lat="52.02343667" lon="-2.035445"><ele>41.000000</ele><time>2010-08-04T09:54:32Z</time></trkpt>
	<trkpt lat="52.02344333" lon="-2.035431667"><ele>42.000000</ele><time>2010-08-04T09:54:37Z</time></trkpt>
	<trkpt lat="52.02345" lon="-2.035423333"><ele>43.000000</ele><time>2010-08-04T09:54:42Z</time></trkpt>
	<trkpt lat="52.023455" lon="-2.035418333"><ele>43.000000</ele><time>2010-08-04T09:54:47Z</time></trkpt>
	<trkpt lat="52.02345833" lon="-2.035413333"><ele>43.000000</ele><time>2010-08-04T09:54:52Z</time></trkpt>
	<trkpt lat="52.02345833" lon="-2.035411667"><ele>44.000000</ele><time>2010-08-04T09:54:57Z</time></trkpt>
	<trkpt lat="52.02345833" lon="-2.035408333"><ele>44.000000</ele><time>2010-08-04T09:55:02Z</time></trkpt>
	<trkpt lat="52.02345833" lon="-2.035408333"><ele>44.000000</ele><time>2010-08-04T09:55:07Z</time></trkpt>
	<trkpt lat="52.02346833" lon="-2.035403333"><ele>45.000000</ele><time>2010-08-04T09:55:12Z</time></trkpt>
	<trkpt lat="52.02348" lon="-2.035396667"><ele>45.000000</ele><time>2010-08-04T09:55:17Z</time></trkpt>
	<trkpt lat="52.02347333" lon="-2.0354"><ele>45.000000</ele><time>2010-08-04T09:55:22Z</time></trkpt>
	<trkpt lat="52.02347333" lon="-2.0354"><ele>45.000000</ele><time>2010-08-04T09:55:27Z</time></trkpt>
	<trkpt lat="52.02347333" lon="-2.035396667"><ele>45.000000</ele><time>2010-08-04T09:55:32Z</time></trkpt>
	<trkpt lat="52.02346833" lon="-2.035398333"><ele>44.000000</ele><time>2010-08-04T09:55:37Z</time></trkpt>
	<trkpt lat="52.023465" lon="-2.035398333"><ele>44.000000</ele><time>2010-08-04T09:55:42Z</time></trkpt>
	<trkpt lat="52.02346333" lon="-2.035396667"><ele>44.000000</ele><time>2010-08-04T09:55:47Z</time></trkpt>
	<trkpt lat="52.02345833" lon="-2.035398333"><ele>44.000000</ele><time>2010-08-04T09:55:52Z</time></trkpt>
	<trkpt lat="52.02345333" lon="-2.0354"><ele>44.000000</ele><time>2010-08-04T09:55:57Z</time></trkpt>
	<trkpt lat="52.02345333" lon="-2.035401667"><ele>44.000000</ele><time>2010-08-04T09:56:02Z</time></trkpt>
	<trkpt lat="52.02345333" lon="-2.035401667"><ele>44.000000</ele><time>2010-08-04T09:56:07Z</time></trkpt>
	<trkpt lat="52.02344833" lon="-2.035408333"><ele>44.000000</ele><time>2010-08-04T09:56:12Z</time></trkpt>
	<trkpt lat="52.02344833" lon="-2.035408333"><ele>43.000000</ele><time>2010-08-04T09:56:17Z</time></trkpt>
	<trkpt lat="52.02344" lon="-2.035411667"><ele>43.000000</ele><time>2010-08-04T09:56:22Z</time></trkpt>
	<trkpt lat="52.02343833" lon="-2.035408333"><ele>43.000000</ele><time>2010-08-04T09:56:27Z</time></trkpt>
	<trkpt lat="52.023455" lon="-2.035396667"><ele>42.000000</ele><time>2010-08-04T09:56:32Z</time></trkpt>
	<trkpt lat="52.02350667" lon="-2.035376667"><ele>41.000000</ele><time>2010-08-04T09:56:37Z</time></trkpt>
	<trkpt lat="52.02354833" lon="-2.035423333"><ele>41.000000</ele><time>2010-08-04T09:56:42Z</time></trkpt>
	<trkpt lat="52.02347167" lon="-2.035483333"><ele>37.000000</ele><time>2010-08-04T09:56:47Z</time></trkpt>
	<trkpt lat="52.02351" lon="-2.035496667"><ele>37.000000</ele><time>2010-08-04T09:56:52Z</time></trkpt>
	<trkpt lat="52.02352167" lon="-2.035501667"><ele>35.000000</ele><time>2010-08-04T09:56:57Z</time></trkpt>
	<trkpt lat="52.02357167" lon="-2.035496667"><ele>38.000000</ele><time>2010-08-04T09:57:02Z</time></trkpt>
	<trkpt lat="52.02357333" lon="-2.035485"><ele>41.000000</ele><time>2010-08-04T09:57:07Z</time></trkpt>
	<trkpt lat="52.02351833" lon="-2.035433333"><ele>41.000000</ele><time>2010-08-04T09:57:12Z</time></trkpt>
	<trkpt lat="52.02342833" lon="-2.035418333"><ele>35.000000</ele><time>2010-08-04T09:57:17Z</time></trkpt>
	<trkpt lat="52.02334167" lon="-2.035395"><ele>37.000000</ele><time>2010-08-04T09:57:22Z</time></trkpt>
	<trkpt lat="52.02336333" lon="-2.03536"><ele>38.000000</ele><time>2010-08-04T09:57:27Z</time></trkpt>
	<trkpt lat="52.02331833" lon="-2.035383333"><ele>37.000000</ele><time>2010-08-04T09:57:32Z</time></trkpt>
	<trkpt lat="52.02332333" lon="-2.03544"><ele>40.000000</ele><time>2010-08-04T09:57:37Z</time></trkpt>
	<trkpt lat="52.02335333" lon="-2.035436667"><ele>38.000000</ele><time>2010-08-04T09:57:42Z</time></trkpt>
	<trkpt lat="52.02343167" lon="-2.03544"><ele>50.000000</ele><time>2010-08-04T09:57:47Z</time></trkpt>
	<trkpt lat="52.02353167" lon="-2.035505"><ele>55.000000</ele><time>2010-08-04T09:57:52Z</time></trkpt>
	<trkpt lat="52.02358833" lon="-2.03548"><ele>63.000000</ele><time>2010-08-04T09:57:57Z</time></trkpt>
	<trkpt lat="52.02359667" lon="-2.035465"><ele>66.000000</ele><time>2010-08-04T09:58:02Z</time></trkpt>
	<trkpt lat="52.02361667" lon="-2.035385"><ele>70.000000</ele><time>2010-08-04T09:58:07Z</time></trkpt>
	<trkpt lat="52.02360833" lon="-2.035346667"><ele>67.000000</ele><time>2010-08-04T09:58:12Z</time></trkpt>
	<trkpt lat="52.02351833" lon="-2.035311667"><ele>51.000000</ele><time>2010-08-04T09:58:17Z</time></trkpt>
	<trkpt lat="52.02349833" lon="-2.03534"><ele>50.000000</ele><time>2010-08-04T09:58:22Z</time></trkpt>
	<trkpt lat="52.02346333" lon="-2.03533"><ele>51.000000</ele><time>2010-08-04T09:58:27Z</time></trkpt>
	<trkpt lat="52.02345667" lon="-2.035371667"><ele>50.000000</ele><time>2010-08-04T09:58:32Z</time></trkpt>
	<trkpt lat="52.02345167" lon="-2.035376667"><ele>49.000000</ele><time>2010-08-04T09:58:37Z</time></trkpt>
	<trkpt lat="52.02344833" lon="-2.03539"><ele>47.000000</ele><time>2010-08-04T09:58:42Z</time></trkpt>
	<trkpt lat="52.02344167" lon="-2.035415"><ele>43.000000</ele><time>2010-08-04T09:58:47Z</time></trkpt>
	<trkpt lat="52.02344" lon="-2.035421667"><ele>41.000000</ele><time>2010-08-04T09:58:52Z</time></trkpt>
	<trkpt lat="52.02343833" lon="-2.035433333"><ele>39.000000</ele><time>2010-08-04T09:58:57Z</time></trkpt>
	<trkpt lat="52.02343667" lon="-2.035433333"><ele>39.000000</ele><time>2010-08-04T09:59:02Z</time></trkpt>
	<trkpt lat="52.02342833" lon="-2.035436667"><ele>39.000000</ele><time>2010-08-04T09:59:07Z</time></trkpt>
	<trkpt lat="52.02343667" lon="-2.035431667"><ele>40.000000</ele><time>2010-08-04T09:59:12Z</time></trkpt>
	<trkpt lat="52.02344833" lon="-2.035443333"><ele>40.000000</ele><time>2010-08-04T09:59:17Z</time></trkpt>
	<trkpt lat="52.02345" lon="-2.03544"><ele>41.000000</ele><time>2010-08-04T09:59:22Z</time></trkpt>
	<trkpt lat="52.02345167" lon="-2.035436667"><ele>41.000000</ele><time>2010-08-04T09:59:27Z</time></trkpt>
	<trkpt lat="52.023455" lon="-2.035436667"><ele>41.000000</ele><time>2010-08-04T09:59:32Z</time></trkpt>
	<trkpt lat="52.02345833" lon="-2.035435"><ele>42.000000</ele><time>2010-08-04T09:59:37Z</time></trkpt>
	<trkpt lat="52.023465" lon="-2.035433333"><ele>42.000000</ele><time>2010-08-04T09:59:42Z</time></trkpt>
	<trkpt lat="52.02347333" lon="-2.035458333"><ele>43.000000</ele><time>2010-08-04T09:59:47Z</time></trkpt>
	<trkpt lat="52.02348833" lon="-2.035496667"><ele>43.000000</ele><time>2010-08-04T09:59:52Z</time></trkpt>
	<trkpt lat="52.02349667" lon="-2.035573333"><ele>45.000000</ele><time>2010-08-04T09:59:57Z</time></trkpt>
	<trkpt lat="52.02350167" lon="-2.035641667"><ele>46.000000</ele><time>2010-08-04T10:00:02Z</time></trkpt>
	<trkpt lat="52.02350833" lon="-2.035706667"><ele>48.000000</ele><time>2010-08-04T10:00:07Z</time></trkpt>
	<trkpt lat="52.02351333" lon="-2.035775"><ele>50.000000</ele><time>2010-08-04T10:00:12Z</time></trkpt>
	<trkpt lat="52.02352167" lon="-2.035851667"><ele>53.000000</ele><time>2010-08-04T10:00:17Z</time></trkpt>
	<trkpt lat="52.02351667" lon="-2.035931667"><ele>54.000000</ele><time>2010-08-04T10:00:22Z</time></trkpt>
	<trkpt lat="52.02350167" lon="-2.036003333"><ele>57.000000</ele><time>2010-08-04T10:00:27Z</time></trkpt>
	<trkpt lat="52.02347333" lon="-2.036053333"><ele>62.000000</ele><time>2010-08-04T10:00:32Z</time></trkpt>
	<trkpt lat="52.023455" lon="-2.036105"><ele>65.000000</ele><time>2010-08-04T10:00:37Z</time></trkpt>
	<trkpt lat="52.02341833" lon="-2.036158333"><ele>70.000000</ele><time>2010-08-04T10:00:42Z</time></trkpt>
	<trkpt lat="52.02336667" lon="-2.036221667"><ele>71.000000</ele><time>2010-08-04T10:00:47Z</time></trkpt>
	<trkpt lat="52.02331167" lon="-2.036316667"><ele>61.000000</ele><time>2010-08-04T10:00:52Z</time></trkpt>
	<trkpt lat="52.02324833" lon="-2.036368333"><ele>56.000000</ele><time>2010-08-04T10:00:57Z</time></trkpt>
	<trkpt lat="52.02318833" lon="-2.036396667"><ele>53.000000</ele><time>2010-08-04T10:01:02Z</time></trkpt>
	<trkpt lat="52.02311333" lon="-2.036436667"><ele>51.000000</ele><time>2010-08-04T10:01:07Z</time></trkpt>
	<trkpt lat="52.02303" lon="-2.03647"><ele>49.000000</ele><time>2010-08-04T10:01:12Z</time></trkpt>
	<trkpt lat="52.02296833" lon="-2.036491667"><ele>49.000000</ele><time>2010-08-04T10:01:17Z</time></trkpt>
	<trkpt lat="52.02290167" lon="-2.036493333"><ele>48.000000</ele><time>2010-08-04T10:01:22Z</time></trkpt>
	<trkpt lat="52.02285167" lon="-2.036496667"><ele>48.000000</ele><time>2010-08-04T10:01:27Z</time></trkpt>
	<trkpt lat="52.02279833" lon="-2.036538333"><ele>47.000000</ele><time>2010-08-04T10:01:32Z</time></trkpt>
	<trkpt lat="52.02276" lon="-2.036585"><ele>48.000000</ele><time>2010-08-04T10:01:37Z</time></trkpt>
	<trkpt lat="52.02275167" lon="-2.036615"><ele>51.000000</ele><time>2010-08-04T10:01:42Z</time></trkpt>
	<trkpt lat="52.02274667" lon="-2.03665"><ele>52.000000</ele><time>2010-08-04T10:01:47Z</time></trkpt>
	<trkpt lat="52.02274167" lon="-2.0367"><ele>52.000000</ele><time>2010-08-04T10:01:52Z</time></trkpt>
	<trkpt lat="52.02274667" lon="-2.036721667"><ele>52.000000</ele><time>2010-08-04T10:01:57Z</time></trkpt>
	<trkpt lat="52.02274667" lon="-2.036733333"><ele>50.000000</ele><time>2010-08-04T10:02:02Z</time></trkpt>
	<trkpt lat="52.022745" lon="-2.036738333"><ele>49.000000</ele><time>2010-08-04T10:02:07Z</time></trkpt>
	<trkpt lat="52.02274333" lon="-2.036731667"><ele>49.000000</ele><time>2010-08-04T10:02:12Z</time></trkpt>
	<trkpt lat="52.02274167" lon="-2.036735"><ele>48.000000</ele><time>2010-08-04T10:02:17Z</time></trkpt>
	<trkpt lat="52.02275833" lon="-2.036785"><ele>50.000000</ele><time>2010-08-04T10:02:22Z</time></trkpt>
	<trkpt lat="52.02276167" lon="-2.03682"><ele>49.000000</ele><time>2010-08-04T10:02:27Z</time></trkpt>
	<trkpt lat="52.022765" lon="-2.03686"><ele>48.000000</ele><time>2010-08-04T10:02:32Z</time></trkpt>
	<trkpt lat="52.02271333" lon="-2.036888333"><ele>47.000000</ele><time>2010-08-04T10:02:37Z</time></trkpt>
	<trkpt lat="52.02265667" lon="-2.036896667"><ele>46.000000</ele><time>2010-08-04T10:02:42Z</time></trkpt>
	<trkpt lat="52.02260667" lon="-2.036901667"><ele>46.000000</ele><time>2010-08-04T10:02:47Z</time></trkpt>
	<trkpt lat="52.02254833" lon="-2.036913333"><ele>45.000000</ele><time>2010-08-04T10:02:52Z</time></trkpt>
	<trkpt lat="52.02254" lon="-2.03692"><ele>45.000000</ele><time>2010-08-04T10:02:57Z</time></trkpt>
	<trkpt lat="52.022535" lon="-2.036921667"><ele>45.000000</ele><time>2010-08-04T10:03:02Z</time></trkpt>
	<trkpt lat="52.02254" lon="-2.036925"><ele>45.000000</ele><time>2010-08-04T10:03:07Z</time></trkpt>
	<trkpt lat="52.02258833" lon="-2.036926667"><ele>45.000000</ele><time>2010-08-04T10:03:12Z</time></trkpt>
	<trkpt lat="52.022635" lon="-2.036928333"><ele>45.000000</ele><time>2010-08-04T10:03:17Z</time></trkpt>
	<trkpt lat="52.022685" lon="-2.036918333"><ele>45.000000</ele><time>2010-08-04T10:03:22Z</time></trkpt>
	<trkpt lat="52.02274667" lon="-2.036906667"><ele>46.000000</ele><time>2010-08-04T10:03:27Z</time></trkpt>
	<trkpt lat="52.02280667" lon="-2.036906667"><ele>45.000000</ele><time>2010-08-04T10:03:32Z</time></trkpt>
	<trkpt lat="52.02286667" lon="-2.036906667"><ele>45.000000</ele><time>2010-08-04T10:03:37Z</time></trkpt>
	<trkpt lat="52.02293167" lon="-2.036906667"><ele>45.000000</ele><time>2010-08-04T10:03:42Z</time></trkpt>
	<trkpt lat="52.022995" lon="-2.03691"><ele>46.000000</ele><time>2010-08-04T10:03:47Z</time></trkpt>
	<trkpt lat="52.02305667" lon="-2.036915"><ele>47.000000</ele><time>2010-08-04T10:03:52Z</time></trkpt>
	<trkpt lat="52.02311833" lon="-2.036915"><ele>48.000000</ele><time>2010-08-04T10:03:57Z</time></trkpt>
	<trkpt lat="52.02318167" lon="-2.03691"><ele>48.000000</ele><time>2010-08-04T10:04:02Z</time></trkpt>
	<trkpt lat="52.02324667" lon="-2.036901667"><ele>49.000000</ele><time>2010-08-04T10:04:07Z</time></trkpt>
	<trkpt lat="52.02330667" lon="-2.036896667"><ele>49.000000</ele><time>2010-08-04T10:04:12Z</time></trkpt>
	<trkpt lat="52.023365" lon="-2.036896667"><ele>50.000000</ele><time>2010-08-04T10:04:17Z</time></trkpt>
	<trkpt lat="52.02341833" lon="-2.036898333"><ele>51.000000</ele><time>2010-08-04T10:04:22Z</time></trkpt>
	<trkpt lat="52.02347333" lon="-2.036896667"><ele>51.000000</ele><time>2010-08-04T10:04:27Z</time></trkpt>
	<trkpt lat="52.02353333" lon="-2.036893333"><ele>52.000000</ele><time>2010-08-04T10:04:32Z</time></trkpt>
	<trkpt lat="52.02356833" lon="-2.036893333"><ele>53.000000</ele><time>2010-08-04T10:04:37Z</time></trkpt>
	<trkpt lat="52.0236" lon="-2.036893333"><ele>53.000000</ele><time>2010-08-04T10:04:42Z</time></trkpt>
	<trkpt lat="52.02360833" lon="-2.036886667"><ele>52.000000</ele><time>2010-08-04T10:04:47Z</time></trkpt>
	<trkpt lat="52.02361167" lon="-2.036883333"><ele>51.000000</ele><time>2010-08-04T10:04:52Z</time></trkpt>
	<trkpt lat="52.02361333" lon="-2.036868333"><ele>51.000000</ele><time>2010-08-04T10:04:57Z</time></trkpt>
	<trkpt lat="52.02362" lon="-2.036863333"><ele>51.000000</ele><time>2010-08-04T10:05:02Z</time></trkpt>
	<trkpt lat="52.02363833" lon="-2.036865"><ele>51.000000</ele><time>2010-08-04T10:05:07Z</time></trkpt>
	<trkpt lat="52.02368667" lon="-2.036871667"><ele>51.000000</ele><time>2010-08-04T10:05:12Z</time></trkpt>
	<trkpt lat="52.023735" lon="-2.036875"><ele>52.000000</ele><time>2010-08-04T10:05:17Z</time></trkpt>
	<trkpt lat="52.023785" lon="-2.036875"><ele>53.000000</ele><time>2010-08-04T10:05:22Z</time></trkpt>
	<trkpt lat="52.023845" lon="-2.036863333"><ele>52.000000</ele><time>2010-08-04T10:05:27Z</time></trkpt>
	<trkpt lat="52.02386667" lon="-2.036848333"><ele>51.000000</ele><time>2010-08-04T10:05:32Z</time></trkpt>
	<trkpt lat="52.02389667" lon="-2.036846667"><ele>52.000000</ele><time>2010-08-04T10:05:37Z</time></trkpt>
	<trkpt lat="52.02395667" lon="-2.036841667"><ele>52.000000</ele><time>2010-08-04T10:05:42Z</time></trkpt>
	<trkpt lat="52.02401167" lon="-2.036845"><ele>52.000000</ele><time>2010-08-04T10:05:47Z</time></trkpt>
	<trkpt lat="52.02407333" lon="-2.036835"><ele>52.000000</ele><time>2010-08-04T10:05:52Z</time></trkpt>
	<trkpt lat="52.02413333" lon="-2.036826667"><ele>53.000000</ele><time>2010-08-04T10:05:57Z</time></trkpt>
	<trkpt lat="52.02419333" lon="-2.03682"><ele>53.000000</ele><time>2010-08-04T10:06:02Z</time></trkpt>
	<trkpt lat="52.02425" lon="-2.036821667"><ele>53.000000</ele><time>2010-08-04T10:06:07Z</time></trkpt>
	<trkpt lat="52.02430833" lon="-2.036821667"><ele>52.000000</ele><time>2010-08-04T10:06:12Z</time></trkpt>
	<trkpt lat="52.02436167" lon="-2.036825"><ele>51.000000</ele><time>2010-08-04T10:06:17Z</time></trkpt>
	<trkpt lat="52.024415" lon="-2.036815"><ele>51.000000</ele><time>2010-08-04T10:06:22Z</time></trkpt>
	<trkpt lat="52.024465" lon="-2.036811667"><ele>51.000000</ele><time>2010-08-04T10:06:27Z</time></trkpt>
	<trkpt lat="52.02452333" lon="-2.036805"><ele>51.000000</ele><time>2010-08-04T10:06:32Z</time></trkpt>
	<trkpt lat="52.02458167" lon="-2.036803333"><ele>52.000000</ele><time>2010-08-04T10:06:37Z</time></trkpt>
	<trkpt lat="52.02464167" lon="-2.036805"><ele>51.000000</ele><time>2010-08-04T10:06:42Z</time></trkpt>
	<trkpt lat="52.024695" lon="-2.036811667"><ele>51.000000</ele><time>2010-08-04T10:06:47Z</time></trkpt>
	<trkpt lat="52.02475" lon="-2.036813333"><ele>51.000000</ele><time>2010-08-04T10:06:52Z</time></trkpt>
	<trkpt lat="52.02480833" lon="-2.036805"><ele>52.000000</ele><time>2010-08-04T10:06:57Z</time></trkpt>
	<trkpt lat="52.02486" lon="-2.0368"><ele>53.000000</ele><time>2010-08-04T10:07:02Z</time></trkpt>
	<trkpt lat="52.02491333" lon="-2.036795"><ele>53.000000</ele><time>2010-08-04T10:07:07Z</time></trkpt>
	<trkpt lat="52.024965" lon="-2.036793333"><ele>53.000000</ele><time>2010-08-04T10:07:12Z</time></trkpt>
	<trkpt lat="52.02502333" lon="-2.036786667"><ele>53.000000</ele><time>2010-08-04T10:07:17Z</time></trkpt>
	<trkpt lat="52.02507833" lon="-2.036786667"><ele>53.000000</ele><time>2010-08-04T10:07:22Z</time></trkpt>
	<trkpt lat="52.02512667" lon="-2.036768333"><ele>53.000000</ele><time>2010-08-04T10:07:27Z</time></trkpt>
	<trkpt lat="52.02519" lon="-2.036761667"><ele>53.000000</ele><time>2010-08-04T10:07:32Z</time></trkpt>
	<trkpt lat="52.02525" lon="-2.03676"><ele>54.000000</ele><time>2010-08-04T10:07:37Z</time></trkpt>
	<trkpt lat="52.02530667" lon="-2.036776667"><ele>55.000000</ele><time>2010-08-04T10:07:42Z</time></trkpt>
	<trkpt lat="52.02534833" lon="-2.036845"><ele>54.000000</ele><time>2010-08-04T10:07:47Z</time></trkpt>
	<trkpt lat="52.02536833" lon="-2.03692"><ele>55.000000</ele><time>2010-08-04T10:07:52Z</time></trkpt>
	<trkpt lat="52.02536833" lon="-2.036981667"><ele>56.000000</ele><time>2010-08-04T10:07:57Z</time></trkpt>
	<trkpt lat="52.02536333" lon="-2.037061667"><ele>57.000000</ele><time>2010-08-04T10:08:02Z</time></trkpt>
	<trkpt lat="52.02535333" lon="-2.037145"><ele>58.000000</ele><time>2010-08-04T10:08:07Z</time></trkpt>
	<trkpt lat="52.02534333" lon="-2.037228333"><ele>59.000000</ele><time>2010-08-04T10:08:12Z</time></trkpt>
	<trkpt lat="52.02533167" lon="-2.037301667"><ele>60.000000</ele><time>2010-08-04T10:08:17Z</time></trkpt>
	<trkpt lat="52.02533" lon="-2.037378333"><ele>61.000000</ele><time>2010-08-04T10:08:22Z</time></trkpt>
	<trkpt lat="52.02532833" lon="-2.03745"><ele>63.000000</ele><time>2010-08-04T10:08:27Z</time></trkpt>
	<trkpt lat="52.02532833" lon="-2.037531667"><ele>64.000000</ele><time>2010-08-04T10:08:32Z</time></trkpt>
	<trkpt lat="52.02534833" lon="-2.037613333"><ele>62.000000</ele><time>2010-08-04T10:08:37Z</time></trkpt>
	<trkpt lat="52.02538333" lon="-2.037686667"><ele>61.000000</ele><time>2010-08-04T10:08:42Z</time></trkpt>
	<trkpt lat="52.02541833" lon="-2.037758333"><ele>59.000000</ele><time>2010-08-04T10:08:47Z</time></trkpt>
	<trkpt lat="52.02545833" lon="-2.037823333"><ele>58.000000</ele><time>2010-08-04T10:08:52Z</time></trkpt>
	<trkpt lat="52.025505" lon="-2.037876667"><ele>58.000000</ele><time>2010-08-04T10:08:57Z</time></trkpt>
	<trkpt lat="52.02555" lon="-2.03792"><ele>58.000000</ele><time>2010-08-04T10:09:02Z</time></trkpt>
	<trkpt lat="52.02558" lon="-2.037955"><ele>58.000000</ele><time>2010-08-04T10:09:07Z</time></trkpt>
	<trkpt lat="52.02563" lon="-2.037995"><ele>58.000000</ele><time>2010-08-04T10:09:12Z</time></trkpt>
	<trkpt lat="52.025685" lon="-2.038038333"><ele>58.000000</ele><time>2010-08-04T10:09:17Z</time></trkpt>
	<trkpt lat="52.02574167" lon="-2.038066667"><ele>58.000000</ele><time>2010-08-04T10:09:22Z</time></trkpt>
	<trkpt lat="52.02579167" lon="-2.038088333"><ele>58.000000</ele><time>2010-08-04T10:09:27Z</time></trkpt>
	<trkpt lat="52.025845" lon="-2.03811"><ele>58.000000</ele><time>2010-08-04T10:09:32Z</time></trkpt>
	<trkpt lat="52.02590167" lon="-2.038131667"><ele>58.000000</ele><time>2010-08-04T10:09:37Z</time></trkpt>
	<trkpt lat="52.02596167" lon="-2.038151667"><ele>59.000000</ele><time>2010-08-04T10:09:42Z</time></trkpt>
	<trkpt lat="52.02601667" lon="-2.038176667"><ele>60.000000</ele><time>2010-08-04T10:09:47Z</time></trkpt>
	<trkpt lat="52.02607" lon="-2.038191667"><ele>60.000000</ele><time>2010-08-04T10:09:52Z</time></trkpt>
	<trkpt lat="52.02610333" lon="-2.038191667"><ele>60.000000</ele><time>2010-08-04T10:09:57Z</time></trkpt>
	<trkpt lat="52.02615333" lon="-2.038191667"><ele>60.000000</ele><time>2010-08-04T10:10:02Z</time></trkpt>
	<trkpt lat="52.026205" lon="-2.0382"><ele>60.000000</ele><time>2010-08-04T10:10:07Z</time></trkpt>
	<trkpt lat="52.02625333" lon="-2.038205"><ele>60.000000</ele><time>2010-08-04T10:10:12Z</time></trkpt>
	<trkpt lat="52.026295" lon="-2.03821"><ele>60.000000</ele><time>2010-08-04T10:10:17Z</time></trkpt>
	<trkpt lat="52.026345" lon="-2.038215"><ele>61.000000</ele><time>2010-08-04T10:10:22Z</time></trkpt>
	<trkpt lat="52.02639167" lon="-2.038228333"><ele>62.000000</ele><time>2010-08-04T10:10:27Z</time></trkpt>
	<trkpt lat="52.02643167" lon="-2.03823"><ele>63.000000</ele><time>2010-08-04T10:10:32Z</time></trkpt>
	<trkpt lat="52.02647167" lon="-2.038225"><ele>63.000000</ele><time>2010-08-04T10:10:37Z</time></trkpt>
	<trkpt lat="52.02649" lon="-2.038225"><ele>61.000000</ele><time>2010-08-04T10:10:42Z</time></trkpt>
	<trkpt lat="52.02653" lon="-2.038233333"><ele>61.000000</ele><time>2010-08-04T10:10:47Z</time></trkpt>
	<trkpt lat="52.02658" lon="-2.038238333"><ele>61.000000</ele><time>2010-08-04T10:10:52Z</time></trkpt>
	<trkpt lat="52.02664167" lon="-2.03824"><ele>61.000000</ele><time>2010-08-04T10:10:57Z</time></trkpt>
	<trkpt lat="52.02670167" lon="-2.038248333"><ele>61.000000</ele><time>2010-08-04T10:11:02Z</time></trkpt>
	<trkpt lat="52.02675667" lon="-2.038248333"><ele>62.000000</ele><time>2010-08-04T10:11:07Z</time></trkpt>
	<trkpt lat="52.02681167" lon="-2.038251667"><ele>63.000000</ele><time>2010-08-04T10:11:12Z</time></trkpt>
	<trkpt lat="52.026865" lon="-2.038255"><ele>64.000000</ele><time>2010-08-04T10:11:17Z</time></trkpt>
	<trkpt lat="52.02691667" lon="-2.038261667"><ele>65.000000</ele><time>2010-08-04T10:11:22Z</time></trkpt>
	<trkpt lat="52.02697" lon="-2.038271667"><ele>65.000000</ele><time>2010-08-04T10:11:27Z</time></trkpt>
	<trkpt lat="52.02701833" lon="-2.038285"><ele>65.000000</ele><time>2010-08-04T10:11:32Z</time></trkpt>
	<trkpt lat="52.02706167" lon="-2.038283333"><ele>66.000000</ele><time>2010-08-04T10:11:37Z</time></trkpt>
	<trkpt lat="52.02710833" lon="-2.038286667"><ele>67.000000</ele><time>2010-08-04T10:11:42Z</time></trkpt>
	<trkpt lat="52.02715833" lon="-2.03831"><ele>67.000000</ele><time>2010-08-04T10:11:47Z</time></trkpt>
	<trkpt lat="52.027205" lon="-2.038316667"><ele>67.000000</ele><time>2010-08-04T10:11:52Z</time></trkpt>
	<trkpt lat="52.02725167" lon="-2.038318333"><ele>67.000000</ele><time>2010-08-04T10:11:57Z</time></trkpt>
	<trkpt lat="52.02729833" lon="-2.038346667"><ele>66.000000</ele><time>2010-08-04T10:12:02Z</time></trkpt>
	<trkpt lat="52.02734833" lon="-2.038365"><ele>65.000000</ele><time>2010-08-04T10:12:07Z</time></trkpt>
	<trkpt lat="52.0274" lon="-2.038376667"><ele>65.000000</ele><time>2010-08-04T10:12:12Z</time></trkpt>
	<trkpt lat="52.02745333" lon="-2.038388333"><ele>66.000000</ele><time>2010-08-04T10:12:17Z</time></trkpt>
	<trkpt lat="52.0275" lon="-2.038405"><ele>67.000000</ele><time>2010-08-04T10:12:22Z</time></trkpt>
	<trkpt lat="52.02755167" lon="-2.038415"><ele>67.000000</ele><time>2010-08-04T10:12:27Z</time></trkpt>
	<trkpt lat="52.02760667" lon="-2.038416667"><ele>67.000000</ele><time>2010-08-04T10:12:32Z</time></trkpt>
	<trkpt lat="52.02766" lon="-2.038421667"><ele>68.000000</ele><time>2010-08-04T10:12:37Z</time></trkpt>
	<trkpt lat="52.02770833" lon="-2.038426667"><ele>68.000000</ele><time>2010-08-04T10:12:42Z</time></trkpt>
	<trkpt lat="52.02775833" lon="-2.038433333"><ele>69.000000</ele><time>2010-08-04T10:12:47Z</time></trkpt>
	<trkpt lat="52.027805" lon="-2.038436667"><ele>70.000000</ele><time>2010-08-04T10:12:52Z</time></trkpt>
	<trkpt lat="52.02782833" lon="-2.038428333"><ele>71.000000</ele><time>2010-08-04T10:12:57Z</time></trkpt>
	<trkpt lat="52.027835" lon="-2.038421667"><ele>71.000000</ele><time>2010-08-04T10:13:02Z</time></trkpt>
	<trkpt lat="52.027835" lon="-2.03842"><ele>71.000000</ele><time>2010-08-04T10:13:07Z</time></trkpt>
	<trkpt lat="52.02785" lon="-2.038433333"><ele>71.000000</ele><time>2010-08-04T10:13:12Z</time></trkpt>
	<trkpt lat="52.0279" lon="-2.03844"><ele>71.000000</ele><time>2010-08-04T10:13:17Z</time></trkpt>
	<trkpt lat="52.02791" lon="-2.038441667"><ele>71.000000</ele><time>2010-08-04T10:13:22Z</time></trkpt>
	<trkpt lat="52.027915" lon="-2.038443333"><ele>71.000000</ele><time>2010-08-04T10:13:27Z</time></trkpt>
	<trkpt lat="52.02791833" lon="-2.038443333"><ele>71.000000</ele><time>2010-08-04T10:13:32Z</time></trkpt>
	<trkpt lat="52.02792167" lon="-2.038441667"><ele>70.000000</ele><time>2010-08-04T10:13:37Z</time></trkpt>
	<trkpt lat="52.027925" lon="-2.038441667"><ele>70.000000</ele><time>2010-08-04T10:13:42Z</time></trkpt>
	<trkpt lat="52.027945" lon="-2.038431667"><ele>70.000000</ele><time>2010-08-04T10:13:47Z</time></trkpt>
	<trkpt lat="52.02796667" lon="-2.038391667"><ele>71.000000</ele><time>2010-08-04T10:13:52Z</time></trkpt>
	<trkpt lat="52.02797667" lon="-2.038328333"><ele>72.000000</ele><time>2010-08-04T10:13:57Z</time></trkpt>
	<trkpt lat="52.027985" lon="-2.03826"><ele>73.000000</ele><time>2010-08-04T10:14:02Z</time></trkpt>
	<trkpt lat="52.028" lon="-2.038188333"><ele>73.000000</ele><time>2010-08-04T10:14:07Z</time></trkpt>
	<trkpt lat="52.02802167" lon="-2.038115"><ele>73.000000</ele><time>2010-08-04T10:14:12Z</time></trkpt>
	<trkpt lat="52.02804333" lon="-2.038035"><ele>73.000000</ele><time>2010-08-04T10:14:17Z</time></trkpt>
	<trkpt lat="52.02806" lon="-2.037961667"><ele>73.000000</ele><time>2010-08-04T10:14:22Z</time></trkpt>
	<trkpt lat="52.02808" lon="-2.03789"><ele>73.000000</ele><time>2010-08-04T10:14:27Z</time></trkpt>
	<trkpt lat="52.028095" lon="-2.037816667"><ele>72.000000</ele><time>2010-08-04T10:14:32Z</time></trkpt>
	<trkpt lat="52.028105" lon="-2.037746667"><ele>72.000000</ele><time>2010-08-04T10:14:37Z</time></trkpt>
	<trkpt lat="52.02812333" lon="-2.037671667"><ele>72.000000</ele><time>2010-08-04T10:14:42Z</time></trkpt>
	<trkpt lat="52.02813833" lon="-2.037595"><ele>73.000000</ele><time>2010-08-04T10:14:47Z</time></trkpt>
	<trkpt lat="52.02815333" lon="-2.037513333"><ele>73.000000</ele><time>2010-08-04T10:14:52Z</time></trkpt>
	<trkpt lat="52.02816833" lon="-2.037441667"><ele>73.000000</ele><time>2010-08-04T10:14:57Z</time></trkpt>
	<trkpt lat="52.02818667" lon="-2.037368333"><ele>72.000000</ele><time>2010-08-04T10:15:02Z</time></trkpt>
	<trkpt lat="52.02819833" lon="-2.037285"><ele>72.000000</ele><time>2010-08-04T10:15:07Z</time></trkpt>
	<trkpt lat="52.02821" lon="-2.0372"><ele>71.000000</ele><time>2010-08-04T10:15:12Z</time></trkpt>
	<trkpt lat="52.028225" lon="-2.03711"><ele>70.000000</ele><time>2010-08-04T10:15:17Z</time></trkpt>
	<trkpt lat="52.02824" lon="-2.037031667"><ele>70.000000</ele><time>2010-08-04T10:15:22Z</time></trkpt>
	<trkpt lat="52.02824667" lon="-2.036963333"><ele>69.000000</ele><time>2010-08-04T10:15:27Z</time></trkpt>
	<trkpt lat="52.02825167" lon="-2.036896667"><ele>69.000000</ele><time>2010-08-04T10:15:32Z</time></trkpt>
	<trkpt lat="52.02826333" lon="-2.036815"><ele>69.000000</ele><time>2010-08-04T10:15:37Z</time></trkpt>
	<trkpt lat="52.02828167" lon="-2.03674"><ele>69.000000</ele><time>2010-08-04T10:15:42Z</time></trkpt>
	<trkpt lat="52.0283" lon="-2.036658333"><ele>69.000000</ele><time>2010-08-04T10:15:47Z</time></trkpt>
	<trkpt lat="52.028315" lon="-2.036578333"><ele>70.000000</ele><time>2010-08-04T10:15:52Z</time></trkpt>
	<trkpt lat="52.02834167" lon="-2.036505"><ele>70.000000</ele><time>2010-08-04T10:15:57Z</time></trkpt>
	<trkpt lat="52.02837333" lon="-2.036441667"><ele>70.000000</ele><time>2010-08-04T10:16:02Z</time></trkpt>
	<trkpt lat="52.02841833" lon="-2.036413333"><ele>70.000000</ele><time>2010-08-04T10:16:07Z</time></trkpt>
	<trkpt lat="52.02844667" lon="-2.036393333"><ele>70.000000</ele><time>2010-08-04T10:16:12Z</time></trkpt>
	<trkpt lat="52.02848667" lon="-2.036383333"><ele>71.000000</ele><time>2010-08-04T10:16:17Z</time></trkpt>
	<trkpt lat="52.028535" lon="-2.036373333"><ele>72.000000</ele><time>2010-08-04T10:16:22Z</time></trkpt>
	<trkpt lat="52.02858167" lon="-2.03637"><ele>73.000000</ele><time>2010-08-04T10:16:27Z</time></trkpt>
	<trkpt lat="52.02862667" lon="-2.036363333"><ele>73.000000</ele><time>2010-08-04T10:16:32Z</time></trkpt>
	<trkpt lat="52.028675" lon="-2.03635"><ele>73.000000</ele><time>2010-08-04T10:16:37Z</time></trkpt>
	<trkpt lat="52.028725" lon="-2.036345"><ele>74.000000</ele><time>2010-08-04T10:16:42Z</time></trkpt>
	<trkpt lat="52.02877167" lon="-2.036326667"><ele>74.000000</ele><time>2010-08-04T10:16:47Z</time></trkpt>
	<trkpt lat="52.02880167" lon="-2.036281667"><ele>75.000000</ele><time>2010-08-04T10:16:52Z</time></trkpt>
	<trkpt lat="52.028835" lon="-2.036228333"><ele>75.000000</ele><time>2010-08-04T10:16:57Z</time></trkpt>
	<trkpt lat="52.028865" lon="-2.036161667"><ele>76.000000</ele><time>2010-08-04T10:17:02Z</time></trkpt>
	<trkpt lat="52.02889667" lon="-2.036093333"><ele>76.000000</ele><time>2010-08-04T10:17:07Z</time></trkpt>
	<trkpt lat="52.02892833" lon="-2.036021667"><ele>77.000000</ele><time>2010-08-04T10:17:12Z</time></trkpt>
	<trkpt lat="52.02896167" lon="-2.035958333"><ele>77.000000</ele><time>2010-08-04T10:17:17Z</time></trkpt>
	<trkpt lat="52.029005" lon="-2.03588"><ele>76.000000</ele><time>2010-08-04T10:17:22Z</time></trkpt>
	<trkpt lat="52.02903667" lon="-2.035818333"><ele>75.000000</ele><time>2010-08-04T10:17:27Z</time></trkpt>
	<trkpt lat="52.029055" lon="-2.035773333"><ele>75.000000</ele><time>2010-08-04T10:17:32Z</time></trkpt>
	<trkpt lat="52.02908667" lon="-2.035716667"><ele>75.000000</ele><time>2010-08-04T10:17:37Z</time></trkpt>
	<trkpt lat="52.02911667" lon="-2.035656667"><ele>76.000000</ele><time>2010-08-04T10:17:42Z</time></trkpt>
	<trkpt lat="52.02914667" lon="-2.035588333"><ele>76.000000</ele><time>2010-08-04T10:17:47Z</time></trkpt>
	<trkpt lat="52.02917667" lon="-2.035533333"><ele>76.000000</ele><time>2010-08-04T10:17:52Z</time></trkpt>
	<trkpt lat="52.02920667" lon="-2.03547"><ele>77.000000</ele><time>2010-08-04T10:17:57Z</time></trkpt>
	<trkpt lat="52.02924667" lon="-2.035398333"><ele>77.000000</ele><time>2010-08-04T10:18:02Z</time></trkpt>
	<trkpt lat="52.029285" lon="-2.035328333"><ele>78.000000</ele><time>2010-08-04T10:18:07Z</time></trkpt>
	<trkpt lat="52.02932167" lon="-2.035263333"><ele>78.000000</ele><time>2010-08-04T10:18:12Z</time></trkpt>
	<trkpt lat="52.029355" lon="-2.035195"><ele>79.000000</ele><time>2010-08-04T10:18:17Z</time></trkpt>
	<trkpt lat="52.02938667" lon="-2.035133333"><ele>79.000000</ele><time>2010-08-04T10:18:22Z</time></trkpt>
	<trkpt lat="52.02941667" lon="-2.035073333"><ele>79.000000</ele><time>2010-08-04T10:18:27Z</time></trkpt>
	<trkpt lat="52.02944667" lon="-2.035013333"><ele>80.000000</ele><time>2010-08-04T10:18:32Z</time></trkpt>
	<trkpt lat="52.02948167" lon="-2.034951667"><ele>80.000000</ele><time>2010-08-04T10:18:37Z</time></trkpt>
	<trkpt lat="52.02951667" lon="-2.034891667"><ele>80.000000</ele><time>2010-08-04T10:18:42Z</time></trkpt>
	<trkpt lat="52.02955" lon="-2.034828333"><ele>81.000000</ele><time>2010-08-04T10:18:47Z</time></trkpt>
	<trkpt lat="52.02958333" lon="-2.034763333"><ele>81.000000</ele><time>2010-08-04T10:18:52Z</time></trkpt>
	<trkpt lat="52.02961167" lon="-2.0347"><ele>82.000000</ele><time>2010-08-04T10:18:57Z</time></trkpt>
	<trkpt lat="52.02963833" lon="-2.03466"><ele>82.000000</ele><time>2010-08-04T10:19:02Z</time></trkpt>
	<trkpt lat="52.02967167" lon="-2.034585"><ele>82.000000</ele><time>2010-08-04T10:19:07Z</time></trkpt>
	<trkpt lat="52.02970833" lon="-2.034516667"><ele>82.000000</ele><time>2010-08-04T10:19:12Z</time></trkpt>
	<trkpt lat="52.029745" lon="-2.034448333"><ele>83.000000</ele><time>2010-08-04T10:19:17Z</time></trkpt>
	<trkpt lat="52.02978" lon="-2.034385"><ele>83.000000</ele><time>2010-08-04T10:19:22Z</time></trkpt>
	<trkpt lat="52.02981667" lon="-2.034336667"><ele>84.000000</ele><time>2010-08-04T10:19:27Z</time></trkpt>
	<trkpt lat="52.02985833" lon="-2.034313333"><ele>84.000000</ele><time>2010-08-04T10:19:32Z</time></trkpt>
	<trkpt lat="52.02991" lon="-2.034291667"><ele>85.000000</ele><time>2010-08-04T10:19:37Z</time></trkpt>
	<trkpt lat="52.029955" lon="-2.034281667"><ele>87.000000</ele><time>2010-08-04T10:19:42Z</time></trkpt>
	<trkpt lat="52.02999333" lon="-2.034275"><ele>88.000000</ele><time>2010-08-04T10:19:47Z</time></trkpt>
	<trkpt lat="52.03002667" lon="-2.034263333"><ele>88.000000</ele><time>2010-08-04T10:19:52Z</time></trkpt>
	<trkpt lat="52.03006333" lon="-2.034241667"><ele>89.000000</ele><time>2010-08-04T10:19:57Z</time></trkpt>
	<trkpt lat="52.03009833" lon="-2.034213333"><ele>89.000000</ele><time>2010-08-04T10:20:02Z</time></trkpt>
	<trkpt lat="52.03014333" lon="-2.034188333"><ele>89.000000</ele><time>2010-08-04T10:20:07Z</time></trkpt>
	<trkpt lat="52.03018833" lon="-2.034153333"><ele>89.000000</ele><time>2010-08-04T10:20:12Z</time></trkpt>
	<trkpt lat="52.03023333" lon="-2.034125"><ele>90.000000</ele><time>2010-08-04T10:20:17Z</time></trkpt>
	<trkpt lat="52.03028167" lon="-2.034101667"><ele>90.000000</ele><time>2010-08-04T10:20:22Z</time></trkpt>
	<trkpt lat="52.03032667" lon="-2.034078333"><ele>91.000000</ele><time>2010-08-04T10:20:27Z</time></trkpt>
	<trkpt lat="52.03037833" lon="-2.034031667"><ele>90.000000</ele><time>2010-08-04T10:20:32Z</time></trkpt>
	<trkpt lat="52.03042" lon="-2.033995"><ele>90.000000</ele><time>2010-08-04T10:20:37Z</time></trkpt>
	<trkpt lat="52.03046833" lon="-2.033973333"><ele>90.000000</ele><time>2010-08-04T10:20:42Z</time></trkpt>
	<trkpt lat="52.030515" lon="-2.033938333"><ele>90.000000</ele><time>2010-08-04T10:20:47Z</time></trkpt>
	<trkpt lat="52.03056" lon="-2.033908333"><ele>90.000000</ele><time>2010-08-04T10:20:52Z</time></trkpt>
	<trkpt lat="52.030605" lon="-2.033876667"><ele>90.000000</ele><time>2010-08-04T10:20:57Z</time></trkpt>
	<trkpt lat="52.03064833" lon="-2.033848333"><ele>90.000000</ele><time>2010-08-04T10:21:02Z</time></trkpt>
	<trkpt lat="52.03069" lon="-2.03382"><ele>91.000000</ele><time>2010-08-04T10:21:07Z</time></trkpt>
	<trkpt lat="52.03073333" lon="-2.033796667"><ele>91.000000</ele><time>2010-08-04T10:21:12Z</time></trkpt>
	<trkpt lat="52.03077333" lon="-2.033766667"><ele>91.000000</ele><time>2010-08-04T10:21:17Z</time></trkpt>
	<trkpt lat="52.03081" lon="-2.033736667"><ele>91.000000</ele><time>2010-08-04T10:21:22Z</time></trkpt>
	<trkpt lat="52.03084333" lon="-2.03371"><ele>91.000000</ele><time>2010-08-04T10:21:27Z</time></trkpt>
	<trkpt lat="52.03084833" lon="-2.033696667"><ele>91.000000</ele><time>2010-08-04T10:21:32Z</time></trkpt>
	<trkpt lat="52.03085" lon="-2.033686667"><ele>90.000000</ele><time>2010-08-04T10:21:37Z</time></trkpt>
	<trkpt lat="52.03086667" lon="-2.03368"><ele>90.000000</ele><time>2010-08-04T10:21:42Z</time></trkpt>
	<trkpt lat="52.030915" lon="-2.033645"><ele>90.000000</ele><time>2010-08-04T10:21:47Z</time></trkpt>
	<trkpt lat="52.03096833" lon="-2.033608333"><ele>90.000000</ele><time>2010-08-04T10:21:52Z</time></trkpt>
	<trkpt lat="52.03102" lon="-2.033571667"><ele>90.000000</ele><time>2010-08-04T10:21:57Z</time></trkpt>
	<trkpt lat="52.031075" lon="-2.03354"><ele>91.000000</ele><time>2010-08-04T10:22:02Z</time></trkpt>
	<trkpt lat="52.03113" lon="-2.033505"><ele>91.000000</ele><time>2010-08-04T10:22:07Z</time></trkpt>
	<trkpt lat="52.031185" lon="-2.033475"><ele>91.000000</ele><time>2010-08-04T10:22:12Z</time></trkpt>
	<trkpt lat="52.03124" lon="-2.033443333"><ele>92.000000</ele><time>2010-08-04T10:22:17Z</time></trkpt>
	<trkpt lat="52.03129333" lon="-2.033425"><ele>92.000000</ele><time>2010-08-04T10:22:22Z</time></trkpt>
	<trkpt lat="52.031345" lon="-2.033395"><ele>93.000000</ele><time>2010-08-04T10:22:27Z</time></trkpt>
	<trkpt lat="52.03139167" lon="-2.033366667"><ele>93.000000</ele><time>2010-08-04T10:22:32Z</time></trkpt>
	<trkpt lat="52.03143667" lon="-2.033335"><ele>93.000000</ele><time>2010-08-04T10:22:37Z</time></trkpt>
	<trkpt lat="52.03147833" lon="-2.03331"><ele>94.000000</ele><time>2010-08-04T10:22:42Z</time></trkpt>
	<trkpt lat="52.03152167" lon="-2.033275"><ele>95.000000</ele><time>2010-08-04T10:22:47Z</time></trkpt>
	<trkpt lat="52.031565" lon="-2.033245"><ele>95.000000</ele><time>2010-08-04T10:22:52Z</time></trkpt>
	<trkpt lat="52.031605" lon="-2.033216667"><ele>95.000000</ele><time>2010-08-04T10:22:57Z</time></trkpt>
	<trkpt lat="52.03164667" lon="-2.033185"><ele>96.000000</ele><time>2010-08-04T10:23:02Z</time></trkpt>
	<trkpt lat="52.03169" lon="-2.033156667"><ele>96.000000</ele><time>2010-08-04T10:23:07Z</time></trkpt>
	<trkpt lat="52.03173333" lon="-2.033125"><ele>96.000000</ele><time>2010-08-04T10:23:12Z</time></trkpt>
	<trkpt lat="52.03177667" lon="-2.033096667"><ele>97.000000</ele><time>2010-08-04T10:23:17Z</time></trkpt>
	<trkpt lat="52.03182" lon="-2.033066667"><ele>97.000000</ele><time>2010-08-04T10:23:22Z</time></trkpt>
	<trkpt lat="52.031865" lon="-2.033038333"><ele>97.000000</ele><time>2010-08-04T10:23:27Z</time></trkpt>
	<trkpt lat="52.03191167" lon="-2.033018333"><ele>98.000000</ele><time>2010-08-04T10:23:32Z</time></trkpt>
	<trkpt lat="52.03195167" lon="-2.032991667"><ele>98.000000</ele><time>2010-08-04T10:23:37Z</time></trkpt>
	<trkpt lat="52.031995" lon="-2.032976667"><ele>98.000000</ele><time>2010-08-04T10:23:42Z</time></trkpt>
	<trkpt lat="52.03203667" lon="-2.032946667"><ele>99.000000</ele><time>2010-08-04T10:23:47Z</time></trkpt>
	<trkpt lat="52.03208167" lon="-2.032916667"><ele>99.000000</ele><time>2010-08-04T10:23:52Z</time></trkpt>
	<trkpt lat="52.03212167" lon="-2.032878333"><ele>99.000000</ele><time>2010-08-04T10:23:57Z</time></trkpt>
	<trkpt lat="52.03216667" lon="-2.03285"><ele>100.000000</ele><time>2010-08-04T10:24:02Z</time></trkpt>
	<trkpt lat="52.03221" lon="-2.03282"><ele>100.000000</ele><time>2010-08-04T10:24:07Z</time></trkpt>
	<trkpt lat="52.03225667" lon="-2.03279"><ele>100.000000</ele><time>2010-08-04T10:24:12Z</time></trkpt>
	<trkpt lat="52.03229833" lon="-2.032766667"><ele>101.000000</ele><time>2010-08-04T10:24:17Z</time></trkpt>
	<trkpt lat="52.03232167" lon="-2.032755"><ele>101.000000</ele><time>2010-08-04T10:24:22Z</time></trkpt>
	<trkpt lat="52.03232833" lon="-2.032721667"><ele>101.000000</ele><time>2010-08-04T10:24:27Z</time></trkpt>
	<trkpt lat="52.03232167" lon="-2.032721667"><ele>102.000000</ele><time>2010-08-04T10:24:32Z</time></trkpt>
	<trkpt lat="52.03231167" lon="-2.032721667"><ele>101.000000</ele><time>2010-08-04T10:24:37Z</time></trkpt>
	<trkpt lat="52.0323" lon="-2.032703333"><ele>101.000000</ele><time>2010-08-04T10:24:42Z</time></trkpt>
	<trkpt lat="52.03229167" lon="-2.032695"><ele>101.000000</ele><time>2010-08-04T10:24:47Z</time></trkpt>
	<trkpt lat="52.03229" lon="-2.032695"><ele>100.000000</ele><time>2010-08-04T10:24:52Z</time></trkpt>
	<trkpt lat="52.03228667" lon="-2.032696667"><ele>100.000000</ele><time>2010-08-04T10:24:57Z</time></trkpt>
	<trkpt lat="52.032285" lon="-2.032696667"><ele>100.000000</ele><time>2010-08-04T10:25:02Z</time></trkpt>
	<trkpt lat="52.032285" lon="-2.032698333"><ele>100.000000</ele><time>2010-08-04T10:25:07Z</time></trkpt>
	<trkpt lat="52.03228333" lon="-2.032698333"><ele>99.000000</ele><time>2010-08-04T10:25:12Z</time></trkpt>
	<trkpt lat="52.03228167" lon="-2.032698333"><ele>99.000000</ele><time>2010-08-04T10:25:17Z</time></trkpt>
	<trkpt lat="52.03228" lon="-2.032701667"><ele>99.000000</ele><time>2010-08-04T10:25:22Z</time></trkpt>
	<trkpt lat="52.03228" lon="-2.0327"><ele>99.000000</ele><time>2010-08-04T10:25:27Z</time></trkpt>
	<trkpt lat="52.03228167" lon="-2.032696667"><ele>99.000000</ele><time>2010-08-04T10:25:32Z</time></trkpt>
	<trkpt lat="52.032285" lon="-2.032693333"><ele>98.000000</ele><time>2010-08-04T10:25:37Z</time></trkpt>
	<trkpt lat="52.03228667" lon="-2.032693333"><ele>98.000000</ele><time>2010-08-04T10:25:42Z</time></trkpt>
	<trkpt lat="52.03229667" lon="-2.032655"><ele>99.000000</ele><time>2010-08-04T10:25:47Z</time></trkpt>
	<trkpt lat="52.0323" lon="-2.032651667"><ele>99.000000</ele><time>2010-08-04T10:25:52Z</time></trkpt>
	<trkpt lat="52.0323" lon="-2.03265"><ele>99.000000</ele><time>2010-08-04T10:25:57Z</time></trkpt>
	<trkpt lat="52.03230167" lon="-2.032655"><ele>100.000000</ele><time>2010-08-04T10:26:02Z</time></trkpt>
	<trkpt lat="52.03229833" lon="-2.032658333"><ele>100.000000</ele><time>2010-08-04T10:26:07Z</time></trkpt>
	<trkpt lat="52.03229833" lon="-2.032655"><ele>100.000000</ele><time>2010-08-04T10:26:12Z</time></trkpt>
	<trkpt lat="52.03229667" lon="-2.032658333"><ele>100.000000</ele><time>2010-08-04T10:26:17Z</time></trkpt>
	<trkpt lat="52.032295" lon="-2.032655"><ele>100.000000</ele><time>2010-08-04T10:26:22Z</time></trkpt>
	<trkpt lat="52.03228667" lon="-2.032653333"><ele>100.000000</ele><time>2010-08-04T10:26:27Z</time></trkpt>
	<trkpt lat="52.03228667" lon="-2.032651667"><ele>100.000000</ele><time>2010-08-04T10:26:32Z</time></trkpt>
	<trkpt lat="52.03228667" lon="-2.03265"><ele>100.000000</ele><time>2010-08-04T10:26:37Z</time></trkpt>
	<trkpt lat="52.03228667" lon="-2.032648333"><ele>99.000000</ele><time>2010-08-04T10:26:42Z</time></trkpt>
	<trkpt lat="52.03229167" lon="-2.032648333"><ele>100.000000</ele><time>2010-08-04T10:26:47Z</time></trkpt>
	<trkpt lat="52.032295" lon="-2.032646667"><ele>100.000000</ele><time>2010-08-04T10:26:52Z</time></trkpt>
	<trkpt lat="52.0323" lon="-2.032635"><ele>100.000000</ele><time>2010-08-04T10:26:57Z</time></trkpt>
	<trkpt lat="52.03230167" lon="-2.03263"><ele>101.000000</ele><time>2010-08-04T10:27:02Z</time></trkpt>
	<trkpt lat="52.032305" lon="-2.03263"><ele>101.000000</ele><time>2010-08-04T10:27:07Z</time></trkpt>
	<trkpt lat="52.03230833" lon="-2.03263"><ele>100.000000</ele><time>2010-08-04T10:27:12Z</time></trkpt>
	<trkpt lat="52.03234" lon="-2.03258"><ele>101.000000</ele><time>2010-08-04T10:27:17Z</time></trkpt>
	<trkpt lat="52.03234667" lon="-2.032531667"><ele>101.000000</ele><time>2010-08-04T10:27:22Z</time></trkpt>
	<trkpt lat="52.03234" lon="-2.032455"><ele>101.000000</ele><time>2010-08-04T10:27:27Z</time></trkpt>
	<trkpt lat="52.03233667" lon="-2.032383333"><ele>101.000000</ele><time>2010-08-04T10:27:32Z</time></trkpt>
	<trkpt lat="52.03233833" lon="-2.032305"><ele>101.000000</ele><time>2010-08-04T10:27:37Z</time></trkpt>
	<trkpt lat="52.03234667" lon="-2.032225"><ele>101.000000</ele><time>2010-08-04T10:27:42Z</time></trkpt>
	<trkpt lat="52.03234667" lon="-2.032146667"><ele>100.000000</ele><time>2010-08-04T10:27:47Z</time></trkpt>
	<trkpt lat="52.03234167" lon="-2.032066667"><ele>100.000000</ele><time>2010-08-04T10:27:52Z</time></trkpt>
	<trkpt lat="52.03233" lon="-2.031981667"><ele>99.000000</ele><time>2010-08-04T10:27:57Z</time></trkpt>
	<trkpt lat="52.03231667" lon="-2.031898333"><ele>98.000000</ele><time>2010-08-04T10:28:02Z</time></trkpt>
	<trkpt lat="52.03232" lon="-2.031863333"><ele>98.000000</ele><time>2010-08-04T10:28:07Z</time></trkpt>
	<trkpt lat="52.03232333" lon="-2.031773333"><ele>97.000000</ele><time>2010-08-04T10:28:12Z</time></trkpt>
	<trkpt lat="52.03232167" lon="-2.031683333"><ele>96.000000</ele><time>2010-08-04T10:28:17Z</time></trkpt>
	<trkpt lat="52.03231667" lon="-2.031596667"><ele>95.000000</ele><time>2010-08-04T10:28:22Z</time></trkpt>
	<trkpt lat="52.03231333" lon="-2.031508333"><ele>95.000000</ele><time>2010-08-04T10:28:27Z</time></trkpt>
	<trkpt lat="52.03230833" lon="-2.03142"><ele>94.000000</ele><time>2010-08-04T10:28:32Z</time></trkpt>
	<trkpt lat="52.032315" lon="-2.031325"><ele>93.000000</ele><time>2010-08-04T10:28:37Z</time></trkpt>
	<trkpt lat="52.03232333" lon="-2.031233333"><ele>92.000000</ele><time>2010-08-04T10:28:42Z</time></trkpt>
	<trkpt lat="52.03233167" lon="-2.031141667"><ele>91.000000</ele><time>2010-08-04T10:28:47Z</time></trkpt>
	<trkpt lat="52.03234667" lon="-2.031055"><ele>92.000000</ele><time>2010-08-04T10:28:52Z</time></trkpt>
	<trkpt lat="52.03236167" lon="-2.03097"><ele>91.000000</ele><time>2010-08-04T10:28:57Z</time></trkpt>
	<trkpt lat="52.03237667" lon="-2.030891667"><ele>92.000000</ele><time>2010-08-04T10:29:02Z</time></trkpt>
	<trkpt lat="52.03239167" lon="-2.030813333"><ele>92.000000</ele><time>2010-08-04T10:29:07Z</time></trkpt>
	<trkpt lat="52.032385" lon="-2.03074"><ele>92.000000</ele><time>2010-08-04T10:29:12Z</time></trkpt>
	<trkpt lat="52.03237167" lon="-2.030653333"><ele>91.000000</ele><time>2010-08-04T10:29:17Z</time></trkpt>
	<trkpt lat="52.032365" lon="-2.030571667"><ele>90.000000</ele><time>2010-08-04T10:29:22Z</time></trkpt>
	<trkpt lat="52.03234333" lon="-2.030495"><ele>90.000000</ele><time>2010-08-04T10:29:27Z</time></trkpt>
	<trkpt lat="52.03232833" lon="-2.030411667"><ele>89.000000</ele><time>2010-08-04T10:29:32Z</time></trkpt>
	<trkpt lat="52.03231333" lon="-2.030333333"><ele>89.000000</ele><time>2010-08-04T10:29:37Z</time></trkpt>
	<trkpt lat="52.0323" lon="-2.030261667"><ele>88.000000</ele><time>2010-08-04T10:29:42Z</time></trkpt>
	<trkpt lat="52.03229333" lon="-2.030208333"><ele>88.000000</ele><time>2010-08-04T10:29:47Z</time></trkpt>
	<trkpt lat="52.03230167" lon="-2.030166667"><ele>87.000000</ele><time>2010-08-04T10:29:52Z</time></trkpt>
	<trkpt lat="52.03230667" lon="-2.030111667"><ele>87.000000</ele><time>2010-08-04T10:29:57Z</time></trkpt>
	<trkpt lat="52.03230167" lon="-2.030046667"><ele>87.000000</ele><time>2010-08-04T10:30:02Z</time></trkpt>
	<trkpt lat="52.03228333" lon="-2.029981667"><ele>86.000000</ele><time>2010-08-04T10:30:07Z</time></trkpt>
	<trkpt lat="52.032255" lon="-2.029915"><ele>86.000000</ele><time>2010-08-04T10:30:12Z</time></trkpt>
	<trkpt lat="52.032225" lon="-2.029853333"><ele>85.000000</ele><time>2010-08-04T10:30:17Z</time></trkpt>
	<trkpt lat="52.032205" lon="-2.029783333"><ele>84.000000</ele><time>2010-08-04T10:30:22Z</time></trkpt>
	<trkpt lat="52.03217667" lon="-2.029713333"><ele>83.000000</ele><time>2010-08-04T10:30:27Z</time></trkpt>
	<trkpt lat="52.03215167" lon="-2.02964"><ele>82.000000</ele><time>2010-08-04T10:30:32Z</time></trkpt>
	<trkpt lat="52.03211833" lon="-2.029555"><ele>81.000000</ele><time>2010-08-04T10:30:37Z</time></trkpt>
	<trkpt lat="52.03208" lon="-2.029483333"><ele>80.000000</ele><time>2010-08-04T10:30:42Z</time></trkpt>
	<trkpt lat="52.03205833" lon="-2.029438333"><ele>80.000000</ele><time>2010-08-04T10:30:47Z</time></trkpt>
	<trkpt lat="52.03205333" lon="-2.029406667"><ele>79.000000</ele><time>2010-08-04T10:30:52Z</time></trkpt>
	<trkpt lat="52.03208833" lon="-2.029365"><ele>79.000000</ele><time>2010-08-04T10:30:57Z</time></trkpt>
	<trkpt lat="52.03213667" lon="-2.029313333"><ele>79.000000</ele><time>2010-08-04T10:31:02Z</time></trkpt>
	<trkpt lat="52.03218" lon="-2.029258333"><ele>80.000000</ele><time>2010-08-04T10:31:07Z</time></trkpt>
	<trkpt lat="52.03221" lon="-2.02921"><ele>80.000000</ele><time>2010-08-04T10:31:12Z</time></trkpt>
	<trkpt lat="52.03221167" lon="-2.029211667"><ele>80.000000</ele><time>2010-08-04T10:31:17Z</time></trkpt>
	<trkpt lat="52.032215" lon="-2.029201667"><ele>80.000000</ele><time>2010-08-04T10:31:22Z</time></trkpt>
	<trkpt lat="52.03225167" lon="-2.029176667"><ele>81.000000</ele><time>2010-08-04T10:31:27Z</time></trkpt>
	<trkpt lat="52.03228667" lon="-2.02919"><ele>82.000000</ele><time>2010-08-04T10:31:32Z</time></trkpt>
	<trkpt lat="52.03228667" lon="-2.029186667"><ele>82.000000</ele><time>2010-08-04T10:31:37Z</time></trkpt>
	<trkpt lat="52.03228667" lon="-2.029186667"><ele>82.000000</ele><time>2010-08-04T10:31:42Z</time></trkpt>
	<trkpt lat="52.03228" lon="-2.029181667"><ele>83.000000</ele><time>2010-08-04T10:31:47Z</time></trkpt>
	<trkpt lat="52.03224167" lon="-2.0292"><ele>82.000000</ele><time>2010-08-04T10:31:52Z</time></trkpt>
	<trkpt lat="52.03220167" lon="-2.02921"><ele>81.000000</ele><time>2010-08-04T10:31:57Z</time></trkpt>
	<trkpt lat="52.032195" lon="-2.02921"><ele>81.000000</ele><time>2010-08-04T10:32:02Z</time></trkpt>
	<trkpt lat="52.03219167" lon="-2.029213333"><ele>81.000000</ele><time>2010-08-04T10:32:07Z</time></trkpt>
	<trkpt lat="52.03219167" lon="-2.029215"><ele>81.000000</ele><time>2010-08-04T10:32:12Z</time></trkpt>
	<trkpt lat="52.03219167" lon="-2.029215"><ele>81.000000</ele><time>2010-08-04T10:32:17Z</time></trkpt>
	<trkpt lat="52.03219" lon="-2.02922"><ele>81.000000</ele><time>2010-08-04T10:32:22Z</time></trkpt>
	<trkpt lat="52.03215167" lon="-2.02923"><ele>80.000000</ele><time>2010-08-04T10:32:27Z</time></trkpt>
	<trkpt lat="52.032115" lon="-2.029213333"><ele>80.000000</ele><time>2010-08-04T10:32:32Z</time></trkpt>
	<trkpt lat="52.03210667" lon="-2.029215"><ele>79.000000</ele><time>2010-08-04T10:32:37Z</time></trkpt>
	<trkpt lat="52.03209833" lon="-2.029235"><ele>79.000000</ele><time>2010-08-04T10:32:42Z</time></trkpt>
	<trkpt lat="52.03207667" lon="-2.029278333"><ele>80.000000</ele><time>2010-08-04T10:32:47Z</time></trkpt>
	<trkpt lat="52.03205" lon="-2.02929"><ele>80.000000</ele><time>2010-08-04T10:32:52Z</time></trkpt>
	<trkpt lat="52.03204667" lon="-2.02929"><ele>80.000000</ele><time>2010-08-04T10:32:57Z</time></trkpt>
	<trkpt lat="52.03203" lon="-2.029315"><ele>80.000000</ele><time>2010-08-04T10:33:02Z</time></trkpt>
	<trkpt lat="52.03201667" lon="-2.029336667"><ele>80.000000</ele><time>2010-08-04T10:33:07Z</time></trkpt>
	<trkpt lat="52.03201667" lon="-2.029338333"><ele>80.000000</ele><time>2010-08-04T10:33:12Z</time></trkpt>
	<trkpt lat="52.03201667" lon="-2.029341667"><ele>80.000000</ele><time>2010-08-04T10:33:17Z</time></trkpt>
	<trkpt lat="52.03201667" lon="-2.029341667"><ele>80.000000</ele><time>2010-08-04T10:33:22Z</time></trkpt>
	<trkpt lat="52.03201667" lon="-2.029345"><ele>80.000000</ele><time>2010-08-04T10:33:27Z</time></trkpt>
	<trkpt lat="52.03201667" lon="-2.029346667"><ele>79.000000</ele><time>2010-08-04T10:33:32Z</time></trkpt>
	<trkpt lat="52.03201667" lon="-2.029348333"><ele>79.000000</ele><time>2010-08-04T10:33:37Z</time></trkpt>
	<trkpt lat="52.03201667" lon="-2.029348333"><ele>79.000000</ele><time>2010-08-04T10:33:42Z</time></trkpt>
	<trkpt lat="52.03201667" lon="-2.029346667"><ele>80.000000</ele><time>2010-08-04T10:33:47Z</time></trkpt>
	<trkpt lat="52.03201667" lon="-2.029345"><ele>80.000000</ele><time>2010-08-04T10:33:52Z</time></trkpt>
	<trkpt lat="52.03202167" lon="-2.02935"><ele>80.000000</ele><time>2010-08-04T10:33:57Z</time></trkpt>
	<trkpt lat="52.03202667" lon="-2.029371667"><ele>80.000000</ele><time>2010-08-04T10:34:02Z</time></trkpt>
	<trkpt lat="52.03202667" lon="-2.029371667"><ele>80.000000</ele><time>2010-08-04T10:34:07Z</time></trkpt>
	<trkpt lat="52.03202667" lon="-2.029373333"><ele>80.000000</ele><time>2010-08-04T10:34:12Z</time></trkpt>
	<trkpt lat="52.03202667" lon="-2.029373333"><ele>80.000000</ele><time>2010-08-04T10:34:17Z</time></trkpt>
	<trkpt lat="52.03202667" lon="-2.029373333"><ele>80.000000</ele><time>2010-08-04T10:34:22Z</time></trkpt>
	<trkpt lat="52.032025" lon="-2.029373333"><ele>80.000000</ele><time>2010-08-04T10:34:27Z</time></trkpt>
	<trkpt lat="52.032025" lon="-2.029373333"><ele>81.000000</ele><time>2010-08-04T10:34:32Z</time></trkpt>
	<trkpt lat="52.032025" lon="-2.029373333"><ele>81.000000</ele><time>2010-08-04T10:34:37Z</time></trkpt>
	<trkpt lat="52.032025" lon="-2.029373333"><ele>81.000000</ele><time>2010-08-04T10:34:42Z</time></trkpt>
	<trkpt lat="52.03202833" lon="-2.02938"><ele>81.000000</ele><time>2010-08-04T10:34:47Z</time></trkpt>
	<trkpt lat="52.03203167" lon="-2.029378333"><ele>81.000000</ele><time>2010-08-04T10:34:52Z</time></trkpt>
	<trkpt lat="52.03204333" lon="-2.029318333"><ele>81.000000</ele><time>2010-08-04T10:34:57Z</time></trkpt>
	<trkpt lat="52.03206167" lon="-2.029253333"><ele>80.000000</ele><time>2010-08-04T10:35:02Z</time></trkpt>
	<trkpt lat="52.032075" lon="-2.02918"><ele>80.000000</ele><time>2010-08-04T10:35:07Z</time></trkpt>
	<trkpt lat="52.03209167" lon="-2.029111667"><ele>80.000000</ele><time>2010-08-04T10:35:12Z</time></trkpt>
	<trkpt lat="52.03210167" lon="-2.029041667"><ele>80.000000</ele><time>2010-08-04T10:35:17Z</time></trkpt>
	<trkpt lat="52.03212" lon="-2.028976667"><ele>80.000000</ele><time>2010-08-04T10:35:22Z</time></trkpt>
	<trkpt lat="52.03212667" lon="-2.028925"><ele>80.000000</ele><time>2010-08-04T10:35:27Z</time></trkpt>
	<trkpt lat="52.03212667" lon="-2.028916667"><ele>80.000000</ele><time>2010-08-04T10:35:32Z</time></trkpt>
	<trkpt lat="52.032125" lon="-2.028915"><ele>79.000000</ele><time>2010-08-04T10:35:37Z</time></trkpt>
	<trkpt lat="52.03213667" lon="-2.02888"><ele>79.000000</ele><time>2010-08-04T10:35:42Z</time></trkpt>
	<trkpt lat="52.03215167" lon="-2.028816667"><ele>79.000000</ele><time>2010-08-04T10:35:47Z</time></trkpt>
	<trkpt lat="52.032175" lon="-2.028753333"><ele>79.000000</ele><time>2010-08-04T10:35:52Z</time></trkpt>
	<trkpt lat="52.032195" lon="-2.02869"><ele>79.000000</ele><time>2010-08-04T10:35:57Z</time></trkpt>
	<trkpt lat="52.03221167" lon="-2.028623333"><ele>79.000000</ele><time>2010-08-04T10:36:02Z</time></trkpt>
	<trkpt lat="52.03223333" lon="-2.028563333"><ele>78.000000</ele><time>2010-08-04T10:36:07Z</time></trkpt>
	<trkpt lat="52.03225333" lon="-2.028496667"><ele>78.000000</ele><time>2010-08-04T10:36:12Z</time></trkpt>
	<trkpt lat="52.03227167" lon="-2.028425"><ele>78.000000</ele><time>2010-08-04T10:36:17Z</time></trkpt>
	<trkpt lat="52.03228667" lon="-2.02836"><ele>78.000000</ele><time>2010-08-04T10:36:22Z</time></trkpt>
	<trkpt lat="52.03230167" lon="-2.028311667"><ele>78.000000</ele><time>2010-08-04T10:36:27Z</time></trkpt>
	<trkpt lat="52.03231667" lon="-2.02824"><ele>78.000000</ele><time>2010-08-04T10:36:32Z</time></trkpt>
	<trkpt lat="52.03234333" lon="-2.028171667"><ele>78.000000</ele><time>2010-08-04T10:36:37Z</time></trkpt>
	<trkpt lat="52.032365" lon="-2.028105"><ele>78.000000</ele><time>2010-08-04T10:36:42Z</time></trkpt>
	<trkpt lat="52.032385" lon="-2.028038333"><ele>78.000000</ele><time>2010-08-04T10:36:47Z</time></trkpt>
	<trkpt lat="52.032405" lon="-2.027975"><ele>78.000000</ele><time>2010-08-04T10:36:52Z</time></trkpt>
	<trkpt lat="52.03242167" lon="-2.027915"><ele>78.000000</ele><time>2010-08-04T10:36:57Z</time></trkpt>
	<trkpt lat="52.03244" lon="-2.027846667"><ele>77.000000</ele><time>2010-08-04T10:37:02Z</time></trkpt>
	<trkpt lat="52.03245167" lon="-2.027773333"><ele>77.000000</ele><time>2010-08-04T10:37:07Z</time></trkpt>
	<trkpt lat="52.032475" lon="-2.027703333"><ele>77.000000</ele><time>2010-08-04T10:37:12Z</time></trkpt>
	<trkpt lat="52.03249667" lon="-2.027635"><ele>77.000000</ele><time>2010-08-04T10:37:17Z</time></trkpt>
	<trkpt lat="52.032525" lon="-2.027571667"><ele>77.000000</ele><time>2010-08-04T10:37:22Z</time></trkpt>
	<trkpt lat="52.03253833" lon="-2.0275"><ele>77.000000</ele><time>2010-08-04T10:37:27Z</time></trkpt>
	<trkpt lat="52.03255333" lon="-2.027425"><ele>77.000000</ele><time>2010-08-04T10:37:32Z</time></trkpt>
	<trkpt lat="52.032565" lon="-2.027351667"><ele>77.000000</ele><time>2010-08-04T10:37:37Z</time></trkpt>
	<trkpt lat="52.03257667" lon="-2.027286667"><ele>77.000000</ele><time>2010-08-04T10:37:42Z</time></trkpt>
	<trkpt lat="52.03258667" lon="-2.027208333"><ele>76.000000</ele><time>2010-08-04T10:37:47Z</time></trkpt>
	<trkpt lat="52.0326" lon="-2.02713"><ele>75.000000</ele><time>2010-08-04T10:37:52Z</time></trkpt>
	<trkpt lat="52.03261833" lon="-2.027056667"><ele>75.000000</ele><time>2010-08-04T10:37:57Z</time></trkpt>
	<trkpt lat="52.03263167" lon="-2.026985"><ele>74.000000</ele><time>2010-08-04T10:38:02Z</time></trkpt>
	<trkpt lat="52.03263" lon="-2.026911667"><ele>74.000000</ele><time>2010-08-04T10:38:07Z</time></trkpt>
	<trkpt lat="52.03263167" lon="-2.026825"><ele>73.000000</ele><time>2010-08-04T10:38:12Z</time></trkpt>
	<trkpt lat="52.03263833" lon="-2.026741667"><ele>73.000000</ele><time>2010-08-04T10:38:17Z</time></trkpt>
	<trkpt lat="52.032645" lon="-2.026656667"><ele>72.000000</ele><time>2010-08-04T10:38:22Z</time></trkpt>
	<trkpt lat="52.03264833" lon="-2.026573333"><ele>71.000000</ele><time>2010-08-04T10:38:27Z</time></trkpt>
	<trkpt lat="52.03265667" lon="-2.026486667"><ele>71.000000</ele><time>2010-08-04T10:38:32Z</time></trkpt>
	<trkpt lat="52.032655" lon="-2.026403333"><ele>71.000000</ele><time>2010-08-04T10:38:37Z</time></trkpt>
	<trkpt lat="52.03265167" lon="-2.026336667"><ele>70.000000</ele><time>2010-08-04T10:38:42Z</time></trkpt>
	<trkpt lat="52.032645" lon="-2.026261667"><ele>70.000000</ele><time>2010-08-04T10:38:47Z</time></trkpt>
	<trkpt lat="52.03264333" lon="-2.026188333"><ele>69.000000</ele><time>2010-08-04T10:38:52Z</time></trkpt>
	<trkpt lat="52.032635" lon="-2.026115"><ele>69.000000</ele><time>2010-08-04T10:38:57Z</time></trkpt>
	<trkpt lat="52.03263" lon="-2.026046667"><ele>68.000000</ele><time>2010-08-04T10:39:02Z</time></trkpt>
	<trkpt lat="52.032635" lon="-2.025995"><ele>68.000000</ele><time>2010-08-04T10:39:07Z</time></trkpt>
	<trkpt lat="52.032645" lon="-2.025955"><ele>67.000000</ele><time>2010-08-04T10:39:12Z</time></trkpt>
	<trkpt lat="52.03264333" lon="-2.025895"><ele>67.000000</ele><time>2010-08-04T10:39:17Z</time></trkpt>
	<trkpt lat="52.03264333" lon="-2.025855"><ele>67.000000</ele><time>2010-08-04T10:39:22Z</time></trkpt>
	<trkpt lat="52.03264167" lon="-2.025846667"><ele>67.000000</ele><time>2010-08-04T10:39:27Z</time></trkpt>
	<trkpt lat="52.032635" lon="-2.025845"><ele>66.000000</ele><time>2010-08-04T10:39:32Z</time></trkpt>
	<trkpt lat="52.03263333" lon="-2.025845"><ele>66.000000</ele><time>2010-08-04T10:39:37Z</time></trkpt>
	<trkpt lat="52.03263167" lon="-2.025843333"><ele>66.000000</ele><time>2010-08-04T10:39:42Z</time></trkpt>
	<trkpt lat="52.03263167" lon="-2.025843333"><ele>66.000000</ele><time>2010-08-04T10:39:47Z</time></trkpt>
	<trkpt lat="52.03263" lon="-2.025843333"><ele>65.000000</ele><time>2010-08-04T10:39:52Z</time></trkpt>
	<trkpt lat="52.03263" lon="-2.025843333"><ele>65.000000</ele><time>2010-08-04T10:39:57Z</time></trkpt>
	<trkpt lat="52.03262833" lon="-2.025841667"><ele>65.000000</ele><time>2010-08-04T10:40:02Z</time></trkpt>
	<trkpt lat="52.03262833" lon="-2.025833333"><ele>66.000000</ele><time>2010-08-04T10:40:07Z</time></trkpt>
	<trkpt lat="52.03262" lon="-2.025828333"><ele>66.000000</ele><time>2010-08-04T10:40:12Z</time></trkpt>
	<trkpt lat="52.03262" lon="-2.025793333"><ele>66.000000</ele><time>2010-08-04T10:40:17Z</time></trkpt>
	<trkpt lat="52.03262667" lon="-2.02572"><ele>66.000000</ele><time>2010-08-04T10:40:22Z</time></trkpt>
	<trkpt lat="52.032625" lon="-2.025643333"><ele>66.000000</ele><time>2010-08-04T10:40:27Z</time></trkpt>
	<trkpt lat="52.032625" lon="-2.025561667"><ele>67.000000</ele><time>2010-08-04T10:40:32Z</time></trkpt>
	<trkpt lat="52.03262833" lon="-2.02548"><ele>67.000000</ele><time>2010-08-04T10:40:37Z</time></trkpt>
	<trkpt lat="52.03263333" lon="-2.025406667"><ele>67.000000</ele><time>2010-08-04T10:40:42Z</time></trkpt>
	<trkpt lat="52.03264167" lon="-2.02533"><ele>67.000000</ele><time>2010-08-04T10:40:47Z</time></trkpt>
	<trkpt lat="52.03265333" lon="-2.025255"><ele>68.000000</ele><time>2010-08-04T10:40:52Z</time></trkpt>
	<trkpt lat="52.03267667" lon="-2.025183333"><ele>68.000000</ele><time>2010-08-04T10:40:57Z</time></trkpt>
	<trkpt lat="52.03269167" lon="-2.025115"><ele>69.000000</ele><time>2010-08-04T10:41:02Z</time></trkpt>
	<trkpt lat="52.03271333" lon="-2.025048333"><ele>69.000000</ele><time>2010-08-04T10:41:07Z</time></trkpt>
	<trkpt lat="52.032735" lon="-2.024988333"><ele>70.000000</ele><time>2010-08-04T10:41:12Z</time></trkpt>
	<trkpt lat="52.032745" lon="-2.02491"><ele>70.000000</ele><time>2010-08-04T10:41:17Z</time></trkpt>
	<trkpt lat="52.03276333" lon="-2.024833333"><ele>71.000000</ele><time>2010-08-04T10:41:22Z</time></trkpt>
	<trkpt lat="52.032795" lon="-2.02476"><ele>71.000000</ele><time>2010-08-04T10:41:27Z</time></trkpt>
	<trkpt lat="52.03283" lon="-2.024686667"><ele>72.000000</ele><time>2010-08-04T10:41:32Z</time></trkpt>
	<trkpt lat="52.03286167" lon="-2.024613333"><ele>72.000000</ele><time>2010-08-04T10:41:37Z</time></trkpt>
	<trkpt lat="52.03289833" lon="-2.02455"><ele>72.000000</ele><time>2010-08-04T10:41:42Z</time></trkpt>
	<trkpt lat="52.03293667" lon="-2.024486667"><ele>72.000000</ele><time>2010-08-04T10:41:47Z</time></trkpt>
	<trkpt lat="52.03297333" lon="-2.024428333"><ele>72.000000</ele><time>2010-08-04T10:41:52Z</time></trkpt>
	<trkpt lat="52.03301" lon="-2.024363333"><ele>73.000000</ele><time>2010-08-04T10:41:57Z</time></trkpt>
	<trkpt lat="52.03304" lon="-2.024296667"><ele>73.000000</ele><time>2010-08-04T10:42:02Z</time></trkpt>
	<trkpt lat="52.03306167" lon="-2.024215"><ele>73.000000</ele><time>2010-08-04T10:42:07Z</time></trkpt>
	<trkpt lat="52.03308667" lon="-2.024133333"><ele>73.000000</ele><time>2010-08-04T10:42:12Z</time></trkpt>
	<trkpt lat="52.03311333" lon="-2.02406"><ele>73.000000</ele><time>2010-08-04T10:42:17Z</time></trkpt>
	<trkpt lat="52.03313333" lon="-2.023986667"><ele>72.000000</ele><time>2010-08-04T10:42:22Z</time></trkpt>
	<trkpt lat="52.03314833" lon="-2.023906667"><ele>72.000000</ele><time>2010-08-04T10:42:27Z</time></trkpt>
	<trkpt lat="52.033175" lon="-2.023826667"><ele>72.000000</ele><time>2010-08-04T10:42:32Z</time></trkpt>
	<trkpt lat="52.0332" lon="-2.02375"><ele>72.000000</ele><time>2010-08-04T10:42:37Z</time></trkpt>
	<trkpt lat="52.03322167" lon="-2.023676667"><ele>72.000000</ele><time>2010-08-04T10:42:42Z</time></trkpt>
	<trkpt lat="52.03324833" lon="-2.023608333"><ele>73.000000</ele><time>2010-08-04T10:42:47Z</time></trkpt>
	<trkpt lat="52.03327167" lon="-2.02355"><ele>73.000000</ele><time>2010-08-04T10:42:52Z</time></trkpt>
	<trkpt lat="52.03329" lon="-2.023501667"><ele>74.000000</ele><time>2010-08-04T10:42:57Z</time></trkpt>
	<trkpt lat="52.03329667" lon="-2.023443333"><ele>74.000000</ele><time>2010-08-04T10:43:02Z</time></trkpt>
	<trkpt lat="52.03329833" lon="-2.023398333"><ele>74.000000</ele><time>2010-08-04T10:43:07Z</time></trkpt>
	<trkpt lat="52.03330833" lon="-2.02338"><ele>74.000000</ele><time>2010-08-04T10:43:12Z</time></trkpt>
	<trkpt lat="52.03331167" lon="-2.02337"><ele>74.000000</ele><time>2010-08-04T10:43:17Z</time></trkpt>
	<trkpt lat="52.03332333" lon="-2.023358333"><ele>75.000000</ele><time>2010-08-04T10:43:22Z</time></trkpt>
	<trkpt lat="52.03334333" lon="-2.023353333"><ele>76.000000</ele><time>2010-08-04T10:43:27Z</time></trkpt>
	<trkpt lat="52.03334333" lon="-2.023333333"><ele>74.000000</ele><time>2010-08-04T10:43:32Z</time></trkpt>
	<trkpt lat="52.03335167" lon="-2.023311667"><ele>76.000000</ele><time>2010-08-04T10:43:37Z</time></trkpt>
	<trkpt lat="52.03334167" lon="-2.02328"><ele>76.000000</ele><time>2010-08-04T10:43:42Z</time></trkpt>
	<trkpt lat="52.03334667" lon="-2.02327"><ele>75.000000</ele><time>2010-08-04T10:43:47Z</time></trkpt>
	<trkpt lat="52.03335" lon="-2.023228333"><ele>74.000000</ele><time>2010-08-04T10:43:52Z</time></trkpt>
	<trkpt lat="52.03332667" lon="-2.02318"><ele>73.000000</ele><time>2010-08-04T10:43:57Z</time></trkpt>
	<trkpt lat="52.03328" lon="-2.023145"><ele>73.000000</ele><time>2010-08-04T10:44:02Z</time></trkpt>
	<trkpt lat="52.03323333" lon="-2.023126667"><ele>72.000000</ele><time>2010-08-04T10:44:07Z</time></trkpt>
	<trkpt lat="52.03319167" lon="-2.023128333"><ele>72.000000</ele><time>2010-08-04T10:44:12Z</time></trkpt>
	<trkpt lat="52.03314833" lon="-2.023145"><ele>72.000000</ele><time>2010-08-04T10:44:17Z</time></trkpt>
	<trkpt lat="52.03312833" lon="-2.023108333"><ele>71.000000</ele><time>2010-08-04T10:44:22Z</time></trkpt>
	<trkpt lat="52.03308833" lon="-2.023093333"><ele>71.000000</ele><time>2010-08-04T10:44:27Z</time></trkpt>
	<trkpt lat="52.03304167" lon="-2.02308"><ele>71.000000</ele><time>2010-08-04T10:44:32Z</time></trkpt>
	<trkpt lat="52.03299667" lon="-2.023056667"><ele>72.000000</ele><time>2010-08-04T10:44:37Z</time></trkpt>
	<trkpt lat="52.03296" lon="-2.02302"><ele>71.000000</ele><time>2010-08-04T10:44:42Z</time></trkpt>
	<trkpt lat="52.03294667" lon="-2.023008333"><ele>70.000000</ele><time>2010-08-04T10:44:47Z</time></trkpt>
	<trkpt lat="52.03292" lon="-2.022996667"><ele>70.000000</ele><time>2010-08-04T10:44:52Z</time></trkpt>
	<trkpt lat="52.03287333" lon="-2.02298"><ele>69.000000</ele><time>2010-08-04T10:44:57Z</time></trkpt>
	<trkpt lat="52.03281333" lon="-2.022976667"><ele>68.000000</ele><time>2010-08-04T10:45:02Z</time></trkpt>
	<trkpt lat="52.03276833" lon="-2.022955"><ele>69.000000</ele><time>2010-08-04T10:45:07Z</time></trkpt>
	<trkpt lat="52.03274167" lon="-2.022935"><ele>70.000000</ele><time>2010-08-04T10:45:12Z</time></trkpt>
	<trkpt lat="52.03269167" lon="-2.022951667"><ele>69.000000</ele><time>2010-08-04T10:45:17Z</time></trkpt>
	<trkpt lat="52.03261667" lon="-2.022973333"><ele>70.000000</ele><time>2010-08-04T10:45:22Z</time></trkpt>
	<trkpt lat="52.03257667" lon="-2.023013333"><ele>69.000000</ele><time>2010-08-04T10:45:27Z</time></trkpt>
	<trkpt lat="52.03252" lon="-2.023028333"><ele>67.000000</ele><time>2010-08-04T10:45:32Z</time></trkpt>
	<trkpt lat="52.032495" lon="-2.023023333"><ele>67.000000</ele><time>2010-08-04T10:45:37Z</time></trkpt>
	<trkpt lat="52.03247667" lon="-2.023033333"><ele>67.000000</ele><time>2010-08-04T10:45:42Z</time></trkpt>
	<trkpt lat="52.03248" lon="-2.023005"><ele>69.000000</ele><time>2010-08-04T10:45:47Z</time></trkpt>
	<trkpt lat="52.03248" lon="-2.022968333"><ele>72.000000</ele><time>2010-08-04T10:45:52Z</time></trkpt>
	<trkpt lat="52.032475" lon="-2.02294"><ele>73.000000</ele><time>2010-08-04T10:45:57Z</time></trkpt>
	<trkpt lat="52.03243167" lon="-2.022965"><ele>71.000000</ele><time>2010-08-04T10:46:02Z</time></trkpt>
	<trkpt lat="52.03240333" lon="-2.022956667"><ele>70.000000</ele><time>2010-08-04T10:46:07Z</time></trkpt>
	<trkpt lat="52.0324" lon="-2.022963333"><ele>67.000000</ele><time>2010-08-04T10:46:12Z</time></trkpt>
	<trkpt lat="52.0324" lon="-2.022973333"><ele>66.000000</ele><time>2010-08-04T10:46:17Z</time></trkpt>
	<trkpt lat="52.03239667" lon="-2.022978333"><ele>65.000000</ele><time>2010-08-04T10:46:22Z</time></trkpt>
	<trkpt lat="52.03239667" lon="-2.022985"><ele>65.000000</ele><time>2010-08-04T10:46:27Z</time></trkpt>
	<trkpt lat="52.03239667" lon="-2.02299"><ele>65.000000</ele><time>2010-08-04T10:46:32Z</time></trkpt>
	<trkpt lat="52.032395" lon="-2.022996667"><ele>66.000000</ele><time>2010-08-04T10:46:37Z</time></trkpt>
	<trkpt lat="52.03239167" lon="-2.023001667"><ele>66.000000</ele><time>2010-08-04T10:46:42Z</time></trkpt>
	<trkpt lat="52.03236833" lon="-2.023"><ele>65.000000</ele><time>2010-08-04T10:46:47Z</time></trkpt>
	<trkpt lat="52.03233167" lon="-2.022965"><ele>66.000000</ele><time>2010-08-04T10:46:52Z</time></trkpt>
	<trkpt lat="52.03231167" lon="-2.0229"><ele>66.000000</ele><time>2010-08-04T10:46:57Z</time></trkpt>
	<trkpt lat="52.03229833" lon="-2.022836667"><ele>67.000000</ele><time>2010-08-04T10:47:02Z</time></trkpt>
	<trkpt lat="52.03228667" lon="-2.022776667"><ele>67.000000</ele><time>2010-08-04T10:47:07Z</time></trkpt>
	<trkpt lat="52.03227833" lon="-2.022708333"><ele>68.000000</ele><time>2010-08-04T10:47:12Z</time></trkpt>
	<trkpt lat="52.03228667" lon="-2.022663333"><ele>67.000000</ele><time>2010-08-04T10:47:17Z</time></trkpt>
	<trkpt lat="52.03230167" lon="-2.022635"><ele>66.000000</ele><time>2010-08-04T10:47:22Z</time></trkpt>
	<trkpt lat="52.032305" lon="-2.022626667"><ele>65.000000</ele><time>2010-08-04T10:47:27Z</time></trkpt>
	<trkpt lat="52.032315" lon="-2.022595"><ele>63.000000</ele><time>2010-08-04T10:47:32Z</time></trkpt>
	<trkpt lat="52.0323" lon="-2.022545"><ele>62.000000</ele><time>2010-08-04T10:47:37Z</time></trkpt>
	<trkpt lat="52.0323" lon="-2.022466667"><ele>63.000000</ele><time>2010-08-04T10:47:42Z</time></trkpt>
	<trkpt lat="52.03231667" lon="-2.022391667"><ele>63.000000</ele><time>2010-08-04T10:47:47Z</time></trkpt>
	<trkpt lat="52.03234667" lon="-2.022321667"><ele>63.000000</ele><time>2010-08-04T10:47:52Z</time></trkpt>
	<trkpt lat="52.03236167" lon="-2.022258333"><ele>66.000000</ele><time>2010-08-04T10:47:57Z</time></trkpt>
	<trkpt lat="52.03237667" lon="-2.022183333"><ele>68.000000</ele><time>2010-08-04T10:48:02Z</time></trkpt>
	<trkpt lat="52.032385" lon="-2.022116667"><ele>69.000000</ele><time>2010-08-04T10:48:07Z</time></trkpt>
	<trkpt lat="52.03240167" lon="-2.022048333"><ele>71.000000</ele><time>2010-08-04T10:48:12Z</time></trkpt>
	<trkpt lat="52.03242833" lon="-2.021986667"><ele>73.000000</ele><time>2010-08-04T10:48:17Z</time></trkpt>
	<trkpt lat="52.03245" lon="-2.0219"><ele>73.000000</ele><time>2010-08-04T10:48:22Z</time></trkpt>
	<trkpt lat="52.032475" lon="-2.021805"><ele>72.000000</ele><time>2010-08-04T10:48:27Z</time></trkpt>
	<trkpt lat="52.0325" lon="-2.02173"><ele>73.000000</ele><time>2010-08-04T10:48:32Z</time></trkpt>
	<trkpt lat="52.03252667" lon="-2.021638333"><ele>71.000000</ele><time>2010-08-04T10:48:37Z</time></trkpt>
	<trkpt lat="52.03255167" lon="-2.021546667"><ele>70.000000</ele><time>2010-08-04T10:48:42Z</time></trkpt>
	<trkpt lat="52.03258" lon="-2.021453333"><ele>70.000000</ele><time>2010-08-04T10:48:47Z</time></trkpt>
	<trkpt lat="52.03260833" lon="-2.021366667"><ele>69.000000</ele><time>2010-08-04T10:48:52Z</time></trkpt>
	<trkpt lat="52.03263667" lon="-2.021275"><ele>69.000000</ele><time>2010-08-04T10:48:57Z</time></trkpt>
	<trkpt lat="52.03267" lon="-2.021186667"><ele>69.000000</ele><time>2010-08-04T10:49:02Z</time></trkpt>
	<trkpt lat="52.0327" lon="-2.0211"><ele>69.000000</ele><time>2010-08-04T10:49:07Z</time></trkpt>
	<trkpt lat="52.03272667" lon="-2.021013333"><ele>69.000000</ele><time>2010-08-04T10:49:12Z</time></trkpt>
	<trkpt lat="52.03275833" lon="-2.02093"><ele>68.000000</ele><time>2010-08-04T10:49:17Z</time></trkpt>
	<trkpt lat="52.03278333" lon="-2.020851667"><ele>67.000000</ele><time>2010-08-04T10:49:22Z</time></trkpt>
	<trkpt lat="52.032815" lon="-2.020768333"><ele>67.000000</ele><time>2010-08-04T10:49:27Z</time></trkpt>
	<trkpt lat="52.03283" lon="-2.02071"><ele>67.000000</ele><time>2010-08-04T10:49:32Z</time></trkpt>
	<trkpt lat="52.032845" lon="-2.020616667"><ele>67.000000</ele><time>2010-08-04T10:49:37Z</time></trkpt>
	<trkpt lat="52.03285333" lon="-2.020518333"><ele>66.000000</ele><time>2010-08-04T10:49:42Z</time></trkpt>
	<trkpt lat="52.03286333" lon="-2.020416667"><ele>66.000000</ele><time>2010-08-04T10:49:47Z</time></trkpt>
	<trkpt lat="52.032875" lon="-2.020316667"><ele>66.000000</ele><time>2010-08-04T10:49:52Z</time></trkpt>
	<trkpt lat="52.03288667" lon="-2.020216667"><ele>66.000000</ele><time>2010-08-04T10:49:57Z</time></trkpt>
	<trkpt lat="52.0329" lon="-2.020126667"><ele>67.000000</ele><time>2010-08-04T10:50:02Z</time></trkpt>
	<trkpt lat="52.03291667" lon="-2.020038333"><ele>68.000000</ele><time>2010-08-04T10:50:07Z</time></trkpt>
	<trkpt lat="52.03293167" lon="-2.01995"><ele>68.000000</ele><time>2010-08-04T10:50:12Z</time></trkpt>
	<trkpt lat="52.03294667" lon="-2.019851667"><ele>68.000000</ele><time>2010-08-04T10:50:17Z</time></trkpt>
	<trkpt lat="52.03296833" lon="-2.019755"><ele>68.000000</ele><time>2010-08-04T10:50:22Z</time></trkpt>
	<trkpt lat="52.03299" lon="-2.019663333"><ele>68.000000</ele><time>2010-08-04T10:50:27Z</time></trkpt>
	<trkpt lat="52.03301833" lon="-2.019566667"><ele>68.000000</ele><time>2010-08-04T10:50:32Z</time></trkpt>
	<trkpt lat="52.03304333" lon="-2.019475"><ele>68.000000</ele><time>2010-08-04T10:50:37Z</time></trkpt>
	<trkpt lat="52.03306667" lon="-2.01938"><ele>68.000000</ele><time>2010-08-04T10:50:42Z</time></trkpt>
	<trkpt lat="52.03308833" lon="-2.019291667"><ele>69.000000</ele><time>2010-08-04T10:50:47Z</time></trkpt>
	<trkpt lat="52.03310833" lon="-2.019213333"><ele>70.000000</ele><time>2010-08-04T10:50:52Z</time></trkpt>
	<trkpt lat="52.03313167" lon="-2.019126667"><ele>71.000000</ele><time>2010-08-04T10:50:57Z</time></trkpt>
	<trkpt lat="52.03314167" lon="-2.01904"><ele>69.000000</ele><time>2010-08-04T10:51:02Z</time></trkpt>
	<trkpt lat="52.03313333" lon="-2.019013333"><ele>68.000000</ele><time>2010-08-04T10:51:07Z</time></trkpt>
	<trkpt lat="52.03314833" lon="-2.018995"><ele>68.000000</ele><time>2010-08-04T10:51:12Z</time></trkpt>
	<trkpt lat="52.03317667" lon="-2.018926667"><ele>69.000000</ele><time>2010-08-04T10:51:17Z</time></trkpt>
	<trkpt lat="52.0332" lon="-2.018855"><ele>70.000000</ele><time>2010-08-04T10:51:22Z</time></trkpt>
	<trkpt lat="52.03322167" lon="-2.018766667"><ele>71.000000</ele><time>2010-08-04T10:51:27Z</time></trkpt>
	<trkpt lat="52.03323833" lon="-2.01867"><ele>70.000000</ele><time>2010-08-04T10:51:32Z</time></trkpt>
	<trkpt lat="52.03325667" lon="-2.018581667"><ele>70.000000</ele><time>2010-08-04T10:51:37Z</time></trkpt>
	<trkpt lat="52.03327833" lon="-2.01849"><ele>69.000000</ele><time>2010-08-04T10:51:42Z</time></trkpt>
	<trkpt lat="52.03328833" lon="-2.018413333"><ele>69.000000</ele><time>2010-08-04T10:51:47Z</time></trkpt>
	<trkpt lat="52.03329167" lon="-2.018393333"><ele>69.000000</ele><time>2010-08-04T10:51:52Z</time></trkpt>
	<trkpt lat="52.03329333" lon="-2.01839"><ele>68.000000</ele><time>2010-08-04T10:51:57Z</time></trkpt>
	<trkpt lat="52.033295" lon="-2.018385"><ele>68.000000</ele><time>2010-08-04T10:52:02Z</time></trkpt>
	<trkpt lat="52.03331667" lon="-2.018355"><ele>67.000000</ele><time>2010-08-04T10:52:07Z</time></trkpt>
	<trkpt lat="52.03332" lon="-2.01835"><ele>67.000000</ele><time>2010-08-04T10:52:12Z</time></trkpt>
	<trkpt lat="52.03332167" lon="-2.018348333"><ele>66.000000</ele><time>2010-08-04T10:52:17Z</time></trkpt>
	<trkpt lat="52.03332333" lon="-2.018348333"><ele>66.000000</ele><time>2010-08-04T10:52:22Z</time></trkpt>
	<trkpt lat="52.03332333" lon="-2.018346667"><ele>65.000000</ele><time>2010-08-04T10:52:27Z</time></trkpt>
	<trkpt lat="52.03332333" lon="-2.018348333"><ele>65.000000</ele><time>2010-08-04T10:52:32Z</time></trkpt>
	<trkpt lat="52.033325" lon="-2.01835"><ele>65.000000</ele><time>2010-08-04T10:52:37Z</time></trkpt>
	<trkpt lat="52.03331667" lon="-2.018378333"><ele>69.000000</ele><time>2010-08-04T10:52:42Z</time></trkpt>
	<trkpt lat="52.03330833" lon="-2.018393333"><ele>70.000000</ele><time>2010-08-04T10:52:47Z</time></trkpt>
	<trkpt lat="52.03330833" lon="-2.018385"><ele>69.000000</ele><time>2010-08-04T10:52:52Z</time></trkpt>
	<trkpt lat="52.03331" lon="-2.018381667"><ele>68.000000</ele><time>2010-08-04T10:52:57Z</time></trkpt>
	<trkpt lat="52.03331" lon="-2.018376667"><ele>68.000000</ele><time>2010-08-04T10:53:02Z</time></trkpt>
	<trkpt lat="52.03331667" lon="-2.01838"><ele>68.000000</ele><time>2010-08-04T10:53:07Z</time></trkpt>
	<trkpt lat="52.03331667" lon="-2.018378333"><ele>67.000000</ele><time>2010-08-04T10:53:12Z</time></trkpt>
	<trkpt lat="52.033335" lon="-2.018355"><ele>67.000000</ele><time>2010-08-04T10:53:17Z</time></trkpt>
	<trkpt lat="52.03338167" lon="-2.018371667"><ele>66.000000</ele><time>2010-08-04T10:53:22Z</time></trkpt>
	<trkpt lat="52.03343167" lon="-2.018385"><ele>67.000000</ele><time>2010-08-04T10:53:27Z</time></trkpt>
	<trkpt lat="52.03347833" lon="-2.0184"><ele>67.000000</ele><time>2010-08-04T10:53:32Z</time></trkpt>
	<trkpt lat="52.03352167" lon="-2.018408333"><ele>69.000000</ele><time>2010-08-04T10:53:37Z</time></trkpt>
	<trkpt lat="52.03355833" lon="-2.018418333"><ele>70.000000</ele><time>2010-08-04T10:53:42Z</time></trkpt>
	<trkpt lat="52.03360333" lon="-2.018436667"><ele>71.000000</ele><time>2010-08-04T10:53:47Z</time></trkpt>
	<trkpt lat="52.03364833" lon="-2.018441667"><ele>72.000000</ele><time>2010-08-04T10:53:52Z</time></trkpt>
	<trkpt lat="52.03369167" lon="-2.018453333"><ele>75.000000</ele><time>2010-08-04T10:53:57Z</time></trkpt>
	<trkpt lat="52.033735" lon="-2.018453333"><ele>77.000000</ele><time>2010-08-04T10:54:02Z</time></trkpt>
	<trkpt lat="52.033775" lon="-2.018465"><ele>78.000000</ele><time>2010-08-04T10:54:07Z</time></trkpt>
	<trkpt lat="52.03383833" lon="-2.018441667"><ele>77.000000</ele><time>2010-08-04T10:54:12Z</time></trkpt>
	<trkpt lat="52.03388667" lon="-2.018441667"><ele>79.000000</ele><time>2010-08-04T10:54:17Z</time></trkpt>
	<trkpt lat="52.03393333" lon="-2.018451667"><ele>80.000000</ele><time>2010-08-04T10:54:22Z</time></trkpt>
	<trkpt lat="52.03398667" lon="-2.018455"><ele>80.000000</ele><time>2010-08-04T10:54:27Z</time></trkpt>
	<trkpt lat="52.034035" lon="-2.018453333"><ele>80.000000</ele><time>2010-08-04T10:54:32Z</time></trkpt>
	<trkpt lat="52.03408167" lon="-2.018465"><ele>80.000000</ele><time>2010-08-04T10:54:37Z</time></trkpt>
	<trkpt lat="52.034125" lon="-2.01849"><ele>82.000000</ele><time>2010-08-04T10:54:42Z</time></trkpt>
	<trkpt lat="52.03417333" lon="-2.018505"><ele>83.000000</ele><time>2010-08-04T10:54:47Z</time></trkpt>
	<trkpt lat="52.03421667" lon="-2.018536667"><ele>83.000000</ele><time>2010-08-04T10:54:52Z</time></trkpt>
	<trkpt lat="52.03426167" lon="-2.018568333"><ele>82.000000</ele><time>2010-08-04T10:54:57Z</time></trkpt>
	<trkpt lat="52.03430167" lon="-2.018581667"><ele>81.000000</ele><time>2010-08-04T10:55:02Z</time></trkpt>
	<trkpt lat="52.03435167" lon="-2.018603333"><ele>82.000000</ele><time>2010-08-04T10:55:07Z</time></trkpt>
	<trkpt lat="52.03440833" lon="-2.01864"><ele>83.000000</ele><time>2010-08-04T10:55:12Z</time></trkpt>
	<trkpt lat="52.03446" lon="-2.018668333"><ele>83.000000</ele><time>2010-08-04T10:55:17Z</time></trkpt>
	<trkpt lat="52.03451333" lon="-2.018695"><ele>83.000000</ele><time>2010-08-04T10:55:22Z</time></trkpt>
	<trkpt lat="52.034555" lon="-2.01873"><ele>83.000000</ele><time>2010-08-04T10:55:27Z</time></trkpt>
	<trkpt lat="52.034595" lon="-2.018775"><ele>82.000000</ele><time>2010-08-04T10:55:32Z</time></trkpt>
	<trkpt lat="52.034635" lon="-2.018823333"><ele>83.000000</ele><time>2010-08-04T10:55:37Z</time></trkpt>
	<trkpt lat="52.03466333" lon="-2.018863333"><ele>84.000000</ele><time>2010-08-04T10:55:42Z</time></trkpt>
	<trkpt lat="52.03467667" lon="-2.01891"><ele>85.000000</ele><time>2010-08-04T10:55:47Z</time></trkpt>
	<trkpt lat="52.03469167" lon="-2.018976667"><ele>83.000000</ele><time>2010-08-04T10:55:52Z</time></trkpt>
	<trkpt lat="52.03471667" lon="-2.01902"><ele>82.000000</ele><time>2010-08-04T10:55:57Z</time></trkpt>
	<trkpt lat="52.034725" lon="-2.019036667"><ele>81.000000</ele><time>2010-08-04T10:56:02Z</time></trkpt>
	<trkpt lat="52.03474" lon="-2.01906"><ele>83.000000</ele><time>2010-08-04T10:56:07Z</time></trkpt>
	<trkpt lat="52.034735" lon="-2.019061667"><ele>85.000000</ele><time>2010-08-04T10:56:12Z</time></trkpt>
	<trkpt lat="52.03474333" lon="-2.019046667"><ele>87.000000</ele><time>2010-08-04T10:56:17Z</time></trkpt>
	<trkpt lat="52.03475833" lon="-2.019036667"><ele>88.000000</ele><time>2010-08-04T10:56:22Z</time></trkpt>
	<trkpt lat="52.03478833" lon="-2.019066667"><ele>86.000000</ele><time>2010-08-04T10:56:27Z</time></trkpt>
	<trkpt lat="52.03480833" lon="-2.019088333"><ele>84.000000</ele><time>2010-08-04T10:56:32Z</time></trkpt>
	<trkpt lat="52.03483167" lon="-2.019093333"><ele>83.000000</ele><time>2010-08-04T10:56:37Z</time></trkpt>
	<trkpt lat="52.03485" lon="-2.019085"><ele>83.000000</ele><time>2010-08-04T10:56:42Z</time></trkpt>
	<trkpt lat="52.03487" lon="-2.019048333"><ele>84.000000</ele><time>2010-08-04T10:56:47Z</time></trkpt>
	<trkpt lat="52.03488833" lon="-2.018991667"><ele>84.000000</ele><time>2010-08-04T10:56:52Z</time></trkpt>
	<trkpt lat="52.03491667" lon="-2.018948333"><ele>85.000000</ele><time>2010-08-04T10:56:57Z</time></trkpt>
	<trkpt lat="52.03494667" lon="-2.018906667"><ele>86.000000</ele><time>2010-08-04T10:57:02Z</time></trkpt>
	<trkpt lat="52.03497333" lon="-2.018861667"><ele>87.000000</ele><time>2010-08-04T10:57:07Z</time></trkpt>
	<trkpt lat="52.03498833" lon="-2.018813333"><ele>89.000000</ele><time>2010-08-04T10:57:12Z</time></trkpt>
	<trkpt lat="52.03500167" lon="-2.018753333"><ele>90.000000</ele><time>2010-08-04T10:57:17Z</time></trkpt>
	<trkpt lat="52.03500667" lon="-2.018705"><ele>91.000000</ele><time>2010-08-04T10:57:22Z</time></trkpt>
	<trkpt lat="52.03502667" lon="-2.018656667"><ele>91.000000</ele><time>2010-08-04T10:57:27Z</time></trkpt>
	<trkpt lat="52.03502833" lon="-2.01864"><ele>90.000000</ele><time>2010-08-04T10:57:32Z</time></trkpt>
	<trkpt lat="52.03504" lon="-2.01857"><ele>89.000000</ele><time>2010-08-04T10:57:37Z</time></trkpt>
	<trkpt lat="52.035055" lon="-2.018508333"><ele>90.000000</ele><time>2010-08-04T10:57:42Z</time></trkpt>
	<trkpt lat="52.03505" lon="-2.018446667"><ele>92.000000</ele><time>2010-08-04T10:57:47Z</time></trkpt>
	<trkpt lat="52.03505" lon="-2.018403333"><ele>93.000000</ele><time>2010-08-04T10:57:52Z</time></trkpt>
	<trkpt lat="52.03505167" lon="-2.018341667"><ele>94.000000</ele><time>2010-08-04T10:57:57Z</time></trkpt>
	<trkpt lat="52.03506667" lon="-2.018285"><ele>96.000000</ele><time>2010-08-04T10:58:02Z</time></trkpt>
	<trkpt lat="52.03507833" lon="-2.018241667"><ele>97.000000</ele><time>2010-08-04T10:58:07Z</time></trkpt>
	<trkpt lat="52.03509333" lon="-2.018171667"><ele>97.000000</ele><time>2010-08-04T10:58:12Z</time></trkpt>
	<trkpt lat="52.0351" lon="-2.018103333"><ele>96.000000</ele><time>2010-08-04T10:58:17Z</time></trkpt>
	<trkpt lat="52.03512333" lon="-2.018005"><ele>91.000000</ele><time>2010-08-04T10:58:22Z</time></trkpt>
	<trkpt lat="52.03513667" lon="-2.017948333"><ele>90.000000</ele><time>2010-08-04T10:58:27Z</time></trkpt>
	<trkpt lat="52.03514167" lon="-2.017865"><ele>88.000000</ele><time>2010-08-04T10:58:32Z</time></trkpt>
	<trkpt lat="52.03515667" lon="-2.017791667"><ele>87.000000</ele><time>2010-08-04T10:58:37Z</time></trkpt>
	<trkpt lat="52.03517167" lon="-2.017713333"><ele>85.000000</ele><time>2010-08-04T10:58:42Z</time></trkpt>
	<trkpt lat="52.03517833" lon="-2.017638333"><ele>84.000000</ele><time>2010-08-04T10:58:47Z</time></trkpt>
	<trkpt lat="52.03518667" lon="-2.017588333"><ele>85.000000</ele><time>2010-08-04T10:58:52Z</time></trkpt>
	<trkpt lat="52.03520167" lon="-2.017531667"><ele>86.000000</ele><time>2010-08-04T10:58:57Z</time></trkpt>
	<trkpt lat="52.03521667" lon="-2.017478333"><ele>87.000000</ele><time>2010-08-04T10:59:02Z</time></trkpt>
	<trkpt lat="52.035235" lon="-2.01741"><ele>86.000000</ele><time>2010-08-04T10:59:07Z</time></trkpt>
	<trkpt lat="52.03525667" lon="-2.017326667"><ele>82.000000</ele><time>2010-08-04T10:59:12Z</time></trkpt>
	<trkpt lat="52.03526667" lon="-2.017275"><ele>82.000000</ele><time>2010-08-04T10:59:17Z</time></trkpt>
	<trkpt lat="52.03528667" lon="-2.017203333"><ele>81.000000</ele><time>2010-08-04T10:59:22Z</time></trkpt>
	<trkpt lat="52.03529833" lon="-2.017111667"><ele>79.000000</ele><time>2010-08-04T10:59:27Z</time></trkpt>
	<trkpt lat="52.0353" lon="-2.01704"><ele>79.000000</ele><time>2010-08-04T10:59:32Z</time></trkpt>
	<trkpt lat="52.03531333" lon="-2.017005"><ele>77.000000</ele><time>2010-08-04T10:59:37Z</time></trkpt>
	<trkpt lat="52.03532833" lon="-2.016943333"><ele>77.000000</ele><time>2010-08-04T10:59:42Z</time></trkpt>
	<trkpt lat="52.03532833" lon="-2.016928333"><ele>80.000000</ele><time>2010-08-04T10:59:47Z</time></trkpt>
	<trkpt lat="52.035345" lon="-2.016871667"><ele>80.000000</ele><time>2010-08-04T10:59:52Z</time></trkpt>
	<trkpt lat="52.03536" lon="-2.016818333"><ele>80.000000</ele><time>2010-08-04T10:59:57Z</time></trkpt>
	<trkpt lat="52.03536333" lon="-2.016781667"><ele>80.000000</ele><time>2010-08-04T11:00:02Z</time></trkpt>
	<trkpt lat="52.03536667" lon="-2.016698333"><ele>80.000000</ele><time>2010-08-04T11:00:07Z</time></trkpt>
	<trkpt lat="52.035395" lon="-2.01663"><ele>80.000000</ele><time>2010-08-04T11:00:12Z</time></trkpt>
	<trkpt lat="52.03539333" lon="-2.016576667"><ele>81.000000</ele><time>2010-08-04T11:00:17Z</time></trkpt>
	<trkpt lat="52.035405" lon="-2.016545"><ele>78.000000</ele><time>2010-08-04T11:00:22Z</time></trkpt>
	<trkpt lat="52.03540333" lon="-2.016525"><ele>78.000000</ele><time>2010-08-04T11:00:27Z</time></trkpt>
	<trkpt lat="52.03540833" lon="-2.016506667"><ele>76.000000</ele><time>2010-08-04T11:00:32Z</time></trkpt>
	<trkpt lat="52.03541" lon="-2.016493333"><ele>76.000000</ele><time>2010-08-04T11:00:37Z</time></trkpt>
	<trkpt lat="52.03541167" lon="-2.016493333"><ele>76.000000</ele><time>2010-08-04T11:00:42Z</time></trkpt>
	<trkpt lat="52.03541667" lon="-2.016483333"><ele>75.000000</ele><time>2010-08-04T11:00:47Z</time></trkpt>
	<trkpt lat="52.03542" lon="-2.016473333"><ele>77.000000</ele><time>2010-08-04T11:00:52Z</time></trkpt>
	<trkpt lat="52.035425" lon="-2.016461667"><ele>76.000000</ele><time>2010-08-04T11:00:57Z</time></trkpt>
	<trkpt lat="52.03543" lon="-2.016443333"><ele>76.000000</ele><time>2010-08-04T11:01:02Z</time></trkpt>
	<trkpt lat="52.03543167" lon="-2.016428333"><ele>74.000000</ele><time>2010-08-04T11:01:07Z</time></trkpt>
	<trkpt lat="52.03543167" lon="-2.016418333"><ele>74.000000</ele><time>2010-08-04T11:01:12Z</time></trkpt>
	<trkpt lat="52.03542667" lon="-2.016418333"><ele>75.000000</ele><time>2010-08-04T11:01:17Z</time></trkpt>
	<trkpt lat="52.035415" lon="-2.016436667"><ele>76.000000</ele><time>2010-08-04T11:01:22Z</time></trkpt>
	<trkpt lat="52.03541167" lon="-2.01644"><ele>77.000000</ele><time>2010-08-04T11:01:27Z</time></trkpt>
	<trkpt lat="52.035415" lon="-2.016421667"><ele>77.000000</ele><time>2010-08-04T11:01:32Z</time></trkpt>
	<trkpt lat="52.03542167" lon="-2.0164"><ele>76.000000</ele><time>2010-08-04T11:01:37Z</time></trkpt>
	<trkpt lat="52.03542333" lon="-2.016385"><ele>75.000000</ele><time>2010-08-04T11:01:42Z</time></trkpt>
	<trkpt lat="52.03542333" lon="-2.016376667"><ele>75.000000</ele><time>2010-08-04T11:01:47Z</time></trkpt>
	<trkpt lat="52.03541833" lon="-2.01637"><ele>75.000000</ele><time>2010-08-04T11:01:52Z</time></trkpt>
	<trkpt lat="52.035415" lon="-2.016366667"><ele>75.000000</ele><time>2010-08-04T11:01:57Z</time></trkpt>
	<trkpt lat="52.035415" lon="-2.016363333"><ele>76.000000</ele><time>2010-08-04T11:02:02Z</time></trkpt>
	<trkpt lat="52.035415" lon="-2.016365"><ele>76.000000</ele><time>2010-08-04T11:02:07Z</time></trkpt>
	<trkpt lat="52.03542" lon="-2.016326667"><ele>77.000000</ele><time>2010-08-04T11:02:12Z</time></trkpt>
	<trkpt lat="52.03543167" lon="-2.016298333"><ele>78.000000</ele><time>2010-08-04T11:02:17Z</time></trkpt>
	<trkpt lat="52.03543833" lon="-2.016265"><ele>79.000000</ele><time>2010-08-04T11:02:22Z</time></trkpt>
	<trkpt lat="52.035445" lon="-2.016263333"><ele>79.000000</ele><time>2010-08-04T11:02:27Z</time></trkpt>
	<trkpt lat="52.03545333" lon="-2.016265"><ele>79.000000</ele><time>2010-08-04T11:02:32Z</time></trkpt>
	<trkpt lat="52.03545667" lon="-2.016258333"><ele>79.000000</ele><time>2010-08-04T11:02:37Z</time></trkpt>
	<trkpt lat="52.035455" lon="-2.016255"><ele>79.000000</ele><time>2010-08-04T11:02:42Z</time></trkpt>
	<trkpt lat="52.035455" lon="-2.016253333"><ele>78.000000</ele><time>2010-08-04T11:02:47Z</time></trkpt>
	<trkpt lat="52.035455" lon="-2.016253333"><ele>78.000000</ele><time>2010-08-04T11:02:52Z</time></trkpt>
	<trkpt lat="52.03545667" lon="-2.016245"><ele>78.000000</ele><time>2010-08-04T11:02:57Z</time></trkpt>
	<trkpt lat="52.03545667" lon="-2.016235"><ele>78.000000</ele><time>2010-08-04T11:03:02Z</time></trkpt>
	<trkpt lat="52.035465" lon="-2.01622"><ele>78.000000</ele><time>2010-08-04T11:03:07Z</time></trkpt>
	<trkpt lat="52.03548167" lon="-2.01619"><ele>78.000000</ele><time>2010-08-04T11:03:12Z</time></trkpt>
	<trkpt lat="52.03550167" lon="-2.016158333"><ele>78.000000</ele><time>2010-08-04T11:03:17Z</time></trkpt>
	<trkpt lat="52.03551667" lon="-2.016095"><ele>79.000000</ele><time>2010-08-04T11:03:22Z</time></trkpt>
	<trkpt lat="52.03554" lon="-2.016031667"><ele>79.000000</ele><time>2010-08-04T11:03:27Z</time></trkpt>
	<trkpt lat="52.03556167" lon="-2.01596"><ele>80.000000</ele><time>2010-08-04T11:03:32Z</time></trkpt>
	<trkpt lat="52.03559" lon="-2.015891667"><ele>80.000000</ele><time>2010-08-04T11:03:37Z</time></trkpt>
	<trkpt lat="52.03561667" lon="-2.015816667"><ele>81.000000</ele><time>2010-08-04T11:03:42Z</time></trkpt>
	<trkpt lat="52.035635" lon="-2.015783333"><ele>80.000000</ele><time>2010-08-04T11:03:47Z</time></trkpt>
	<trkpt lat="52.03563667" lon="-2.015773333"><ele>80.000000</ele><time>2010-08-04T11:03:52Z</time></trkpt>
	<trkpt lat="52.035645" lon="-2.015753333"><ele>81.000000</ele><time>2010-08-04T11:03:57Z</time></trkpt>
	<trkpt lat="52.03566667" lon="-2.015681667"><ele>81.000000</ele><time>2010-08-04T11:04:02Z</time></trkpt>
	<trkpt lat="52.03569667" lon="-2.015605"><ele>81.000000</ele><time>2010-08-04T11:04:07Z</time></trkpt>
	<trkpt lat="52.03572667" lon="-2.015528333"><ele>82.000000</ele><time>2010-08-04T11:04:12Z</time></trkpt>
	<trkpt lat="52.035755" lon="-2.015453333"><ele>83.000000</ele><time>2010-08-04T11:04:17Z</time></trkpt>
	<trkpt lat="52.035785" lon="-2.015378333"><ele>83.000000</ele><time>2010-08-04T11:04:22Z</time></trkpt>
	<trkpt lat="52.035815" lon="-2.015298333"><ele>84.000000</ele><time>2010-08-04T11:04:27Z</time></trkpt>
	<trkpt lat="52.03584667" lon="-2.015216667"><ele>84.000000</ele><time>2010-08-04T11:04:32Z</time></trkpt>
	<trkpt lat="52.035875" lon="-2.01514"><ele>85.000000</ele><time>2010-08-04T11:04:37Z</time></trkpt>
	<trkpt lat="52.03590333" lon="-2.015056667"><ele>85.000000</ele><time>2010-08-04T11:04:42Z</time></trkpt>
	<trkpt lat="52.035935" lon="-2.014975"><ele>85.000000</ele><time>2010-08-04T11:04:47Z</time></trkpt>
	<trkpt lat="52.03596667" lon="-2.014898333"><ele>85.000000</ele><time>2010-08-04T11:04:52Z</time></trkpt>
	<trkpt lat="52.03599333" lon="-2.014818333"><ele>85.000000</ele><time>2010-08-04T11:04:57Z</time></trkpt>
	<trkpt lat="52.036025" lon="-2.01474"><ele>85.000000</ele><time>2010-08-04T11:05:02Z</time></trkpt>
	<trkpt lat="52.036055" lon="-2.014661667"><ele>86.000000</ele><time>2010-08-04T11:05:07Z</time></trkpt>
	<trkpt lat="52.036085" lon="-2.01458"><ele>86.000000</ele><time>2010-08-04T11:05:12Z</time></trkpt>
	<trkpt lat="52.03611667" lon="-2.0145"><ele>86.000000</ele><time>2010-08-04T11:05:17Z</time></trkpt>
	<trkpt lat="52.03614333" lon="-2.014438333"><ele>85.000000</ele><time>2010-08-04T11:05:22Z</time></trkpt>
	<trkpt lat="52.03614667" lon="-2.01443"><ele>84.000000</ele><time>2010-08-04T11:05:27Z</time></trkpt>
	<trkpt lat="52.03617167" lon="-2.014365"><ele>84.000000</ele><time>2010-08-04T11:05:32Z</time></trkpt>
	<trkpt lat="52.03619833" lon="-2.014281667"><ele>84.000000</ele><time>2010-08-04T11:05:37Z</time></trkpt>
	<trkpt lat="52.03622833" lon="-2.014203333"><ele>84.000000</ele><time>2010-08-04T11:05:42Z</time></trkpt>
	<trkpt lat="52.03626167" lon="-2.014126667"><ele>84.000000</ele><time>2010-08-04T11:05:47Z</time></trkpt>
	<trkpt lat="52.036295" lon="-2.014055"><ele>84.000000</ele><time>2010-08-04T11:05:52Z</time></trkpt>
	<trkpt lat="52.03632167" lon="-2.013976667"><ele>84.000000</ele><time>2010-08-04T11:05:57Z</time></trkpt>
	<trkpt lat="52.03635333" lon="-2.0139"><ele>84.000000</ele><time>2010-08-04T11:06:02Z</time></trkpt>
	<trkpt lat="52.03637833" lon="-2.013818333"><ele>84.000000</ele><time>2010-08-04T11:06:07Z</time></trkpt>
	<trkpt lat="52.03640667" lon="-2.01374"><ele>84.000000</ele><time>2010-08-04T11:06:12Z</time></trkpt>
	<trkpt lat="52.03643667" lon="-2.013668333"><ele>84.000000</ele><time>2010-08-04T11:06:17Z</time></trkpt>
	<trkpt lat="52.03646833" lon="-2.013593333"><ele>84.000000</ele><time>2010-08-04T11:06:22Z</time></trkpt>
	<trkpt lat="52.03650167" lon="-2.013513333"><ele>84.000000</ele><time>2010-08-04T11:06:27Z</time></trkpt>
	<trkpt lat="52.03652833" lon="-2.013436667"><ele>84.000000</ele><time>2010-08-04T11:06:32Z</time></trkpt>
	<trkpt lat="52.03656167" lon="-2.013366667"><ele>84.000000</ele><time>2010-08-04T11:06:37Z</time></trkpt>
	<trkpt lat="52.03657167" lon="-2.013346667"><ele>83.000000</ele><time>2010-08-04T11:06:42Z</time></trkpt>
	<trkpt lat="52.03657667" lon="-2.013328333"><ele>83.000000</ele><time>2010-08-04T11:06:47Z</time></trkpt>
	<trkpt lat="52.036595" lon="-2.013285"><ele>84.000000</ele><time>2010-08-04T11:06:52Z</time></trkpt>
	<trkpt lat="52.03660667" lon="-2.013263333"><ele>84.000000</ele><time>2010-08-04T11:06:57Z</time></trkpt>
	<trkpt lat="52.03661833" lon="-2.01323"><ele>83.000000</ele><time>2010-08-04T11:07:02Z</time></trkpt>
	<trkpt lat="52.03662667" lon="-2.013198333"><ele>82.000000</ele><time>2010-08-04T11:07:07Z</time></trkpt>
	<trkpt lat="52.03663" lon="-2.013126667"><ele>82.000000</ele><time>2010-08-04T11:07:12Z</time></trkpt>
	<trkpt lat="52.03661" lon="-2.013065"><ele>81.000000</ele><time>2010-08-04T11:07:17Z</time></trkpt>
	<trkpt lat="52.036585" lon="-2.013"><ele>80.000000</ele><time>2010-08-04T11:07:22Z</time></trkpt>
	<trkpt lat="52.03655833" lon="-2.012933333"><ele>78.000000</ele><time>2010-08-04T11:07:27Z</time></trkpt>
	<trkpt lat="52.03654167" lon="-2.01287"><ele>77.000000</ele><time>2010-08-04T11:07:32Z</time></trkpt>
	<trkpt lat="52.03652167" lon="-2.012811667"><ele>76.000000</ele><time>2010-08-04T11:07:37Z</time></trkpt>
	<trkpt lat="52.03650167" lon="-2.012748333"><ele>75.000000</ele><time>2010-08-04T11:07:42Z</time></trkpt>
	<trkpt lat="52.03647667" lon="-2.012691667"><ele>74.000000</ele><time>2010-08-04T11:07:47Z</time></trkpt>
	<trkpt lat="52.03645" lon="-2.012623333"><ele>74.000000</ele><time>2010-08-04T11:07:52Z</time></trkpt>
	<trkpt lat="52.03642" lon="-2.012566667"><ele>73.000000</ele><time>2010-08-04T11:07:57Z</time></trkpt>
	<trkpt lat="52.03641167" lon="-2.012531667"><ele>73.000000</ele><time>2010-08-04T11:08:02Z</time></trkpt>
	<trkpt lat="52.03639833" lon="-2.012513333"><ele>72.000000</ele><time>2010-08-04T11:08:07Z</time></trkpt>
	<trkpt lat="52.03636" lon="-2.012453333"><ele>72.000000</ele><time>2010-08-04T11:08:13Z</time></trkpt>
	<trkpt lat="52.03633333" lon="-2.01242"><ele>72.000000</ele><time>2010-08-04T11:08:18Z</time></trkpt>
	<trkpt lat="52.03631833" lon="-2.012363333"><ele>71.000000</ele><time>2010-08-04T11:08:23Z</time></trkpt>
	<trkpt lat="52.03629333" lon="-2.012306667"><ele>71.000000</ele><time>2010-08-04T11:08:28Z</time></trkpt>
	<trkpt lat="52.036265" lon="-2.01224"><ele>70.000000</ele><time>2010-08-04T11:08:33Z</time></trkpt>
	<trkpt lat="52.036235" lon="-2.012171667"><ele>70.000000</ele><time>2010-08-04T11:08:38Z</time></trkpt>
	<trkpt lat="52.036205" lon="-2.012111667"><ele>70.000000</ele><time>2010-08-04T11:08:43Z</time></trkpt>
	<trkpt lat="52.03618333" lon="-2.012046667"><ele>69.000000</ele><time>2010-08-04T11:08:48Z</time></trkpt>
	<trkpt lat="52.036175" lon="-2.011961667"><ele>68.000000</ele><time>2010-08-04T11:08:53Z</time></trkpt>
	<trkpt lat="52.03619" lon="-2.011896667"><ele>69.000000</ele><time>2010-08-04T11:08:58Z</time></trkpt>
	<trkpt lat="52.03621667" lon="-2.01183"><ele>69.000000</ele><time>2010-08-04T11:09:03Z</time></trkpt>
	<trkpt lat="52.03624" lon="-2.011758333"><ele>70.000000</ele><time>2010-08-04T11:09:08Z</time></trkpt>
	<trkpt lat="52.03626667" lon="-2.011681667"><ele>70.000000</ele><time>2010-08-04T11:09:13Z</time></trkpt>
	<trkpt lat="52.03629333" lon="-2.011613333"><ele>71.000000</ele><time>2010-08-04T11:09:18Z</time></trkpt>
	<trkpt lat="52.03632167" lon="-2.01155"><ele>70.000000</ele><time>2010-08-04T11:09:23Z</time></trkpt>
	<trkpt lat="52.03633333" lon="-2.011496667"><ele>69.000000</ele><time>2010-08-04T11:09:28Z</time></trkpt>
	<trkpt lat="52.03634667" lon="-2.011443333"><ele>69.000000</ele><time>2010-08-04T11:09:33Z</time></trkpt>
	<trkpt lat="52.03637167" lon="-2.011375"><ele>70.000000</ele><time>2010-08-04T11:09:38Z</time></trkpt>
	<trkpt lat="52.03639333" lon="-2.011311667"><ele>72.000000</ele><time>2010-08-04T11:09:43Z</time></trkpt>
	<trkpt lat="52.03641333" lon="-2.011243333"><ele>73.000000</ele><time>2010-08-04T11:09:48Z</time></trkpt>
	<trkpt lat="52.03643667" lon="-2.011168333"><ele>73.000000</ele><time>2010-08-04T11:09:53Z</time></trkpt>
	<trkpt lat="52.03644167" lon="-2.011128333"><ele>74.000000</ele><time>2010-08-04T11:09:58Z</time></trkpt>
	<trkpt lat="52.03644167" lon="-2.011108333"><ele>75.000000</ele><time>2010-08-04T11:10:03Z</time></trkpt>
	<trkpt lat="52.03645833" lon="-2.011043333"><ele>74.000000</ele><time>2010-08-04T11:10:08Z</time></trkpt>
	<trkpt lat="52.03645833" lon="-2.011011667"><ele>76.000000</ele><time>2010-08-04T11:10:13Z</time></trkpt>
	<trkpt lat="52.036465" lon="-2.010948333"><ele>76.000000</ele><time>2010-08-04T11:10:18Z</time></trkpt>
	<trkpt lat="52.03648" lon="-2.010908333"><ele>76.000000</ele><time>2010-08-04T11:10:23Z</time></trkpt>
	<trkpt lat="52.03649167" lon="-2.010876667"><ele>74.000000</ele><time>2010-08-04T11:10:28Z</time></trkpt>
	<trkpt lat="52.03651833" lon="-2.010845"><ele>73.000000</ele><time>2010-08-04T11:10:33Z</time></trkpt>
	<trkpt lat="52.03654833" lon="-2.010808333"><ele>73.000000</ele><time>2010-08-04T11:10:38Z</time></trkpt>
	<trkpt lat="52.03655" lon="-2.010793333"><ele>73.000000</ele><time>2010-08-04T11:10:43Z</time></trkpt>
	<trkpt lat="52.03655667" lon="-2.010783333"><ele>72.000000</ele><time>2010-08-04T11:10:48Z</time></trkpt>
	<trkpt lat="52.03655667" lon="-2.010778333"><ele>72.000000</ele><time>2010-08-04T11:10:53Z</time></trkpt>
	<trkpt lat="52.03655833" lon="-2.010765"><ele>72.000000</ele><time>2010-08-04T11:10:58Z</time></trkpt>
	<trkpt lat="52.03657333" lon="-2.010725"><ele>73.000000</ele><time>2010-08-04T11:11:03Z</time></trkpt>
	<trkpt lat="52.03659167" lon="-2.010641667"><ele>75.000000</ele><time>2010-08-04T11:11:08Z</time></trkpt>
	<trkpt lat="52.03660333" lon="-2.010561667"><ele>77.000000</ele><time>2010-08-04T11:11:13Z</time></trkpt>
	<trkpt lat="52.03661667" lon="-2.010478333"><ele>77.000000</ele><time>2010-08-04T11:11:18Z</time></trkpt>
	<trkpt lat="52.03663167" lon="-2.010396667"><ele>78.000000</ele><time>2010-08-04T11:11:23Z</time></trkpt>
	<trkpt lat="52.03664833" lon="-2.010311667"><ele>78.000000</ele><time>2010-08-04T11:11:28Z</time></trkpt>
	<trkpt lat="52.03666333" lon="-2.010223333"><ele>79.000000</ele><time>2010-08-04T11:11:33Z</time></trkpt>
	<trkpt lat="52.03667667" lon="-2.010138333"><ele>79.000000</ele><time>2010-08-04T11:11:38Z</time></trkpt>
	<trkpt lat="52.03669667" lon="-2.010038333"><ele>77.000000</ele><time>2010-08-04T11:11:43Z</time></trkpt>
	<trkpt lat="52.03670667" lon="-2.009941667"><ele>76.000000</ele><time>2010-08-04T11:11:48Z</time></trkpt>
	<trkpt lat="52.03671833" lon="-2.00985"><ele>75.000000</ele><time>2010-08-04T11:11:53Z</time></trkpt>
	<trkpt lat="52.03673167" lon="-2.00976"><ele>74.000000</ele><time>2010-08-04T11:11:58Z</time></trkpt>
	<trkpt lat="52.036745" lon="-2.009661667"><ele>73.000000</ele><time>2010-08-04T11:12:03Z</time></trkpt>
	<trkpt lat="52.036765" lon="-2.009566667"><ele>71.000000</ele><time>2010-08-04T11:12:08Z</time></trkpt>
	<trkpt lat="52.03677833" lon="-2.009476667"><ele>71.000000</ele><time>2010-08-04T11:12:13Z</time></trkpt>
	<trkpt lat="52.03679" lon="-2.009385"><ele>70.000000</ele><time>2010-08-04T11:12:18Z</time></trkpt>
	<trkpt lat="52.03680833" lon="-2.009295"><ele>69.000000</ele><time>2010-08-04T11:12:23Z</time></trkpt>
	<trkpt lat="52.03682333" lon="-2.009215"><ele>68.000000</ele><time>2010-08-04T11:12:28Z</time></trkpt>
	<trkpt lat="52.03684667" lon="-2.009133333"><ele>68.000000</ele><time>2010-08-04T11:12:33Z</time></trkpt>
	<trkpt lat="52.03688167" lon="-2.009061667"><ele>67.000000</ele><time>2010-08-04T11:12:38Z</time></trkpt>
	<trkpt lat="52.036915" lon="-2.008995"><ele>67.000000</ele><time>2010-08-04T11:12:43Z</time></trkpt>
	<trkpt lat="52.03695333" lon="-2.008935"><ele>67.000000</ele><time>2010-08-04T11:12:48Z</time></trkpt>
	<trkpt lat="52.03699" lon="-2.00887"><ele>67.000000</ele><time>2010-08-04T11:12:53Z</time></trkpt>
	<trkpt lat="52.03702667" lon="-2.008801667"><ele>67.000000</ele><time>2010-08-04T11:12:58Z</time></trkpt>
	<trkpt lat="52.037065" lon="-2.008738333"><ele>67.000000</ele><time>2010-08-04T11:13:03Z</time></trkpt>
	<trkpt lat="52.037115" lon="-2.00866"><ele>68.000000</ele><time>2010-08-04T11:13:08Z</time></trkpt>
	<trkpt lat="52.03715" lon="-2.008596667"><ele>68.000000</ele><time>2010-08-04T11:13:13Z</time></trkpt>
	<trkpt lat="52.03718833" lon="-2.008538333"><ele>67.000000</ele><time>2010-08-04T11:13:18Z</time></trkpt>
	<trkpt lat="52.037225" lon="-2.00848"><ele>67.000000</ele><time>2010-08-04T11:13:23Z</time></trkpt>
	<trkpt lat="52.03726333" lon="-2.00842"><ele>68.000000</ele><time>2010-08-04T11:13:28Z</time></trkpt>
	<trkpt lat="52.03728833" lon="-2.008348333"><ele>67.000000</ele><time>2010-08-04T11:13:33Z</time></trkpt>
	<trkpt lat="52.03730667" lon="-2.008266667"><ele>67.000000</ele><time>2010-08-04T11:13:38Z</time></trkpt>
	<trkpt lat="52.03732667" lon="-2.008188333"><ele>67.000000</ele><time>2010-08-04T11:13:43Z</time></trkpt>
	<trkpt lat="52.03735" lon="-2.00811"><ele>67.000000</ele><time>2010-08-04T11:13:48Z</time></trkpt>
	<trkpt lat="52.03737833" lon="-2.008031667"><ele>67.000000</ele><time>2010-08-04T11:13:53Z</time></trkpt>
	<trkpt lat="52.03740333" lon="-2.007945"><ele>67.000000</ele><time>2010-08-04T11:13:58Z</time></trkpt>
	<trkpt lat="52.03743167" lon="-2.007863333"><ele>66.000000</ele><time>2010-08-04T11:14:03Z</time></trkpt>
	<trkpt lat="52.037455" lon="-2.007781667"><ele>67.000000</ele><time>2010-08-04T11:14:08Z</time></trkpt>
	<trkpt lat="52.03748833" lon="-2.007706667"><ele>67.000000</ele><time>2010-08-04T11:14:13Z</time></trkpt>
	<trkpt lat="52.037515" lon="-2.007631667"><ele>66.000000</ele><time>2010-08-04T11:14:18Z</time></trkpt>
	<trkpt lat="52.03753833" lon="-2.00755"><ele>66.000000</ele><time>2010-08-04T11:14:23Z</time></trkpt>
	<trkpt lat="52.03756" lon="-2.007468333"><ele>66.000000</ele><time>2010-08-04T11:14:28Z</time></trkpt>
	<trkpt lat="52.03758333" lon="-2.007391667"><ele>66.000000</ele><time>2010-08-04T11:14:33Z</time></trkpt>
	<trkpt lat="52.03760833" lon="-2.007308333"><ele>65.000000</ele><time>2010-08-04T11:14:38Z</time></trkpt>
	<trkpt lat="52.03763" lon="-2.007226667"><ele>65.000000</ele><time>2010-08-04T11:14:43Z</time></trkpt>
	<trkpt lat="52.03766" lon="-2.007153333"><ele>65.000000</ele><time>2010-08-04T11:14:48Z</time></trkpt>
	<trkpt lat="52.03769" lon="-2.00708"><ele>64.000000</ele><time>2010-08-04T11:14:53Z</time></trkpt>
	<trkpt lat="52.03772" lon="-2.007003333"><ele>64.000000</ele><time>2010-08-04T11:14:58Z</time></trkpt>
	<trkpt lat="52.03774333" lon="-2.006926667"><ele>64.000000</ele><time>2010-08-04T11:15:03Z</time></trkpt>
	<trkpt lat="52.037765" lon="-2.006865"><ele>64.000000</ele><time>2010-08-04T11:15:08Z</time></trkpt>
	<trkpt lat="52.03778" lon="-2.006813333"><ele>64.000000</ele><time>2010-08-04T11:15:13Z</time></trkpt>
	<trkpt lat="52.037795" lon="-2.006778333"><ele>64.000000</ele><time>2010-08-04T11:15:18Z</time></trkpt>
	<trkpt lat="52.037795" lon="-2.006761667"><ele>63.000000</ele><time>2010-08-04T11:15:23Z</time></trkpt>
	<trkpt lat="52.037795" lon="-2.006755"><ele>63.000000</ele><time>2010-08-04T11:15:28Z</time></trkpt>
	<trkpt lat="52.037795" lon="-2.006741667"><ele>63.000000</ele><time>2010-08-04T11:15:33Z</time></trkpt>
	<trkpt lat="52.03778667" lon="-2.00672"><ele>63.000000</ele><time>2010-08-04T11:15:38Z</time></trkpt>
	<trkpt lat="52.03776833" lon="-2.006675"><ele>64.000000</ele><time>2010-08-04T11:15:43Z</time></trkpt>
	<trkpt lat="52.03775" lon="-2.00663"><ele>66.000000</ele><time>2010-08-04T11:15:48Z</time></trkpt>
	<trkpt lat="52.03774333" lon="-2.006598333"><ele>70.000000</ele><time>2010-08-04T11:15:53Z</time></trkpt>
	<trkpt lat="52.03772667" lon="-2.006538333"><ele>68.000000</ele><time>2010-08-04T11:15:58Z</time></trkpt>
	<trkpt lat="52.03773167" lon="-2.006446667"><ele>65.000000</ele><time>2010-08-04T11:16:03Z</time></trkpt>
	<trkpt lat="52.03773" lon="-2.006336667"><ele>62.000000</ele><time>2010-08-04T11:16:08Z</time></trkpt>
	<trkpt lat="52.037725" lon="-2.006255"><ele>61.000000</ele><time>2010-08-04T11:16:13Z</time></trkpt>
	<trkpt lat="52.03772833" lon="-2.006181667"><ele>63.000000</ele><time>2010-08-04T11:16:18Z</time></trkpt>
	<trkpt lat="52.037735" lon="-2.006095"><ele>62.000000</ele><time>2010-08-04T11:16:23Z</time></trkpt>
	<trkpt lat="52.03773833" lon="-2.006001667"><ele>61.000000</ele><time>2010-08-04T11:16:28Z</time></trkpt>
	<trkpt lat="52.03774333" lon="-2.005913333"><ele>60.000000</ele><time>2010-08-04T11:16:33Z</time></trkpt>
	<trkpt lat="52.03774167" lon="-2.005833333"><ele>60.000000</ele><time>2010-08-04T11:16:38Z</time></trkpt>
	<trkpt lat="52.037765" lon="-2.005718333"><ele>55.000000</ele><time>2010-08-04T11:16:43Z</time></trkpt>
	<trkpt lat="52.03776" lon="-2.005628333"><ele>56.000000</ele><time>2010-08-04T11:16:48Z</time></trkpt>
	<trkpt lat="52.03776" lon="-2.005523333"><ele>53.000000</ele><time>2010-08-04T11:16:53Z</time></trkpt>
	<trkpt lat="52.03775" lon="-2.005426667"><ele>52.000000</ele><time>2010-08-04T11:16:58Z</time></trkpt>
	<trkpt lat="52.037735" lon="-2.005338333"><ele>50.000000</ele><time>2010-08-04T11:17:03Z</time></trkpt>
	<trkpt lat="52.03772" lon="-2.00526"><ele>50.000000</ele><time>2010-08-04T11:17:08Z</time></trkpt>
	<trkpt lat="52.03771667" lon="-2.005236667"><ele>50.000000</ele><time>2010-08-04T11:17:13Z</time></trkpt>
	<trkpt lat="52.03771167" lon="-2.005221667"><ele>49.000000</ele><time>2010-08-04T11:17:18Z</time></trkpt>
	<trkpt lat="52.03771" lon="-2.005203333"><ele>49.000000</ele><time>2010-08-04T11:17:23Z</time></trkpt>
	<trkpt lat="52.03769333" lon="-2.005175"><ele>48.000000</ele><time>2010-08-04T11:17:28Z</time></trkpt>
	<trkpt lat="52.037685" lon="-2.005131667"><ele>47.000000</ele><time>2010-08-04T11:17:33Z</time></trkpt>
	<trkpt lat="52.03767167" lon="-2.005106667"><ele>47.000000</ele><time>2010-08-04T11:17:38Z</time></trkpt>
	<trkpt lat="52.037685" lon="-2.005061667"><ele>47.000000</ele><time>2010-08-04T11:17:43Z</time></trkpt>
	<trkpt lat="52.03771833" lon="-2.005008333"><ele>48.000000</ele><time>2010-08-04T11:17:48Z</time></trkpt>
	<trkpt lat="52.03776167" lon="-2.004968333"><ele>48.000000</ele><time>2010-08-04T11:17:53Z</time></trkpt>
	<trkpt lat="52.03781" lon="-2.004935"><ele>49.000000</ele><time>2010-08-04T11:17:58Z</time></trkpt>
	<trkpt lat="52.03786167" lon="-2.004908333"><ele>49.000000</ele><time>2010-08-04T11:18:03Z</time></trkpt>
	<trkpt lat="52.03791667" lon="-2.004886667"><ele>49.000000</ele><time>2010-08-04T11:18:08Z</time></trkpt>
	<trkpt lat="52.03797667" lon="-2.004871667"><ele>49.000000</ele><time>2010-08-04T11:18:13Z</time></trkpt>
	<trkpt lat="52.03803" lon="-2.004875"><ele>50.000000</ele><time>2010-08-04T11:18:18Z</time></trkpt>
	<trkpt lat="52.03807833" lon="-2.004881667"><ele>50.000000</ele><time>2010-08-04T11:18:23Z</time></trkpt>
	<trkpt lat="52.03811667" lon="-2.004878333"><ele>51.000000</ele><time>2010-08-04T11:18:28Z</time></trkpt>
	<trkpt lat="52.03811333" lon="-2.004878333"><ele>52.000000</ele><time>2010-08-04T11:18:33Z</time></trkpt>
	<trkpt lat="52.03811" lon="-2.004871667"><ele>52.000000</ele><time>2010-08-04T11:18:38Z</time></trkpt>
	<trkpt lat="52.03810833" lon="-2.00487"><ele>52.000000</ele><time>2010-08-04T11:18:43Z</time></trkpt>
	<trkpt lat="52.03813" lon="-2.004871667"><ele>53.000000</ele><time>2010-08-04T11:18:48Z</time></trkpt>
	<trkpt lat="52.03817667" lon="-2.004891667"><ele>54.000000</ele><time>2010-08-04T11:18:53Z</time></trkpt>
	<trkpt lat="52.03823" lon="-2.0049"><ele>54.000000</ele><time>2010-08-04T11:18:58Z</time></trkpt>
	<trkpt lat="52.038285" lon="-2.0049"><ele>55.000000</ele><time>2010-08-04T11:19:03Z</time></trkpt>
	<trkpt lat="52.03833667" lon="-2.004895"><ele>56.000000</ele><time>2010-08-04T11:19:08Z</time></trkpt>
	<trkpt lat="52.03839333" lon="-2.004883333"><ele>57.000000</ele><time>2010-08-04T11:19:13Z</time></trkpt>
	<trkpt lat="52.03844167" lon="-2.004895"><ele>58.000000</ele><time>2010-08-04T11:19:18Z</time></trkpt>
	<trkpt lat="52.038485" lon="-2.00494"><ele>58.000000</ele><time>2010-08-04T11:19:23Z</time></trkpt>
	<trkpt lat="52.038495" lon="-2.004983333"><ele>61.000000</ele><time>2010-08-04T11:19:28Z</time></trkpt>
	<trkpt lat="52.03849" lon="-2.00502"><ele>65.000000</ele><time>2010-08-04T11:19:33Z</time></trkpt>
	<trkpt lat="52.03848833" lon="-2.005056667"><ele>68.000000</ele><time>2010-08-04T11:19:38Z</time></trkpt>
	<trkpt lat="52.038475" lon="-2.005118333"><ele>69.000000</ele><time>2010-08-04T11:19:43Z</time></trkpt>
	<trkpt lat="52.038475" lon="-2.005191667"><ele>70.000000</ele><time>2010-08-04T11:19:48Z</time></trkpt>
	<trkpt lat="52.03849" lon="-2.005235"><ele>72.000000</ele><time>2010-08-04T11:19:53Z</time></trkpt>
	<trkpt lat="52.038515" lon="-2.005271667"><ele>73.000000</ele><time>2010-08-04T11:19:58Z</time></trkpt>
	<trkpt lat="52.03853667" lon="-2.005296667"><ele>74.000000</ele><time>2010-08-04T11:20:03Z</time></trkpt>
	<trkpt lat="52.03854167" lon="-2.0053"><ele>74.000000</ele><time>2010-08-04T11:20:08Z</time></trkpt>
	<trkpt lat="52.03854833" lon="-2.005328333"><ele>72.000000</ele><time>2010-08-04T11:20:13Z</time></trkpt>
	<trkpt lat="52.03856667" lon="-2.00538"><ele>71.000000</ele><time>2010-08-04T11:20:18Z</time></trkpt>
	<trkpt lat="52.038615" lon="-2.00547"><ele>68.000000</ele><time>2010-08-04T11:20:23Z</time></trkpt>
	<trkpt lat="52.03866" lon="-2.005508333"><ele>66.000000</ele><time>2010-08-04T11:20:28Z</time></trkpt>
	<trkpt lat="52.03869333" lon="-2.005518333"><ele>67.000000</ele><time>2010-08-04T11:20:33Z</time></trkpt>
	<trkpt lat="52.03872833" lon="-2.005561667"><ele>64.000000</ele><time>2010-08-04T11:20:38Z</time></trkpt>
	<trkpt lat="52.03874667" lon="-2.00557"><ele>62.000000</ele><time>2010-08-04T11:20:43Z</time></trkpt>
	<trkpt lat="52.03875" lon="-2.00558"><ele>61.000000</ele><time>2010-08-04T11:20:48Z</time></trkpt>
	<trkpt lat="52.03874167" lon="-2.005583333"><ele>61.000000</ele><time>2010-08-04T11:20:53Z</time></trkpt>
	<trkpt lat="52.038745" lon="-2.005585"><ele>60.000000</ele><time>2010-08-04T11:20:58Z</time></trkpt>
	<trkpt lat="52.03875667" lon="-2.005575"><ele>61.000000</ele><time>2010-08-04T11:21:03Z</time></trkpt>
	<trkpt lat="52.03875" lon="-2.005585"><ele>62.000000</ele><time>2010-08-04T11:21:08Z</time></trkpt>
	<trkpt lat="52.03875" lon="-2.005588333"><ele>61.000000</ele><time>2010-08-04T11:21:13Z</time></trkpt>
	<trkpt lat="52.03875167" lon="-2.00559"><ele>61.000000</ele><time>2010-08-04T11:21:18Z</time></trkpt>
	<trkpt lat="52.03875" lon="-2.005595"><ele>60.000000</ele><time>2010-08-04T11:21:23Z</time></trkpt>
	<trkpt lat="52.03874667" lon="-2.0056"><ele>60.000000</ele><time>2010-08-04T11:21:28Z</time></trkpt>
	<trkpt lat="52.03874667" lon="-2.005606667"><ele>60.000000</ele><time>2010-08-04T11:21:33Z</time></trkpt>
	<trkpt lat="52.03874667" lon="-2.005615"><ele>59.000000</ele><time>2010-08-04T11:21:38Z</time></trkpt>
	<trkpt lat="52.03874667" lon="-2.00562"><ele>58.000000</ele><time>2010-08-04T11:21:43Z</time></trkpt>
	<trkpt lat="52.03875" lon="-2.005616667"><ele>58.000000</ele><time>2010-08-04T11:21:48Z</time></trkpt>
	<trkpt lat="52.03875" lon="-2.005598333"><ele>58.000000</ele><time>2010-08-04T11:21:53Z</time></trkpt>
	<trkpt lat="52.03875167" lon="-2.00561"><ele>57.000000</ele><time>2010-08-04T11:21:58Z</time></trkpt>
	<trkpt lat="52.03875" lon="-2.005623333"><ele>56.000000</ele><time>2010-08-04T11:22:03Z</time></trkpt>
	<trkpt lat="52.03874667" lon="-2.005631667"><ele>56.000000</ele><time>2010-08-04T11:22:08Z</time></trkpt>
	<trkpt lat="52.03874667" lon="-2.005631667"><ele>57.000000</ele><time>2010-08-04T11:22:13Z</time></trkpt>
	<trkpt lat="52.038745" lon="-2.005628333"><ele>57.000000</ele><time>2010-08-04T11:22:18Z</time></trkpt>
	<trkpt lat="52.038745" lon="-2.00562"><ele>57.000000</ele><time>2010-08-04T11:22:23Z</time></trkpt>
	<trkpt lat="52.03874333" lon="-2.00561"><ele>57.000000</ele><time>2010-08-04T11:22:28Z</time></trkpt>
	<trkpt lat="52.038745" lon="-2.005596667"><ele>56.000000</ele><time>2010-08-04T11:22:33Z</time></trkpt>
	<trkpt lat="52.03874667" lon="-2.005593333"><ele>56.000000</ele><time>2010-08-04T11:22:38Z</time></trkpt>
	<trkpt lat="52.03874667" lon="-2.0056"><ele>55.000000</ele><time>2010-08-04T11:22:43Z</time></trkpt>
	<trkpt lat="52.03874667" lon="-2.005605"><ele>55.000000</ele><time>2010-08-04T11:22:48Z</time></trkpt>
	<trkpt lat="52.03874667" lon="-2.0056"><ele>55.000000</ele><time>2010-08-04T11:22:53Z</time></trkpt>
	<trkpt lat="52.03874667" lon="-2.005588333"><ele>54.000000</ele><time>2010-08-04T11:22:58Z</time></trkpt>
	<trkpt lat="52.03874667" lon="-2.005576667"><ele>53.000000</ele><time>2010-08-04T11:23:03Z</time></trkpt>
	<trkpt lat="52.03874667" lon="-2.005571667"><ele>53.000000</ele><time>2010-08-04T11:23:08Z</time></trkpt>
	<trkpt lat="52.03874333" lon="-2.005566667"><ele>54.000000</ele><time>2010-08-04T11:23:13Z</time></trkpt>
	<trkpt lat="52.03874167" lon="-2.005561667"><ele>54.000000</ele><time>2010-08-04T11:23:18Z</time></trkpt>
	<trkpt lat="52.03874" lon="-2.005561667"><ele>54.000000</ele><time>2010-08-04T11:23:23Z</time></trkpt>
	<trkpt lat="52.03874" lon="-2.005563333"><ele>54.000000</ele><time>2010-08-04T11:23:28Z</time></trkpt>
	<trkpt lat="52.03873833" lon="-2.005565"><ele>54.000000</ele><time>2010-08-04T11:23:33Z</time></trkpt>
	<trkpt lat="52.03873667" lon="-2.005568333"><ele>54.000000</ele><time>2010-08-04T11:23:38Z</time></trkpt>
	<trkpt lat="52.038735" lon="-2.005566667"><ele>54.000000</ele><time>2010-08-04T11:23:43Z</time></trkpt>
	<trkpt lat="52.03873167" lon="-2.00557"><ele>54.000000</ele><time>2010-08-04T11:23:48Z</time></trkpt>
	<trkpt lat="52.03873167" lon="-2.005581667"><ele>54.000000</ele><time>2010-08-04T11:23:53Z</time></trkpt>
	<trkpt lat="52.03873167" lon="-2.005596667"><ele>54.000000</ele><time>2010-08-04T11:23:58Z</time></trkpt>
	<trkpt lat="52.03873" lon="-2.005596667"><ele>54.000000</ele><time>2010-08-04T11:24:03Z</time></trkpt>
	<trkpt lat="52.03873" lon="-2.005593333"><ele>54.000000</ele><time>2010-08-04T11:24:08Z</time></trkpt>
	<trkpt lat="52.03872667" lon="-2.005591667"><ele>55.000000</ele><time>2010-08-04T11:24:13Z</time></trkpt>
	<trkpt lat="52.03872667" lon="-2.005593333"><ele>55.000000</ele><time>2010-08-04T11:24:18Z</time></trkpt>
	<trkpt lat="52.03871667" lon="-2.005616667"><ele>57.000000</ele><time>2010-08-04T11:24:23Z</time></trkpt>
	<trkpt lat="52.03871667" lon="-2.005628333"><ele>58.000000</ele><time>2010-08-04T11:24:28Z</time></trkpt>
	<trkpt lat="52.03871667" lon="-2.005641667"><ele>59.000000</ele><time>2010-08-04T11:24:33Z</time></trkpt>
	<trkpt lat="52.03871667" lon="-2.005653333"><ele>59.000000</ele><time>2010-08-04T11:24:38Z</time></trkpt>
	<trkpt lat="52.03871667" lon="-2.005663333"><ele>59.000000</ele><time>2010-08-04T11:24:43Z</time></trkpt>
	<trkpt lat="52.03872" lon="-2.005668333"><ele>59.000000</ele><time>2010-08-04T11:24:48Z</time></trkpt>
	<trkpt lat="52.03871667" lon="-2.00567"><ele>60.000000</ele><time>2010-08-04T11:24:53Z</time></trkpt>
	<trkpt lat="52.03871667" lon="-2.005668333"><ele>60.000000</ele><time>2010-08-04T11:24:58Z</time></trkpt>
	<trkpt lat="52.03872" lon="-2.005666667"><ele>59.000000</ele><time>2010-08-04T11:25:03Z</time></trkpt>
	<trkpt lat="52.03872" lon="-2.005663333"><ele>59.000000</ele><time>2010-08-04T11:25:08Z</time></trkpt>
	<trkpt lat="52.03871667" lon="-2.005665"><ele>60.000000</ele><time>2010-08-04T11:25:13Z</time></trkpt>
	<trkpt lat="52.03872" lon="-2.005661667"><ele>59.000000</ele><time>2010-08-04T11:25:18Z</time></trkpt>
	<trkpt lat="52.03872167" lon="-2.005656667"><ele>59.000000</ele><time>2010-08-04T11:25:23Z</time></trkpt>
	<trkpt lat="52.03872" lon="-2.005651667"><ele>58.000000</ele><time>2010-08-04T11:25:28Z</time></trkpt>
	<trkpt lat="52.03871667" lon="-2.00565"><ele>58.000000</ele><time>2010-08-04T11:25:33Z</time></trkpt>
	<trkpt lat="52.03872" lon="-2.005646667"><ele>58.000000</ele><time>2010-08-04T11:25:38Z</time></trkpt>
	<trkpt lat="52.038735" lon="-2.005621667"><ele>55.000000</ele><time>2010-08-04T11:25:43Z</time></trkpt>
	<trkpt lat="52.03873833" lon="-2.005618333"><ele>54.000000</ele><time>2010-08-04T11:25:48Z</time></trkpt>
	<trkpt lat="52.03873833" lon="-2.005618333"><ele>54.000000</ele><time>2010-08-04T11:25:53Z</time></trkpt>
	<trkpt lat="52.03874" lon="-2.00562"><ele>53.000000</ele><time>2010-08-04T11:25:58Z</time></trkpt>
	<trkpt lat="52.03874" lon="-2.005615"><ele>53.000000</ele><time>2010-08-04T11:26:03Z</time></trkpt>
	<trkpt lat="52.03874" lon="-2.00561"><ele>52.000000</ele><time>2010-08-04T11:26:08Z</time></trkpt>
	<trkpt lat="52.03873833" lon="-2.005613333"><ele>53.000000</ele><time>2010-08-04T11:26:13Z</time></trkpt>
	<trkpt lat="52.03873167" lon="-2.005611667"><ele>54.000000</ele><time>2010-08-04T11:26:18Z</time></trkpt>
	<trkpt lat="52.03873667" lon="-2.00562"><ele>56.000000</ele><time>2010-08-04T11:26:23Z</time></trkpt>
	<trkpt lat="52.038735" lon="-2.00562"><ele>58.000000</ele><time>2010-08-04T11:26:28Z</time></trkpt>
	<trkpt lat="52.03873833" lon="-2.005626667"><ele>59.000000</ele><time>2010-08-04T11:26:33Z</time></trkpt>
	<trkpt lat="52.03873833" lon="-2.005623333"><ele>58.000000</ele><time>2010-08-04T11:26:38Z</time></trkpt>
	<trkpt lat="52.03874" lon="-2.005621667"><ele>56.000000</ele><time>2010-08-04T11:26:43Z</time></trkpt>
	<trkpt lat="52.03873833" lon="-2.005616667"><ele>55.000000</ele><time>2010-08-04T11:26:48Z</time></trkpt>
	<trkpt lat="52.03874" lon="-2.005613333"><ele>53.000000</ele><time>2010-08-04T11:26:53Z</time></trkpt>
	<trkpt lat="52.03873833" lon="-2.005611667"><ele>53.000000</ele><time>2010-08-04T11:26:58Z</time></trkpt>
	<trkpt lat="52.038735" lon="-2.005605"><ele>52.000000</ele><time>2010-08-04T11:27:03Z</time></trkpt>
	<trkpt lat="52.03873167" lon="-2.005621667"><ele>54.000000</ele><time>2010-08-04T11:27:08Z</time></trkpt>
	<trkpt lat="52.03873167" lon="-2.005631667"><ele>55.000000</ele><time>2010-08-04T11:27:13Z</time></trkpt>
	<trkpt lat="52.03872833" lon="-2.005638333"><ele>55.000000</ele><time>2010-08-04T11:27:18Z</time></trkpt>
	<trkpt lat="52.03872667" lon="-2.005645"><ele>56.000000</ele><time>2010-08-04T11:27:23Z</time></trkpt>
	<trkpt lat="52.038725" lon="-2.005645"><ele>57.000000</ele><time>2010-08-04T11:27:28Z</time></trkpt>
	<trkpt lat="52.03872167" lon="-2.005638333"><ele>61.000000</ele><time>2010-08-04T11:27:33Z</time></trkpt>
</trkseg>
</trk>
</gpx>
